Osage River (Missouri), Tuscumbia (06926080)

StateMissouriLatestUnknown (37600 cfs)
RiverOsage RiverRatingObservedEstimated
Updated2020-04-04 21:00 (1 hour ago)Flood - The river is flooding. Obstacles can be treacherous or deadly. The river should be avoided at this stage for casual trips and definitely for the inexperienced. Trips should be attempted only with protective gear and equipment.Flood(none)(none)
Discharge37600 cfs (median: 7680 cfs)High - The river is high and potentially dangerous, especially for the young and / or inexperienced. Normal stream obstacles are sometimes difficult to navigate. Extended distances can be attempted, but canoe travel may not be advisable.High(none)(none)
Height16.5 feetGood - Conditions are ideal for a canoe or kayak. Boats typically will drag on fewer than one-quarter of riffles, if at all, and portages are unnecessary or rare. Normal float lengths can be attempted without a problem.Good(none)(none)
TrendRising (rising over 24 hours)Low - River is low but can still be floated. Some riffles are okay but most come with significant dragging and might need a portage. Float lengths should be reduced to accommodate low flow, dragging, and portages.Low(none)(none)
USGSExternal icon USGS Site (External icon Google Maps)Poor - River is too low to float comfortably. Most or all riffles will drag or must be portaged and some obstacles (such as slick shelf rock) cause undue problems. Avoid the river at this stage for casual paddling trips.Poor(none)(none)

Trending Data

Plot Image

Trips for Osage River (Missouri), Tuscumbia (06926080)

DateStartEndDistanceConditionDischargeHeightFishingDetails

A total of 0 rows are displayed.

Condition Descriptions

Fishing Conditions

Fish Species

Notes

Classic Trip List

The classic River Trips application is still available for use. It is updated with the new system using a data retrofit. It is no longer maintained. The original River Trips application is no longer updated (as of 1 Dec 2016) but can be checked for errors or for the condition of the data before it was converted to the new system.

Gauge Data Table

ObservationHeightDischargeMaximum
Discharge
Minimum
Discharge
Mean
Discharge
P05P10P20P25P50
(Median)
P75P80P90P95
2020-04-04 21:00 16.50 37600 22900 (2019) 3810 (2016) 10500 3810 4170 7680 19700 22900
2020-04-04 20:00 16.48 37500 22900 (2019) 3810 (2016) 10500 3810 4170 7680 19700 22900
2020-04-04 19:00 16.45 37400 22900 (2019) 3810 (2016) 10500 3810 4170 7680 19700 22900
2020-04-04 18:00 16.44 37400 22900 (2019) 3810 (2016) 10500 3810 4170 7680 19700 22900
2020-04-04 17:00 16.40 37200 22900 (2019) 3810 (2016) 10500 3810 4170 7680 19700 22900
2020-04-04 16:00 16.34 37000 22900 (2019) 3810 (2016) 10500 3810 4170 7680 19700 22900
2020-04-04 15:00 16.32 37000 22900 (2019) 3810 (2016) 10500 3810 4170 7680 19700 22900
2020-04-04 14:00 16.24 36700 22900 (2019) 3810 (2016) 10500 3810 4170 7680 19700 22900
2020-04-04 13:00 16.18 36500 22900 (2019) 3810 (2016) 10500 3810 4170 7680 19700 22900
2020-04-04 12:00 16.10 36300 22900 (2019) 3810 (2016) 10500 3810 4170 7680 19700 22900
2020-04-04 11:00 16.05 36100 22900 (2019) 3810 (2016) 10500 3810 4170 7680 19700 22900
2020-04-04 10:00 15.99 35900 22900 (2019) 3810 (2016) 10500 3810 4170 7680 19700 22900
2020-04-04 09:00 15.90 35600 22900 (2019) 3810 (2016) 10500 3810 4170 7680 19700 22900
2020-04-04 08:00 15.82 35400 22900 (2019) 3810 (2016) 10500 3810 4170 7680 19700 22900
2020-04-04 07:00 15.70 35000 22900 (2019) 3810 (2016) 10500 3810 4170 7680 19700 22900
2020-04-04 06:00 15.64 34800 22900 (2019) 3810 (2016) 10500 3810 4170 7680 19700 22900
2020-04-04 05:00 15.61 34700 22900 (2019) 3810 (2016) 10500 3810 4170 7680 19700 22900
2020-04-04 04:00 15.69 35000 22900 (2019) 3810 (2016) 10500 3810 4170 7680 19700 22900
2020-04-04 03:00 15.80 35300 22900 (2019) 3810 (2016) 10500 3810 4170 7680 19700 22900
2020-04-04 02:00 16.18 36500 22900 (2019) 3810 (2016) 10500 3810 4170 7680 19700 22900
2020-04-04 01:00 16.48 37500 22900 (2019) 3810 (2016) 10500 3810 4170 7680 19700 22900
2020-04-04 00:00 16.49 37500 22900 (2019) 3810 (2016) 10500 3810 4170 7680 19700 22900
2020-04-03 23:00 16.50 37600 19600 (2018) 3800 (2016) 11100 3800 3880 10500 18900 19600
2020-04-03 22:00 16.48 37500 19600 (2018) 3800 (2016) 11100 3800 3880 10500 18900 19600
2020-04-03 21:00 16.48 37500 19600 (2018) 3800 (2016) 11100 3800 3880 10500 18900 19600
2020-04-03 20:00 16.45 37400 19600 (2018) 3800 (2016) 11100 3800 3880 10500 18900 19600
2020-04-03 19:00 16.47 37500 19600 (2018) 3800 (2016) 11100 3800 3880 10500 18900 19600
2020-04-03 18:00 16.45 37400 19600 (2018) 3800 (2016) 11100 3800 3880 10500 18900 19600
2020-04-03 17:00 16.43 37300 19600 (2018) 3800 (2016) 11100 3800 3880 10500 18900 19600
2020-04-03 16:00 16.41 37300 19600 (2018) 3800 (2016) 11100 3800 3880 10500 18900 19600
2020-04-03 15:00 16.41 37300 19600 (2018) 3800 (2016) 11100 3800 3880 10500 18900 19600
2020-04-03 14:00 16.43 37300 19600 (2018) 3800 (2016) 11100 3800 3880 10500 18900 19600
2020-04-03 13:00 16.49 37500 19600 (2018) 3800 (2016) 11100 3800 3880 10500 18900 19600
2020-04-03 12:00 16.48 37500 19600 (2018) 3800 (2016) 11100 3800 3880 10500 18900 19600
2020-04-03 11:00 16.47 37500 19600 (2018) 3800 (2016) 11100 3800 3880 10500 18900 19600
2020-04-03 10:00 16.45 37400 19600 (2018) 3800 (2016) 11100 3800 3880 10500 18900 19600
2020-04-03 09:00 16.44 37400 19600 (2018) 3800 (2016) 11100 3800 3880 10500 18900 19600
2020-04-03 08:00 16.43 37300 19600 (2018) 3800 (2016) 11100 3800 3880 10500 18900 19600
2020-04-03 07:00 16.42 37300 19600 (2018) 3800 (2016) 11100 3800 3880 10500 18900 19600
2020-04-03 06:00 16.38 37200 19600 (2018) 3800 (2016) 11100 3800 3880 10500 18900 19600
2020-04-03 05:00 16.39 37200 19600 (2018) 3800 (2016) 11100 3800 3880 10500 18900 19600
2020-04-03 04:00 16.37 37100 19600 (2018) 3800 (2016) 11100 3800 3880 10500 18900 19600
2020-04-03 03:00 16.34 37000 19600 (2018) 3800 (2016) 11100 3800 3880 10500 18900 19600
2020-04-03 02:00 16.34 37000 19600 (2018) 3800 (2016) 11100 3800 3880 10500 18900 19600
2020-04-03 01:00 16.28 36800 19600 (2018) 3800 (2016) 11100 3800 3880 10500 18900 19600
2020-04-03 00:00 16.27 36800 19600 (2018) 3800 (2016) 11100 3800 3880 10500 18900 19600
2020-04-02 23:00 16.26 36800 24200 (2018) 3840 (2016) 10400 3840 3850 6690 20500 24200
2020-04-02 22:00 16.25 36800 24200 (2018) 3840 (2016) 10400 3840 3850 6690 20500 24200
2020-04-02 21:00 16.19 36600 24200 (2018) 3840 (2016) 10400 3840 3850 6690 20500 24200
2020-04-02 20:00 16.18 36500 24200 (2018) 3840 (2016) 10400 3840 3850 6690 20500 24200
2020-04-02 19:00 16.15 36400 24200 (2018) 3840 (2016) 10400 3840 3850 6690 20500 24200
2020-04-02 18:00 16.10 36300 24200 (2018) 3840 (2016) 10400 3840 3850 6690 20500 24200
2020-04-02 17:00 16.05 36100 24200 (2018) 3840 (2016) 10400 3840 3850 6690 20500 24200
2020-04-02 16:00 15.98 35900 24200 (2018) 3840 (2016) 10400 3840 3850 6690 20500 24200
2020-04-02 15:00 15.89 35600 24200 (2018) 3840 (2016) 10400 3840 3850 6690 20500 24200
2020-04-02 14:00 15.80 35300 24200 (2018) 3840 (2016) 10400 3840 3850 6690 20500 24200
2020-04-02 13:00 15.71 35000 24200 (2018) 3840 (2016) 10400 3840 3850 6690 20500 24200
2020-04-02 12:00 15.60 34700 24200 (2018) 3840 (2016) 10400 3840 3850 6690 20500 24200
2020-04-02 11:00 15.43 34200 24200 (2018) 3840 (2016) 10400 3840 3850 6690 20500 24200
2020-04-02 10:00 15.27 33700 24200 (2018) 3840 (2016) 10400 3840 3850 6690 20500 24200
2020-04-02 09:00 15.12 33200 24200 (2018) 3840 (2016) 10400 3840 3850 6690 20500 24200
2020-04-02 08:00 14.93 32600 24200 (2018) 3840 (2016) 10400 3840 3850 6690 20500 24200
2020-04-02 07:00 14.78 32100 24200 (2018) 3840 (2016) 10400 3840 3850 6690 20500 24200
2020-04-02 06:00 14.88 32500 24200 (2018) 3840 (2016) 10400 3840 3850 6690 20500 24200
2020-04-02 05:00 15.29 33700 24200 (2018) 3840 (2016) 10400 3840 3850 6690 20500 24200
2020-04-02 04:00 15.83 35400 24200 (2018) 3840 (2016) 10400 3840 3850 6690 20500 24200
2020-04-02 03:00 16.43 37300 24200 (2018) 3840 (2016) 10400 3840 3850 6690 20500 24200
2020-04-02 02:00 16.74 38300 24200 (2018) 3840 (2016) 10400 3840 3850 6690 20500 24200
2020-04-02 01:00 16.69 38200 24200 (2018) 3840 (2016) 10400 3840 3850 6690 20500 24200
2020-04-02 00:00 16.76 38400 24200 (2018) 3840 (2016) 10400 3840 3850 6690 20500 24200
2020-04-01 23:00 16.74 38300 10400 (2018) 3940 (2016) 5610 3940 3960 4050 8820 10400
2020-04-01 22:00 16.75 38400 10400 (2018) 3940 (2016) 5610 3940 3960 4050 8820 10400
2020-04-01 21:00 16.73 38300 10400 (2018) 3940 (2016) 5610 3940 3960 4050 8820 10400
2020-04-01 20:00 16.73 38300 10400 (2018) 3940 (2016) 5610 3940 3960 4050 8820 10400
2020-04-01 19:00 16.75 38400 10400 (2018) 3940 (2016) 5610 3940 3960 4050 8820 10400
2020-04-01 18:00 16.75 38400 10400 (2018) 3940 (2016) 5610 3940 3960 4050 8820 10400
2020-04-01 17:00 16.77 38400 10400 (2018) 3940 (2016) 5610 3940 3960 4050 8820 10400
2020-04-01 16:00 16.77 38400 10400 (2018) 3940 (2016) 5610 3940 3960 4050 8820 10400
2020-04-01 15:00 16.77 38400 10400 (2018) 3940 (2016) 5610 3940 3960 4050 8820 10400
2020-04-01 14:00 16.76 38400 10400 (2018) 3940 (2016) 5610 3940 3960 4050 8820 10400
2020-04-01 13:00 16.74 38300 10400 (2018) 3940 (2016) 5610 3940 3960 4050 8820 10400
2020-04-01 12:00 16.75 38400 10400 (2018) 3940 (2016) 5610 3940 3960 4050 8820 10400
2020-04-01 11:00 16.77 38400 10400 (2018) 3940 (2016) 5610 3940 3960 4050 8820 10400
2020-04-01 10:00 16.76 38400 10400 (2018) 3940 (2016) 5610 3940 3960 4050 8820 10400
2020-04-01 09:00 16.75 38400 10400 (2018) 3940 (2016) 5610 3940 3960 4050 8820 10400
2020-04-01 08:00 16.76 38400 10400 (2018) 3940 (2016) 5610 3940 3960 4050 8820 10400
2020-04-01 07:00 16.75 38400 10400 (2018) 3940 (2016) 5610 3940 3960 4050 8820 10400
2020-04-01 06:00 16.75 38400 10400 (2018) 3940 (2016) 5610 3940 3960 4050 8820 10400
2020-04-01 05:00 16.76 38400 10400 (2018) 3940 (2016) 5610 3940 3960 4050 8820 10400
2020-04-01 04:00 16.73 38300 10400 (2018) 3940 (2016) 5610 3940 3960 4050 8820 10400
2020-04-01 03:00 16.74 38300 10400 (2018) 3940 (2016) 5610 3940 3960 4050 8820 10400
2020-04-01 02:00 16.73 38300 10400 (2018) 3940 (2016) 5610 3940 3960 4050 8820 10400
2020-04-01 01:00 16.76 38400 10400 (2018) 3940 (2016) 5610 3940 3960 4050 8820 10400
2020-04-01 00:00 16.75 38400 10400 (2018) 3940 (2016) 5610 3940 3960 4050 8820 10400
2020-03-31 23:00 16.78 38500 4600 (2018) 4090 (2017) 4380 4090 4150 4410 4570 4600
2020-03-31 22:00 16.78 38500 4600 (2018) 4090 (2017) 4380 4090 4150 4410 4570 4600
2020-03-31 21:00 16.80 38500 4600 (2018) 4090 (2017) 4380 4090 4150 4410 4570 4600
2020-03-31 20:00 16.79 38500 4600 (2018) 4090 (2017) 4380 4090 4150 4410 4570 4600
2020-03-31 19:00 16.79 38500 4600 (2018) 4090 (2017) 4380 4090 4150 4410 4570 4600
2020-03-31 18:00 16.76 38400 4600 (2018) 4090 (2017) 4380 4090 4150 4410 4570 4600
2020-03-31 17:00 16.81 38600 4600 (2018) 4090 (2017) 4380 4090 4150 4410 4570 4600
2020-03-31 16:00 16.79 38500 4600 (2018) 4090 (2017) 4380 4090 4150 4410 4570 4600
2020-03-31 15:00 16.82 38600 4600 (2018) 4090 (2017) 4380 4090 4150 4410 4570 4600
2020-03-31 14:00 16.79 38500 4600 (2018) 4090 (2017) 4380 4090 4150 4410 4570 4600
2020-03-31 13:00 16.82 38600 4600 (2018) 4090 (2017) 4380 4090 4150 4410 4570 4600
2020-03-31 12:00 16.80 38500 4600 (2018) 4090 (2017) 4380 4090 4150 4410 4570 4600
2020-03-31 11:00 16.79 38500 4600 (2018) 4090 (2017) 4380 4090 4150 4410 4570 4600
2020-03-31 10:00 16.85 38700 4600 (2018) 4090 (2017) 4380 4090 4150 4410 4570 4600
2020-03-31 09:00 16.86 38700 4600 (2018) 4090 (2017) 4380 4090 4150 4410 4570 4600
2020-03-31 08:00 16.92 39000 4600 (2018) 4090 (2017) 4380 4090 4150 4410 4570 4600
2020-03-31 07:00 16.95 39100 4600 (2018) 4090 (2017) 4380 4090 4150 4410 4570 4600
2020-03-31 06:00 16.97 39100 4600 (2018) 4090 (2017) 4380 4090 4150 4410 4570 4600
2020-03-31 05:00 17.01 39300 4600 (2018) 4090 (2017) 4380 4090 4150 4410 4570 4600
2020-03-31 04:00 17.08 39500 4600 (2018) 4090 (2017) 4380 4090 4150 4410 4570 4600
2020-03-31 03:00 17.15 39800 4600 (2018) 4090 (2017) 4380 4090 4150 4410 4570 4600
2020-03-31 02:00 17.21 40000 4600 (2018) 4090 (2017) 4380 4090 4150 4410 4570 4600
2020-03-31 01:00 17.23 40000 4600 (2018) 4090 (2017) 4380 4090 4150 4410 4570 4600
2020-03-31 00:00 17.23 40000 4600 (2018) 4090 (2017) 4380 4090 4150 4410 4570 4600
2020-03-30 23:00 17.18 39900 7520 (2018) 2560 (2017) 4540 2560 2910 4030 6670 7520
2020-03-30 22:00 17.19 39900 7520 (2018) 2560 (2017) 4540 2560 2910 4030 6670 7520
2020-03-30 21:00 17.23 40000 7520 (2018) 2560 (2017) 4540 2560 2910 4030 6670 7520
2020-03-30 20:00 17.20 39900 7520 (2018) 2560 (2017) 4540 2560 2910 4030 6670 7520
2020-03-30 19:00 17.21 40000 7520 (2018) 2560 (2017) 4540 2560 2910 4030 6670 7520
2020-03-30 18:00 17.21 40000 7520 (2018) 2560 (2017) 4540 2560 2910 4030 6670 7520
2020-03-30 17:00 17.19 39900 7520 (2018) 2560 (2017) 4540 2560 2910 4030 6670 7520
2020-03-30 16:00 17.18 39900 7520 (2018) 2560 (2017) 4540 2560 2910 4030 6670 7520
2020-03-30 15:00 17.22 40000 7520 (2018) 2560 (2017) 4540 2560 2910 4030 6670 7520
2020-03-30 14:00 17.18 39900 7520 (2018) 2560 (2017) 4540 2560 2910 4030 6670 7520
2020-03-30 13:00 17.21 40000 7520 (2018) 2560 (2017) 4540 2560 2910 4030 6670 7520
2020-03-30 12:00 17.22 40000 7520 (2018) 2560 (2017) 4540 2560 2910 4030 6670 7520
2020-03-30 11:00 17.21 40000 7520 (2018) 2560 (2017) 4540 2560 2910 4030 6670 7520
2020-03-30 10:00 17.23 40000 7520 (2018) 2560 (2017) 4540 2560 2910 4030 6670 7520
2020-03-30 09:00 17.20 39900 7520 (2018) 2560 (2017) 4540 2560 2910 4030 6670 7520
2020-03-30 08:00 17.24 40100 7520 (2018) 2560 (2017) 4540 2560 2910 4030 6670 7520
2020-03-30 07:00 17.22 40000 7520 (2018) 2560 (2017) 4540 2560 2910 4030 6670 7520
2020-03-30 06:00 17.24 40100 7520 (2018) 2560 (2017) 4540 2560 2910 4030 6670 7520
2020-03-30 05:00 17.24 40100 7520 (2018) 2560 (2017) 4540 2560 2910 4030 6670 7520
2020-03-30 04:00 17.25 40100 7520 (2018) 2560 (2017) 4540 2560 2910 4030 6670 7520
2020-03-30 03:00 17.24 40100 7520 (2018) 2560 (2017) 4540 2560 2910 4030 6670 7520
2020-03-30 02:00 17.29 40200 7520 (2018) 2560 (2017) 4540 2560 2910 4030 6670 7520
2020-03-30 01:00 17.30 40300 7520 (2018) 2560 (2017) 4540 2560 2910 4030 6670 7520
2020-03-30 00:00 17.32 40300 7520 (2018) 2560 (2017) 4540 2560 2910 4030 6670 7520
2020-03-29 23:00 17.30 40300 14800 (2018) 1890 (2019) 5580 1890 1910 2810 12000 14800
2020-03-29 22:00 17.31 40300 14800 (2018) 1890 (2019) 5580 1890 1910 2810 12000 14800
2020-03-29 21:00 17.35 40500 14800 (2018) 1890 (2019) 5580 1890 1910 2810 12000 14800
2020-03-29 20:00 17.36 40500 14800 (2018) 1890 (2019) 5580 1890 1910 2810 12000 14800
2020-03-29 19:00 40300 14800 (2018) 1890 (2019) 5580 1890 1910 2810 12000 14800
2020-03-29 18:00 17.34 40400 14800 (2018) 1890 (2019) 5580 1890 1910 2810 12000 14800
2020-03-29 17:00 17.39 40600 14800 (2018) 1890 (2019) 5580 1890 1910 2810 12000 14800
2020-03-29 16:00 17.41 40700 14800 (2018) 1890 (2019) 5580 1890 1910 2810 12000 14800
2020-03-29 15:00 17.42 40700 14800 (2018) 1890 (2019) 5580 1890 1910 2810 12000 14800
2020-03-29 14:00 17.44 40800 14800 (2018) 1890 (2019) 5580 1890 1910 2810 12000 14800
2020-03-29 13:00 17.41 40700 14800 (2018) 1890 (2019) 5580 1890 1910 2810 12000 14800
2020-03-29 12:00 17.41 40700 14800 (2018) 1890 (2019) 5580 1890 1910 2810 12000 14800
2020-03-29 11:00 17.40 40600 14800 (2018) 1890 (2019) 5580 1890 1910 2810 12000 14800
2020-03-29 10:00 17.44 40800 14800 (2018) 1890 (2019) 5580 1890 1910 2810 12000 14800
2020-03-29 09:00 17.42 40700 14800 (2018) 1890 (2019) 5580 1890 1910 2810 12000 14800
2020-03-29 08:00 17.38 40600 14800 (2018) 1890 (2019) 5580 1890 1910 2810 12000 14800
2020-03-29 07:00 17.41 40700 14800 (2018) 1890 (2019) 5580 1890 1910 2810 12000 14800
2020-03-29 06:00 17.39 40600 14800 (2018) 1890 (2019) 5580 1890 1910 2810 12000 14800
2020-03-29 05:00 17.41 40700 14800 (2018) 1890 (2019) 5580 1890 1910 2810 12000 14800
2020-03-29 04:00 17.43 40700 14800 (2018) 1890 (2019) 5580 1890 1910 2810 12000 14800
2020-03-29 03:00 17.42 40700 14800 (2018) 1890 (2019) 5580 1890 1910 2810 12000 14800
2020-03-29 02:00 17.41 40700 14800 (2018) 1890 (2019) 5580 1890 1910 2810 12000 14800
2020-03-29 01:00 17.46 40800 14800 (2018) 1890 (2019) 5580 1890 1910 2810 12000 14800
2020-03-29 00:00 17.42 40700 14800 (2018) 1890 (2019) 5580 1890 1910 2810 12000 14800
2020-03-28 23:00 17.45 40800 12200 (2018) 3030 (2019) 5580 3030 3120 3550 10100 12200
2020-03-28 22:00 17.45 40800 12200 (2018) 3030 (2019) 5580 3030 3120 3550 10100 12200
2020-03-28 21:00 17.42 40700 12200 (2018) 3030 (2019) 5580 3030 3120 3550 10100 12200
2020-03-28 20:00 17.45 40800 12200 (2018) 3030 (2019) 5580 3030 3120 3550 10100 12200
2020-03-28 19:00 17.44 40800 12200 (2018) 3030 (2019) 5580 3030 3120 3550 10100 12200
2020-03-28 18:00 17.45 40800 12200 (2018) 3030 (2019) 5580 3030 3120 3550 10100 12200
2020-03-28 17:00 17.44 40800 12200 (2018) 3030 (2019) 5580 3030 3120 3550 10100 12200
2020-03-28 16:00 17.44 40800 12200 (2018) 3030 (2019) 5580 3030 3120 3550 10100 12200
2020-03-28 15:00 17.43 40700 12200 (2018) 3030 (2019) 5580 3030 3120 3550 10100 12200
2020-03-28 14:00 17.47 40900 12200 (2018) 3030 (2019) 5580 3030 3120 3550 10100 12200
2020-03-28 13:00 17.45 40800 12200 (2018) 3030 (2019) 5580 3030 3120 3550 10100 12200
2020-03-28 12:00 17.41 40700 12200 (2018) 3030 (2019) 5580 3030 3120 3550 10100 12200
2020-03-28 11:00 17.44 40800 12200 (2018) 3030 (2019) 5580 3030 3120 3550 10100 12200
2020-03-28 10:00 17.41 40700 12200 (2018) 3030 (2019) 5580 3030 3120 3550 10100 12200
2020-03-28 09:00 17.44 40800 12200 (2018) 3030 (2019) 5580 3030 3120 3550 10100 12200
2020-03-28 08:00 17.42 40700 12200 (2018) 3030 (2019) 5580 3030 3120 3550 10100 12200
2020-03-28 07:00 17.43 40700 12200 (2018) 3030 (2019) 5580 3030 3120 3550 10100 12200
2020-03-28 06:00 17.41 40700 12200 (2018) 3030 (2019) 5580 3030 3120 3550 10100 12200
2020-03-28 05:00 17.42 40700 12200 (2018) 3030 (2019) 5580 3030 3120 3550 10100 12200
2020-03-28 04:00 17.43 40700 12200 (2018) 3030 (2019) 5580 3030 3120 3550 10100 12200
2020-03-28 03:00 17.42 40700 12200 (2018) 3030 (2019) 5580 3030 3120 3550 10100 12200
2020-03-28 02:00 17.39 40600 12200 (2018) 3030 (2019) 5580 3030 3120 3550 10100 12200
2020-03-28 01:00 17.42 40700 12200 (2018) 3030 (2019) 5580 3030 3120 3550 10100 12200
2020-03-28 00:00 17.37 40500 12200 (2018) 3030 (2019) 5580 3030 3120 3550 10100 12200
2020-03-27 23:00 17.39 40600 15200 (2018) 1190 (2017) 5940 1190 1800 3670 12300 15200
2020-03-27 22:00 17.38 40600 15200 (2018) 1190 (2017) 5940 1190 1800 3670 12300 15200
2020-03-27 21:00 17.36 40500 15200 (2018) 1190 (2017) 5940 1190 1800 3670 12300 15200
2020-03-27 20:00 17.37 40500 15200 (2018) 1190 (2017) 5940 1190 1800 3670 12300 15200
2020-03-27 19:00 17.34 40400 15200 (2018) 1190 (2017) 5940 1190 1800 3670 12300 15200
2020-03-27 18:00 17.32 40300 15200 (2018) 1190 (2017) 5940 1190 1800 3670 12300 15200
2020-03-27 17:00 17.30 40300 15200 (2018) 1190 (2017) 5940 1190 1800 3670 12300 15200
2020-03-27 16:00 17.31 40300 15200 (2018) 1190 (2017) 5940 1190 1800 3670 12300 15200
2020-03-27 15:00 17.43 40700 15200 (2018) 1190 (2017) 5940 1190 1800 3670 12300 15200
2020-03-27 14:00 17.46 40800 15200 (2018) 1190 (2017) 5940 1190 1800 3670 12300 15200
2020-03-27 13:00 17.45 40800 15200 (2018) 1190 (2017) 5940 1190 1800 3670 12300 15200
2020-03-27 12:00 17.43 40700 15200 (2018) 1190 (2017) 5940 1190 1800 3670 12300 15200
2020-03-27 11:00 17.41 40700 15200 (2018) 1190 (2017) 5940 1190 1800 3670 12300 15200
2020-03-27 10:00 17.45 40800 15200 (2018) 1190 (2017) 5940 1190 1800 3670 12300 15200
2020-03-27 09:00 17.46 40800 15200 (2018) 1190 (2017) 5940 1190 1800 3670 12300 15200
2020-03-27 08:00 17.45 40800 15200 (2018) 1190 (2017) 5940 1190 1800 3670 12300 15200
2020-03-27 07:00 17.44 40800 15200 (2018) 1190 (2017) 5940 1190 1800 3670 12300 15200
2020-03-27 06:00 17.42 40700 15200 (2018) 1190 (2017) 5940 1190 1800 3670 12300 15200
2020-03-27 05:00 17.43 40700 15200 (2018) 1190 (2017) 5940 1190 1800 3670 12300 15200
2020-03-27 04:00 17.42 40700 15200 (2018) 1190 (2017) 5940 1190 1800 3670 12300 15200
2020-03-27 03:00 17.45 40800 15200 (2018) 1190 (2017) 5940 1190 1800 3670 12300 15200
2020-03-27 02:00 17.41 40700 15200 (2018) 1190 (2017) 5940 1190 1800 3670 12300 15200
2020-03-27 01:00 17.40 40600 15200 (2018) 1190 (2017) 5940 1190 1800 3670 12300 15200
2020-03-27 00:00 17.38 40600 15200 (2018) 1190 (2017) 5940 1190 1800 3670 12300 15200
2020-03-26 23:00 17.40 40600 15800 (2018) 1340 (2017) 6250 1340 1930 3930 12900 15800
2020-03-26 22:00 17.38 40600 15800 (2018) 1340 (2017) 6250 1340 1930 3930 12900 15800
2020-03-26 21:00 17.34 40400 15800 (2018) 1340 (2017) 6250 1340 1930 3930 12900 15800
2020-03-26 20:00 17.34 40400 15800 (2018) 1340 (2017) 6250 1340 1930 3930 12900 15800
2020-03-26 19:00 17.32 40300 15800 (2018) 1340 (2017) 6250 1340 1930 3930 12900 15800
2020-03-26 18:00 17.31 40300 15800 (2018) 1340 (2017) 6250 1340 1930 3930 12900 15800
2020-03-26 17:00 17.26 40100 15800 (2018) 1340 (2017) 6250 1340 1930 3930 12900 15800
2020-03-26 16:00 17.29 40200 15800 (2018) 1340 (2017) 6250 1340 1930 3930 12900 15800
2020-03-26 15:00 17.48 40900 15800 (2018) 1340 (2017) 6250 1340 1930 3930 12900 15800
2020-03-26 14:00 17.48 40900 15800 (2018) 1340 (2017) 6250 1340 1930 3930 12900 15800
2020-03-26 13:00 17.48 40900 15800 (2018) 1340 (2017) 6250 1340 1930 3930 12900 15800
2020-03-26 12:00 17.51 41000 15800 (2018) 1340 (2017) 6250 1340 1930 3930 12900 15800
2020-03-26 11:00 17.49 40900 15800 (2018) 1340 (2017) 6250 1340 1930 3930 12900 15800
2020-03-26 10:00 17.49 40900 15800 (2018) 1340 (2017) 6250 1340 1930 3930 12900 15800
2020-03-26 09:00 17.50 41000 15800 (2018) 1340 (2017) 6250 1340 1930 3930 12900 15800
2020-03-26 08:00 17.49 40900 15800 (2018) 1340 (2017) 6250 1340 1930 3930 12900 15800
2020-03-26 07:00 17.48 40900 15800 (2018) 1340 (2017) 6250 1340 1930 3930 12900 15800
2020-03-26 06:00 17.46 40800 15800 (2018) 1340 (2017) 6250 1340 1930 3930 12900 15800
2020-03-26 05:00 17.49 40900 15800 (2018) 1340 (2017) 6250 1340 1930 3930 12900 15800
2020-03-26 04:00 17.48 40900 15800 (2018) 1340 (2017) 6250 1340 1930 3930 12900 15800
2020-03-26 03:00 17.46 40800 15800 (2018) 1340 (2017) 6250 1340 1930 3930 12900 15800
2020-03-26 02:00 17.45 40800 15800 (2018) 1340 (2017) 6250 1340 1930 3930 12900 15800
2020-03-26 01:00 17.43 40700 15800 (2018) 1340 (2017) 6250 1340 1930 3930 12900 15800
2020-03-26 00:00 17.43 40700 15800 (2018) 1340 (2017) 6250 1340 1930 3930 12900 15800
2020-03-25 23:00 17.38 40600 5280 (2019) 1180 (2017) 3490 1180 1810 3760 4910 5280
2020-03-25 22:00 17.37 40500 5280 (2019) 1180 (2017) 3490 1180 1810 3760 4910 5280
2020-03-25 21:00 17.36 40500 5280 (2019) 1180 (2017) 3490 1180 1810 3760 4910 5280
2020-03-25 20:00 17.31 40300 5280 (2019) 1180 (2017) 3490 1180 1810 3760 4910 5280
2020-03-25 19:00 17.28 40200 5280 (2019) 1180 (2017) 3490 1180 1810 3760 4910 5280
2020-03-25 18:00 17.21 40000 5280 (2019) 1180 (2017) 3490 1180 1810 3760 4910 5280
2020-03-25 17:00 17.15 39800 5280 (2019) 1180 (2017) 3490 1180 1810 3760 4910 5280
2020-03-25 16:00 17.09 39500 5280 (2019) 1180 (2017) 3490 1180 1810 3760 4910 5280
2020-03-25 15:00 16.97 39100 5280 (2019) 1180 (2017) 3490 1180 1810 3760 4910 5280
2020-03-25 14:00 16.89 38900 5280 (2019) 1180 (2017) 3490 1180 1810 3760 4910 5280
2020-03-25 13:00 16.76 38400 5280 (2019) 1180 (2017) 3490 1180 1810 3760 4910 5280
2020-03-25 12:00 16.66 38100 5280 (2019) 1180 (2017) 3490 1180 1810 3760 4910 5280
2020-03-25 11:00 16.53 37600 5280 (2019) 1180 (2017) 3490 1180 1810 3760 4910 5280
2020-03-25 10:00 16.35 37100 5280 (2019) 1180 (2017) 3490 1180 1810 3760 4910 5280
2020-03-25 09:00 16.16 36500 5280 (2019) 1180 (2017) 3490 1180 1810 3760 4910 5280
2020-03-25 08:00 16.03 36100 5280 (2019) 1180 (2017) 3490 1180 1810 3760 4910 5280
2020-03-25 07:00 15.91 35700 5280 (2019) 1180 (2017) 3490 1180 1810 3760 4910 5280
2020-03-25 06:00 15.94 35800 5280 (2019) 1180 (2017) 3490 1180 1810 3760 4910 5280
2020-03-25 05:00 16.12 36300 5280 (2019) 1180 (2017) 3490 1180 1810 3760 4910 5280
2020-03-25 04:00 16.75 38400 5280 (2019) 1180 (2017) 3490 1180 1810 3760 4910 5280
2020-03-25 03:00 17.31 40300 5280 (2019) 1180 (2017) 3490 1180 1810 3760 4910 5280
2020-03-25 02:00 17.32 40300 5280 (2019) 1180 (2017) 3490 1180 1810 3760 4910 5280
2020-03-25 01:00 17.29 40200 5280 (2019) 1180 (2017) 3490 1180 1810 3760 4910 5280
2020-03-25 00:00 17.26 40100 5280 (2019) 1180 (2017) 3490 1180 1810 3760 4910 5280
2020-03-24 23:00 17.28 40200 7060 (2018) 1100 (2017) 3890 1100 1740 3700 6230 7060
2020-03-24 22:00 17.28 40200 7060 (2018) 1100 (2017) 3890 1100 1740 3700 6230 7060
2020-03-24 21:00 17.28 40200 7060 (2018) 1100 (2017) 3890 1100 1740 3700 6230 7060
2020-03-24 20:00 17.27 40200 7060 (2018) 1100 (2017) 3890 1100 1740 3700 6230 7060
2020-03-24 19:00 17.24 40100 7060 (2018) 1100 (2017) 3890 1100 1740 3700 6230 7060
2020-03-24 18:00 17.21 40000 7060 (2018) 1100 (2017) 3890 1100 1740 3700 6230 7060
2020-03-24 17:00 17.20 39900 7060 (2018) 1100 (2017) 3890 1100 1740 3700 6230 7060
2020-03-24 16:00 17.15 39800 7060 (2018) 1100 (2017) 3890 1100 1740 3700 6230 7060
2020-03-24 15:00 17.06 39400 7060 (2018) 1100 (2017) 3890 1100 1740 3700 6230 7060
2020-03-24 14:00 16.96 39100 7060 (2018) 1100 (2017) 3890 1100 1740 3700 6230 7060
2020-03-24 13:00 16.88 38800 7060 (2018) 1100 (2017) 3890 1100 1740 3700 6230 7060
2020-03-24 12:00 16.78 38500 7060 (2018) 1100 (2017) 3890 1100 1740 3700 6230 7060
2020-03-24 11:00 16.72 38300 7060 (2018) 1100 (2017) 3890 1100 1740 3700 6230 7060
2020-03-24 10:00 16.65 38000 7060 (2018) 1100 (2017) 3890 1100 1740 3700 6230 7060
2020-03-24 09:00 16.57 37800 7060 (2018) 1100 (2017) 3890 1100 1740 3700 6230 7060
2020-03-24 08:00 16.54 37700 7060 (2018) 1100 (2017) 3890 1100 1740 3700 6230 7060
2020-03-24 07:00 16.48 37500 7060 (2018) 1100 (2017) 3890 1100 1740 3700 6230 7060
2020-03-24 06:00 16.39 37200 7060 (2018) 1100 (2017) 3890 1100 1740 3700 6230 7060
2020-03-24 05:00 16.30 36900 7060 (2018) 1100 (2017) 3890 1100 1740 3700 6230 7060
2020-03-24 04:00 16.22 36700 7060 (2018) 1100 (2017) 3890 1100 1740 3700 6230 7060
2020-03-24 03:00 16.13 36400 7060 (2018) 1100 (2017) 3890 1100 1740 3700 6230 7060
2020-03-24 02:00 16.02 36000 7060 (2018) 1100 (2017) 3890 1100 1740 3700 6230 7060
2020-03-24 01:00 15.90 35600 7060 (2018) 1100 (2017) 3890 1100 1740 3700 6230 7060
2020-03-24 00:00 15.77 35200 7060 (2018) 1100 (2017) 3890 1100 1740 3700 6230 7060
2020-03-23 23:00 15.62 34800 17700 (2018) 1170 (2017) 6680 1170 1800 3920 14300 17700
2020-03-23 22:00 15.44 34200 17700 (2018) 1170 (2017) 6680 1170 1800 3920 14300 17700
2020-03-23 21:00 15.18 33400 17700 (2018) 1170 (2017) 6680 1170 1800 3920 14300 17700
2020-03-23 20:00 14.94 32600 17700 (2018) 1170 (2017) 6680 1170 1800 3920 14300 17700
2020-03-23 19:00 14.56 31500 17700 (2018) 1170 (2017) 6680 1170 1800 3920 14300 17700
2020-03-23 18:00 14.21 30400 17700 (2018) 1170 (2017) 6680 1170 1800 3920 14300 17700
2020-03-23 17:00 13.78 29100 17700 (2018) 1170 (2017) 6680 1170 1800 3920 14300 17700
2020-03-23 16:00 13.35 27900 17700 (2018) 1170 (2017) 6680 1170 1800 3920 14300 17700
2020-03-23 15:00 13.20 27400 17700 (2018) 1170 (2017) 6680 1170 1800 3920 14300 17700
2020-03-23 14:00 13.61 28600 17700 (2018) 1170 (2017) 6680 1170 1800 3920 14300 17700
2020-03-23 13:00 14.06 30000 17700 (2018) 1170 (2017) 6680 1170 1800 3920 14300 17700
2020-03-23 12:00 14.59 31600 17700 (2018) 1170 (2017) 6680 1170 1800 3920 14300 17700
2020-03-23 11:00 15.18 33400 17700 (2018) 1170 (2017) 6680 1170 1800 3920 14300 17700
2020-03-23 10:00 15.81 35400 17700 (2018) 1170 (2017) 6680 1170 1800 3920 14300 17700
2020-03-23 09:00 16.44 37400 17700 (2018) 1170 (2017) 6680 1170 1800 3920 14300 17700
2020-03-23 08:00 16.56 37700 17700 (2018) 1170 (2017) 6680 1170 1800 3920 14300 17700
2020-03-23 07:00 16.57 37800 17700 (2018) 1170 (2017) 6680 1170 1800 3920 14300 17700
2020-03-23 06:00 16.59 37800 17700 (2018) 1170 (2017) 6680 1170 1800 3920 14300 17700
2020-03-23 05:00 16.61 37900 17700 (2018) 1170 (2017) 6680 1170 1800 3920 14300 17700
2020-03-23 04:00 16.59 37800 17700 (2018) 1170 (2017) 6680 1170 1800 3920 14300 17700
2020-03-23 03:00 16.62 37900 17700 (2018) 1170 (2017) 6680 1170 1800 3920 14300 17700
2020-03-23 02:00 16.56 37700 17700 (2018) 1170 (2017) 6680 1170 1800 3920 14300 17700
2020-03-23 01:00 16.51 37600 17700 (2018) 1170 (2017) 6680 1170 1800 3920 14300 17700
2020-03-23 00:00 16.45 37400 17700 (2018) 1170 (2017) 6680 1170 1800 3920 14300 17700
2020-03-22 23:00 16.37 37100 15000 (2018) 1030 (2017) 6180 1030 1700 4340 12500 15000
2020-03-22 22:00 16.30 36900 15000 (2018) 1030 (2017) 6180 1030 1700 4340 12500 15000
2020-03-22 21:00 16.21 36600 15000 (2018) 1030 (2017) 6180 1030 1700 4340 12500 15000
2020-03-22 20:00 16.10 36300 15000 (2018) 1030 (2017) 6180 1030 1700 4340 12500 15000
2020-03-22 19:00 15.95 35800 15000 (2018) 1030 (2017) 6180 1030 1700 4340 12500 15000
2020-03-22 18:00 15.78 35300 15000 (2018) 1030 (2017) 6180 1030 1700 4340 12500 15000
2020-03-22 17:00 15.56 34600 15000 (2018) 1030 (2017) 6180 1030 1700 4340 12500 15000
2020-03-22 16:00 15.26 33600 15000 (2018) 1030 (2017) 6180 1030 1700 4340 12500 15000
2020-03-22 15:00 14.93 32600 15000 (2018) 1030 (2017) 6180 1030 1700 4340 12500 15000
2020-03-22 14:00 14.56 31500 15000 (2018) 1030 (2017) 6180 1030 1700 4340 12500 15000
2020-03-22 13:00 14.01 29800 15000 (2018) 1030 (2017) 6180 1030 1700 4340 12500 15000
2020-03-22 12:00 13.29 27700 15000 (2018) 1030 (2017) 6180 1030 1700 4340 12500 15000
2020-03-22 11:00 12.53 25500 15000 (2018) 1030 (2017) 6180 1030 1700 4340 12500 15000
2020-03-22 10:00 11.92 23800 15000 (2018) 1030 (2017) 6180 1030 1700 4340 12500 15000
2020-03-22 09:00 11.69 23100 15000 (2018) 1030 (2017) 6180 1030 1700 4340 12500 15000
2020-03-22 08:00 11.73 23200 15000 (2018) 1030 (2017) 6180 1030 1700 4340 12500 15000
2020-03-22 07:00 11.76 23300 15000 (2018) 1030 (2017) 6180 1030 1700 4340 12500 15000
2020-03-22 06:00 11.65 23000 15000 (2018) 1030 (2017) 6180 1030 1700 4340 12500 15000
2020-03-22 05:00 11.49 22600 15000 (2018) 1030 (2017) 6180 1030 1700 4340 12500 15000
2020-03-22 04:00 11.26 21900 15000 (2018) 1030 (2017) 6180 1030 1700 4340 12500 15000
2020-03-22 03:00 11.00 21200 15000 (2018) 1030 (2017) 6180 1030 1700 4340 12500 15000
2020-03-22 02:00 10.78 20600 15000 (2018) 1030 (2017) 6180 1030 1700 4340 12500 15000
2020-03-22 01:00 10.72 20500 15000 (2018) 1030 (2017) 6180 1030 1700 4340 12500 15000
2020-03-22 00:00 10.99 21200 15000 (2018) 1030 (2017) 6180 1030 1700 4340 12500 15000
2020-03-21 23:00 11.20 21800 10800 (2018) 1090 (2017) 5560 1090 1740 5180 9770 10800
2020-03-21 22:00 11.06 21400 10800 (2018) 1090 (2017) 5560 1090 1740 5180 9770 10800
2020-03-21 21:00 10.90 21000 10800 (2018) 1090 (2017) 5560 1090 1740 5180 9770 10800
2020-03-21 20:00 10.67 20300 10800 (2018) 1090 (2017) 5560 1090 1740 5180 9770 10800
2020-03-21 19:00 10.36 19500 10800 (2018) 1090 (2017) 5560 1090 1740 5180 9770 10800
2020-03-21 18:00 1 18500 10800 (2018) 1090 (2017) 5560 1090 1740 5180 9770 10800
2020-03-21 17:00 9.53 17100 10800 (2018) 1090 (2017) 5560 1090 1740 5180 9770 10800
2020-03-21 16:00 9.03 15600 10800 (2018) 1090 (2017) 5560 1090 1740 5180 9770 10800
2020-03-21 15:00 8.60 14400 10800 (2018) 1090 (2017) 5560 1090 1740 5180 9770 10800
2020-03-21 14:00 8.38 13900 10800 (2018) 1090 (2017) 5560 1090 1740 5180 9770 10800
2020-03-21 13:00 8.12 13200 10800 (2018) 1090 (2017) 5560 1090 1740 5180 9770 10800
2020-03-21 12:00 7.80 12300 10800 (2018) 1090 (2017) 5560 1090 1740 5180 9770 10800
2020-03-21 11:00 7.49 11500 10800 (2018) 1090 (2017) 5560 1090 1740 5180 9770 10800
2020-03-21 10:00 7.27 11000 10800 (2018) 1090 (2017) 5560 1090 1740 5180 9770 10800
2020-03-21 09:00 7.29 11000 10800 (2018) 1090 (2017) 5560 1090 1740 5180 9770 10800
2020-03-21 08:00 7.57 11700 10800 (2018) 1090 (2017) 5560 1090 1740 5180 9770 10800
2020-03-21 07:00 7.90 12600 10800 (2018) 1090 (2017) 5560 1090 1740 5180 9770 10800
2020-03-21 06:00 8.29 13600 10800 (2018) 1090 (2017) 5560 1090 1740 5180 9770 10800
2020-03-21 05:00 8.72 14800 10800 (2018) 1090 (2017) 5560 1090 1740 5180 9770 10800
2020-03-21 04:00 9.20 16100 10800 (2018) 1090 (2017) 5560 1090 1740 5180 9770 10800
2020-03-21 03:00 9.74 17700 10800 (2018) 1090 (2017) 5560 1090 1740 5180 9770 10800
2020-03-21 02:00 10.34 19500 10800 (2018) 1090 (2017) 5560 1090 1740 5180 9770 10800
2020-03-21 01:00 10.98 21200 10800 (2018) 1090 (2017) 5560 1090 1740 5180 9770 10800
2020-03-21 00:00 11.64 23000 10800 (2018) 1090 (2017) 5560 1090 1740 5180 9770 10800
2020-03-20 23:00 12.26 24700 7820 (2019) 1260 (2017) 4240 1260 1880 3950 6910 7820
2020-03-20 22:00 12.56 25600 7820 (2019) 1260 (2017) 4240 1260 1880 3950 6910 7820
2020-03-20 21:00 12.85 26400 7820 (2019) 1260 (2017) 4240 1260 1880 3950 6910 7820
2020-03-20 20:00 13.18 27400 7820 (2019) 1260 (2017) 4240 1260 1880 3950 6910 7820
2020-03-20 19:00 13.53 28400 7820 (2019) 1260 (2017) 4240 1260 1880 3950 6910 7820
2020-03-20 18:00 13.95 29600 7820 (2019) 1260 (2017) 4240 1260 1880 3950 6910 7820
2020-03-20 17:00 14.45 31100 7820 (2019) 1260 (2017) 4240 1260 1880 3950 6910 7820
2020-03-20 16:00 15.05 33000 7820 (2019) 1260 (2017) 4240 1260 1880 3950 6910 7820
2020-03-20 15:00 15.48 34300 7820 (2019) 1260 (2017) 4240 1260 1880 3950 6910 7820
2020-03-20 14:00 15.89 35600 7820 (2019) 1260 (2017) 4240 1260 1880 3950 6910 7820
2020-03-20 13:00 16.38 37200 7820 (2019) 1260 (2017) 4240 1260 1880 3950 6910 7820
2020-03-20 12:00 16.76 38400 7820 (2019) 1260 (2017) 4240 1260 1880 3950 6910 7820
2020-03-20 11:00 17.10 39600 7820 (2019) 1260 (2017) 4240 1260 1880 3950 6910 7820
2020-03-20 10:00 17.29 40200 7820 (2019) 1260 (2017) 4240 1260 1880 3950 6910 7820
2020-03-20 09:00 17.32 40300 7820 (2019) 1260 (2017) 4240 1260 1880 3950 6910 7820
2020-03-20 08:00 17.38 40600 7820 (2019) 1260 (2017) 4240 1260 1880 3950 6910 7820
2020-03-20 07:00 17.45 40800 7820 (2019) 1260 (2017) 4240 1260 1880 3950 6910 7820
2020-03-20 06:00 17.53 41100 7820 (2019) 1260 (2017) 4240 1260 1880 3950 6910 7820
2020-03-20 05:00 17.55 41200 7820 (2019) 1260 (2017) 4240 1260 1880 3950 6910 7820
2020-03-20 04:00 17.61 41400 7820 (2019) 1260 (2017) 4240 1260 1880 3950 6910 7820
2020-03-20 03:00 17.61 41400 7820 (2019) 1260 (2017) 4240 1260 1880 3950 6910 7820
2020-03-20 02:00 17.68 41600 7820 (2019) 1260 (2017) 4240 1260 1880 3950 6910 7820
2020-03-20 01:00 17.70 41700 7820 (2019) 1260 (2017) 4240 1260 1880 3950 6910 7820
2020-03-20 00:00 17.74 41800 7820 (2019) 1260 (2017) 4240 1260 1880 3950 6910 7820
2020-03-19 23:00 17.78 42000 8970 (2019) 1020 (2017) 4510 1020 1760 4030 7740 8970
2020-03-19 22:00 17.84 42200 8970 (2019) 1020 (2017) 4510 1020 1760 4030 7740 8970
2020-03-19 21:00 17.83 42100 8970 (2019) 1020 (2017) 4510 1020 1760 4030 7740 8970
2020-03-19 20:00 17.88 42300 8970 (2019) 1020 (2017) 4510 1020 1760 4030 7740 8970
2020-03-19 19:00 17.96 42600 8970 (2019) 1020 (2017) 4510 1020 1760 4030 7740 8970
2020-03-19 18:00 18.00 42800 8970 (2019) 1020 (2017) 4510 1020 1760 4030 7740 8970
2020-03-19 17:00 18.05 42900 8970 (2019) 1020 (2017) 4510 1020 1760 4030 7740 8970
2020-03-19 16:00 18.08 43000 8970 (2019) 1020 (2017) 4510 1020 1760 4030 7740 8970
2020-03-19 15:00 18.10 43100 8970 (2019) 1020 (2017) 4510 1020 1760 4030 7740 8970
2020-03-19 14:00 18.09 43100 8970 (2019) 1020 (2017) 4510 1020 1760 4030 7740 8970
2020-03-19 13:00 18.00 42800 8970 (2019) 1020 (2017) 4510 1020 1760 4030 7740 8970
2020-03-19 12:00 17.81 42100 8970 (2019) 1020 (2017) 4510 1020 1760 4030 7740 8970
2020-03-19 11:00 17.53 41100 8970 (2019) 1020 (2017) 4510 1020 1760 4030 7740 8970
2020-03-19 10:00 17.23 40000 8970 (2019) 1020 (2017) 4510 1020 1760 4030 7740 8970
2020-03-19 09:00 16.95 39100 8970 (2019) 1020 (2017) 4510 1020 1760 4030 7740 8970
2020-03-19 08:00 16.81 38600 8970 (2019) 1020 (2017) 4510 1020 1760 4030 7740 8970
2020-03-19 07:00 16.75 38400 8970 (2019) 1020 (2017) 4510 1020 1760 4030 7740 8970
2020-03-19 06:00 16.73 38300 8970 (2019) 1020 (2017) 4510 1020 1760 4030 7740 8970
2020-03-19 05:00 16.72 38300 8970 (2019) 1020 (2017) 4510 1020 1760 4030 7740 8970
2020-03-19 04:00 16.69 38200 8970 (2019) 1020 (2017) 4510 1020 1760 4030 7740 8970
2020-03-19 03:00 16.67 38100 8970 (2019) 1020 (2017) 4510 1020 1760 4030 7740 8970
2020-03-19 02:00 16.69 38200 8970 (2019) 1020 (2017) 4510 1020 1760 4030 7740 8970
2020-03-19 01:00 16.69 38200 8970 (2019) 1020 (2017) 4510 1020 1760 4030 7740 8970
2020-03-19 00:00 16.67 38100 8970 (2019) 1020 (2017) 4510 1020 1760 4030 7740 8970
2020-03-18 23:00 16.66 38100 9450 (2019) 1060 (2017) 4600 1060 1730 3940 8110 9450
2020-03-18 22:00 16.67 38100 9450 (2019) 1060 (2017) 4600 1060 1730 3940 8110 9450
2020-03-18 21:00 16.67 38100 9450 (2019) 1060 (2017) 4600 1060 1730 3940 8110 9450
2020-03-18 20:00 16.68 38100 9450 (2019) 1060 (2017) 4600 1060 1730 3940 8110 9450
2020-03-18 19:00 16.68 38100 9450 (2019) 1060 (2017) 4600 1060 1730 3940 8110 9450
2020-03-18 18:00 16.62 37900 9450 (2019) 1060 (2017) 4600 1060 1730 3940 8110 9450
2020-03-18 17:00 16.65 38000 9450 (2019) 1060 (2017) 4600 1060 1730 3940 8110 9450
2020-03-18 16:00 16.66 38100 9450 (2019) 1060 (2017) 4600 1060 1730 3940 8110 9450
2020-03-18 15:00 16.67 38100 9450 (2019) 1060 (2017) 4600 1060 1730 3940 8110 9450
2020-03-18 14:00 16.63 38000 9450 (2019) 1060 (2017) 4600 1060 1730 3940 8110 9450
2020-03-18 13:00 16.65 38000 9450 (2019) 1060 (2017) 4600 1060 1730 3940 8110 9450
2020-03-18 12:00 16.64 38000 9450 (2019) 1060 (2017) 4600 1060 1730 3940 8110 9450
2020-03-18 11:00 16.63 38000 9450 (2019) 1060 (2017) 4600 1060 1730 3940 8110 9450
2020-03-18 10:00 16.63 38000 9450 (2019) 1060 (2017) 4600 1060 1730 3940 8110 9450
2020-03-18 09:00 16.64 38000 9450 (2019) 1060 (2017) 4600 1060 1730 3940 8110 9450
2020-03-18 08:00 16.62 37900 9450 (2019) 1060 (2017) 4600 1060 1730 3940 8110 9450
2020-03-18 07:00 16.65 38000 9450 (2019) 1060 (2017) 4600 1060 1730 3940 8110 9450
2020-03-18 06:00 16.65 38000 9450 (2019) 1060 (2017) 4600 1060 1730 3940 8110 9450
2020-03-18 05:00 16.65 38000 9450 (2019) 1060 (2017) 4600 1060 1730 3940 8110 9450
2020-03-18 04:00 16.63 38000 9450 (2019) 1060 (2017) 4600 1060 1730 3940 8110 9450
2020-03-18 03:00 16.61 37900 9450 (2019) 1060 (2017) 4600 1060 1730 3940 8110 9450
2020-03-18 02:00 16.61 37900 9450 (2019) 1060 (2017) 4600 1060 1730 3940 8110 9450
2020-03-18 01:00 16.64 38000 9450 (2019) 1060 (2017) 4600 1060 1730 3940 8110 9450
2020-03-18 00:00 16.60 37900 9450 (2019) 1060 (2017) 4600 1060 1730 3940 8110 9450
2020-03-17 23:00 16.58 37800 9790 (2019) 1840 (2017) 4790 1840 2320 3770 8290 9790
2020-03-17 22:00 16.56 37700 9790 (2019) 1840 (2017) 4790 1840 2320 3770 8290 9790
2020-03-17 21:00 16.54 37700 9790 (2019) 1840 (2017) 4790 1840 2320 3770 8290 9790
2020-03-17 20:00 16.56 37700 9790 (2019) 1840 (2017) 4790 1840 2320 3770 8290 9790
2020-03-17 19:00 16.53 37600 9790 (2019) 1840 (2017) 4790 1840 2320 3770 8290 9790
2020-03-17 18:00 16.52 37600 9790 (2019) 1840 (2017) 4790 1840 2320 3770 8290 9790
2020-03-17 17:00 16.48 37500 9790 (2019) 1840 (2017) 4790 1840 2320 3770 8290 9790
2020-03-17 16:00 16.44 37400 9790 (2019) 1840 (2017) 4790 1840 2320 3770 8290 9790
2020-03-17 15:00 16.41 37300 9790 (2019) 1840 (2017) 4790 1840 2320 3770 8290 9790
2020-03-17 14:00 16.40 37200 9790 (2019) 1840 (2017) 4790 1840 2320 3770 8290 9790
2020-03-17 13:00 16.33 37000 9790 (2019) 1840 (2017) 4790 1840 2320 3770 8290 9790
2020-03-17 12:00 16.30 36900 9790 (2019) 1840 (2017) 4790 1840 2320 3770 8290 9790
2020-03-17 11:00 16.25 36800 9790 (2019) 1840 (2017) 4790 1840 2320 3770 8290 9790
2020-03-17 10:00 16.18 36500 9790 (2019) 1840 (2017) 4790 1840 2320 3770 8290 9790
2020-03-17 09:00 16.10 36300 9790 (2019) 1840 (2017) 4790 1840 2320 3770 8290 9790
2020-03-17 08:00 16.06 36100 9790 (2019) 1840 (2017) 4790 1840 2320 3770 8290 9790
2020-03-17 07:00 15.98 35900 9790 (2019) 1840 (2017) 4790 1840 2320 3770 8290 9790
2020-03-17 06:00 15.89 35600 9790 (2019) 1840 (2017) 4790 1840 2320 3770 8290 9790
2020-03-17 05:00 15.84 35400 9790 (2019) 1840 (2017) 4790 1840 2320 3770 8290 9790
2020-03-17 04:00 15.71 35000 9790 (2019) 1840 (2017) 4790 1840 2320 3770 8290 9790
2020-03-17 03:00 15.61 34700 9790 (2019) 1840 (2017) 4790 1840 2320 3770 8290 9790
2020-03-17 02:00 15.53 34500 9790 (2019) 1840 (2017) 4790 1840 2320 3770 8290 9790
2020-03-17 01:00 15.51 34400 9790 (2019) 1840 (2017) 4790 1840 2320 3770 8290 9790
2020-03-17 00:00 15.87 35500 9790 (2019) 1840 (2017) 4790 1840 2320 3770 8290 9790
2020-03-16 23:00 16.07 36200 15000 (2019) 2190 (2017) 6210 2190 2590 3830 12200 15000
2020-03-16 22:00 16.14 36400 15000 (2019) 2190 (2017) 6210 2190 2590 3830 12200 15000
2020-03-16 21:00 16.09 36200 15000 (2019) 2190 (2017) 6210 2190 2590 3830 12200 15000
2020-03-16 20:00 16.07 36200 15000 (2019) 2190 (2017) 6210 2190 2590 3830 12200 15000
2020-03-16 19:00 16.01 36000 15000 (2019) 2190 (2017) 6210 2190 2590 3830 12200 15000
2020-03-16 18:00 15.93 35700 15000 (2019) 2190 (2017) 6210 2190 2590 3830 12200 15000
2020-03-16 17:00 15.90 35600 15000 (2019) 2190 (2017) 6210 2190 2590 3830 12200 15000
2020-03-16 16:00 15.80 35300 15000 (2019) 2190 (2017) 6210 2190 2590 3830 12200 15000
2020-03-16 15:00 15.71 35000 15000 (2019) 2190 (2017) 6210 2190 2590 3830 12200 15000
2020-03-16 14:00 15.63 34800 15000 (2019) 2190 (2017) 6210 2190 2590 3830 12200 15000
2020-03-16 13:00 15.44 34200 15000 (2019) 2190 (2017) 6210 2190 2590 3830 12200 15000
2020-03-16 12:00 15.31 33800 15000 (2019) 2190 (2017) 6210 2190 2590 3830 12200 15000
2020-03-16 11:00 15.10 33100 15000 (2019) 2190 (2017) 6210 2190 2590 3830 12200 15000
2020-03-16 10:00 14.84 32300 15000 (2019) 2190 (2017) 6210 2190 2590 3830 12200 15000
2020-03-16 09:00 14.60 31600 15000 (2019) 2190 (2017) 6210 2190 2590 3830 12200 15000
2020-03-16 08:00 14.25 30500 15000 (2019) 2190 (2017) 6210 2190 2590 3830 12200 15000
2020-03-16 07:00 13.97 29700 15000 (2019) 2190 (2017) 6210 2190 2590 3830 12200 15000
2020-03-16 06:00 13.82 29200 15000 (2019) 2190 (2017) 6210 2190 2590 3830 12200 15000
2020-03-16 05:00 14.22 30400 15000 (2019) 2190 (2017) 6210 2190 2590 3830 12200 15000
2020-03-16 04:00 14.52 31400 15000 (2019) 2190 (2017) 6210 2190 2590 3830 12200 15000
2020-03-16 02:00 15.27 33700 15000 (2019) 2190 (2017) 6210 2190 2590 3830 12200 15000
2020-03-16 01:00 15.57 34600 15000 (2019) 2190 (2017) 6210 2190 2590 3830 12200 15000
2020-03-16 00:00 15.49 34300 15000 (2019) 2190 (2017) 6210 2190 2590 3830 12200 15000
2020-03-15 23:00 15.45 34200 24800 (2019) 3460 (2017) 9060 3460 3530 4000 19700 24800
2020-03-15 22:00 15.28 33700 24800 (2019) 3460 (2017) 9060 3460 3530 4000 19700 24800
2020-03-15 21:00 15.13 33200 24800 (2019) 3460 (2017) 9060 3460 3530 4000 19700 24800
2020-03-15 20:00 15.03 32900 24800 (2019) 3460 (2017) 9060 3460 3530 4000 19700 24800
2020-03-15 19:00 15.07 33000 24800 (2019) 3460 (2017) 9060 3460 3530 4000 19700 24800
2020-03-15 18:00 15.28 33700 24800 (2019) 3460 (2017) 9060 3460 3530 4000 19700 24800
2020-03-15 17:00 15.28 33700 24800 (2019) 3460 (2017) 9060 3460 3530 4000 19700 24800
2020-03-15 16:00 15.18 33400 24800 (2019) 3460 (2017) 9060 3460 3530 4000 19700 24800
2020-03-15 15:00 15.01 32900 24800 (2019) 3460 (2017) 9060 3460 3530 4000 19700 24800
2020-03-15 14:00 14.87 32400 24800 (2019) 3460 (2017) 9060 3460 3530 4000 19700 24800
2020-03-15 13:00 14.85 32400 24800 (2019) 3460 (2017) 9060 3460 3530 4000 19700 24800
2020-03-15 12:00 14.75 32100 24800 (2019) 3460 (2017) 9060 3460 3530 4000 19700 24800
2020-03-15 11:00 14.83 32300 24800 (2019) 3460 (2017) 9060 3460 3530 4000 19700 24800
2020-03-15 10:00 14.82 32300 24800 (2019) 3460 (2017) 9060 3460 3530 4000 19700 24800
2020-03-15 09:00 14.76 32100 24800 (2019) 3460 (2017) 9060 3460 3530 4000 19700 24800
2020-03-15 08:00 15.08 33100 24800 (2019) 3460 (2017) 9060 3460 3530 4000 19700 24800
2020-03-15 07:00 15.35 33900 24800 (2019) 3460 (2017) 9060 3460 3530 4000 19700 24800
2020-03-15 06:00 15.22 33500 24800 (2019) 3460 (2017) 9060 3460 3530 4000 19700 24800
2020-03-15 05:00 14.99 32800 24800 (2019) 3460 (2017) 9060 3460 3530 4000 19700 24800
2020-03-15 04:00 14.66 31800 24800 (2019) 3460 (2017) 9060 3460 3530 4000 19700 24800
2020-03-15 03:00 14.37 30900 24800 (2019) 3460 (2017) 9060 3460 3530 4000 19700 24800
2020-03-15 02:00 14.08 30000 24800 (2019) 3460 (2017) 9060 3460 3530 4000 19700 24800
2020-03-15 01:00 14.01 29800 24800 (2019) 3460 (2017) 9060 3460 3530 4000 19700 24800
2020-03-15 00:00 14.09 30100 24800 (2019) 3460 (2017) 9060 3460 3530 4000 19700 24800
2020-03-14 23:00 13.99 29800 23300 (2019) 1810 (2016) 9990 1810 2570 7420 20000 23300
2020-03-14 22:00 13.83 29300 23300 (2019) 1810 (2016) 9990 1810 2570 7420 20000 23300
2020-03-14 21:00 13.60 28600 23300 (2019) 1810 (2016) 9990 1810 2570 7420 20000 23300
2020-03-14 20:00 13.42 28100 23300 (2019) 1810 (2016) 9990 1810 2570 7420 20000 23300
2020-03-14 19:00 13.68 28800 23300 (2019) 1810 (2016) 9990 1810 2570 7420 20000 23300
2020-03-14 18:00 13.97 29700 23300 (2019) 1810 (2016) 9990 1810 2570 7420 20000 23300
2020-03-14 17:00 14.04 29900 23300 (2019) 1810 (2016) 9990 1810 2570 7420 20000 23300
2020-03-14 16:00 14.02 29800 23300 (2019) 1810 (2016) 9990 1810 2570 7420 20000 23300
2020-03-14 15:00 14.19 30400 23300 (2019) 1810 (2016) 9990 1810 2570 7420 20000 23300
2020-03-14 14:00 14.18 30300 23300 (2019) 1810 (2016) 9990 1810 2570 7420 20000 23300
2020-03-14 13:00 14.25 30500 23300 (2019) 1810 (2016) 9990 1810 2570 7420 20000 23300
2020-03-14 12:00 14.05 29900 23300 (2019) 1810 (2016) 9990 1810 2570 7420 20000 23300
2020-03-14 11:00 13.52 28400 23300 (2019) 1810 (2016) 9990 1810 2570 7420 20000 23300
2020-03-14 10:00 12.93 26600 23300 (2019) 1810 (2016) 9990 1810 2570 7420 20000 23300
2020-03-14 09:00 12.16 24400 23300 (2019) 1810 (2016) 9990 1810 2570 7420 20000 23300
2020-03-14 08:00 11.54 22700 23300 (2019) 1810 (2016) 9990 1810 2570 7420 20000 23300
2020-03-14 07:00 11.25 21900 23300 (2019) 1810 (2016) 9990 1810 2570 7420 20000 23300
2020-03-14 06:00 11.09 21500 23300 (2019) 1810 (2016) 9990 1810 2570 7420 20000 23300
2020-03-14 05:00 11.49 22600 23300 (2019) 1810 (2016) 9990 1810 2570 7420 20000 23300
2020-03-14 04:00 12.25 24700 23300 (2019) 1810 (2016) 9990 1810 2570 7420 20000 23300
2020-03-14 03:00 13.11 27200 23300 (2019) 1810 (2016) 9990 1810 2570 7420 20000 23300
2020-03-14 02:00 13.97 29700 23300 (2019) 1810 (2016) 9990 1810 2570 7420 20000 23300
2020-03-14 01:00 14.65 31800 23300 (2019) 1810 (2016) 9990 1810 2570 7420 20000 23300
2020-03-14 00:00 14.36 30900 23300 (2019) 1810 (2016) 9990 1810 2570 7420 20000 23300
2020-03-13 23:00 13.91 29500 22100 (2019) 1450 (2016) 10300 1450 2220 8760 19800 22100
2020-03-13 22:00 13.38 27900 22100 (2019) 1450 (2016) 10300 1450 2220 8760 19800 22100
2020-03-13 21:00 12.81 26300 22100 (2019) 1450 (2016) 10300 1450 2220 8760 19800 22100
2020-03-13 20:00 12.45 25300 22100 (2019) 1450 (2016) 10300 1450 2220 8760 19800 22100
2020-03-13 19:00 12.20 24500 22100 (2019) 1450 (2016) 10300 1450 2220 8760 19800 22100
2020-03-13 18:00 12.12 24300 22100 (2019) 1450 (2016) 10300 1450 2220 8760 19800 22100
2020-03-13 17:00 12.04 24100 22100 (2019) 1450 (2016) 10300 1450 2220 8760 19800 22100
2020-03-13 16:00 11.96 23900 22100 (2019) 1450 (2016) 10300 1450 2220 8760 19800 22100
2020-03-13 15:00 11.86 23600 22100 (2019) 1450 (2016) 10300 1450 2220 8760 19800 22100
2020-03-13 14:00 11.77 23300 22100 (2019) 1450 (2016) 10300 1450 2220 8760 19800 22100
2020-03-13 13:00 11.60 22900 22100 (2019) 1450 (2016) 10300 1450 2220 8760 19800 22100
2020-03-13 12:00 11.39 22300 22100 (2019) 1450 (2016) 10300 1450 2220 8760 19800 22100
2020-03-13 11:00 11.09 21500 22100 (2019) 1450 (2016) 10300 1450 2220 8760 19800 22100
2020-03-13 10:00 10.72 20500 22100 (2019) 1450 (2016) 10300 1450 2220 8760 19800 22100
2020-03-13 09:00 10.27 19300 22100 (2019) 1450 (2016) 10300 1450 2220 8760 19800 22100
2020-03-13 08:00 9.85 18000 22100 (2019) 1450 (2016) 10300 1450 2220 8760 19800 22100
2020-03-13 07:00 9.58 17200 22100 (2019) 1450 (2016) 10300 1450 2220 8760 19800 22100
2020-03-13 06:00 9.72 17600 22100 (2019) 1450 (2016) 10300 1450 2220 8760 19800 22100
2020-03-13 05:00 10.20 19100 22100 (2019) 1450 (2016) 10300 1450 2220 8760 19800 22100
2020-03-13 04:00 10.77 20600 22100 (2019) 1450 (2016) 10300 1450 2220 8760 19800 22100
2020-03-13 03:00 11.46 22500 22100 (2019) 1450 (2016) 10300 1450 2220 8760 19800 22100
2020-03-13 02:00 12.12 24300 22100 (2019) 1450 (2016) 10300 1450 2220 8760 19800 22100
2020-03-13 01:00 12.82 26300 22100 (2019) 1450 (2016) 10300 1450 2220 8760 19800 22100
2020-03-13 00:00 13.41 28000 22100 (2019) 1450 (2016) 10300 1450 2220 8760 19800 22100
2020-03-12 23:00 13.63 28700 16400 (2019) 986 (2017) 7980 986 1550 7270 15100 16400
2020-03-12 22:00 13.62 28700 16400 (2019) 986 (2017) 7980 986 1550 7270 15100 16400
2020-03-12 21:00 13.58 28500 16400 (2019) 986 (2017) 7980 986 1550 7270 15100 16400
2020-03-12 20:00 13.51 28300 16400 (2019) 986 (2017) 7980 986 1550 7270 15100 16400
2020-03-12 19:00 13.46 28200 16400 (2019) 986 (2017) 7980 986 1550 7270 15100 16400
2020-03-12 18:00 13.36 27900 16400 (2019) 986 (2017) 7980 986 1550 7270 15100 16400
2020-03-12 17:00 13.25 27600 16400 (2019) 986 (2017) 7980 986 1550 7270 15100 16400
2020-03-12 16:00 13.11 27200 16400 (2019) 986 (2017) 7980 986 1550 7270 15100 16400
2020-03-12 15:00 12.94 26700 16400 (2019) 986 (2017) 7980 986 1550 7270 15100 16400
2020-03-12 14:00 12.71 26000 16400 (2019) 986 (2017) 7980 986 1550 7270 15100 16400
2020-03-12 13:00 12.42 25200 16400 (2019) 986 (2017) 7980 986 1550 7270 15100 16400
2020-03-12 12:00 12.05 24100 16400 (2019) 986 (2017) 7980 986 1550 7270 15100 16400
2020-03-12 11:00 11.55 22700 16400 (2019) 986 (2017) 7980 986 1550 7270 15100 16400
2020-03-12 10:00 10.94 21100 16400 (2019) 986 (2017) 7980 986 1550 7270 15100 16400
2020-03-12 09:00 10.19 19100 16400 (2019) 986 (2017) 7980 986 1550 7270 15100 16400
2020-03-12 08:00 9.53 17100 16400 (2019) 986 (2017) 7980 986 1550 7270 15100 16400
2020-03-12 07:00 9.25 16300 16400 (2019) 986 (2017) 7980 986 1550 7270 15100 16400
2020-03-12 06:00 9.40 16700 16400 (2019) 986 (2017) 7980 986 1550 7270 15100 16400
2020-03-12 05:00 9.62 17300 16400 (2019) 986 (2017) 7980 986 1550 7270 15100 16400
2020-03-12 04:00 10.02 18500 16400 (2019) 986 (2017) 7980 986 1550 7270 15100 16400
2020-03-12 03:00 10.40 19600 16400 (2019) 986 (2017) 7980 986 1550 7270 15100 16400
2020-03-12 02:00 10.49 19900 16400 (2019) 986 (2017) 7980 986 1550 7270 15100 16400
2020-03-12 01:00 10.45 19800 16400 (2019) 986 (2017) 7980 986 1550 7270 15100 16400
2020-03-12 00:00 10.59 20100 16400 (2019) 986 (2017) 7980 986 1550 7270 15100 16400
2020-03-11 23:00 10.64 20300 15700 (2019) 1120 (2017) 7150 1120 1830 5900 13700 15700
2020-03-11 22:00 10.74 20500 15700 (2019) 1120 (2017) 7150 1120 1830 5900 13700 15700
2020-03-11 21:00 10.96 21100 15700 (2019) 1120 (2017) 7150 1120 1830 5900 13700 15700
2020-03-11 20:00 11.21 21800 15700 (2019) 1120 (2017) 7150 1120 1830 5900 13700 15700
2020-03-11 19:00 11.28 22000 15700 (2019) 1120 (2017) 7150 1120 1830 5900 13700 15700
2020-03-11 18:00 11.34 22200 15700 (2019) 1120 (2017) 7150 1120 1830 5900 13700 15700
2020-03-11 17:00 11.44 22400 15700 (2019) 1120 (2017) 7150 1120 1830 5900 13700 15700
2020-03-11 16:00 11.59 22800 15700 (2019) 1120 (2017) 7150 1120 1830 5900 13700 15700
2020-03-11 15:00 11.75 23300 15700 (2019) 1120 (2017) 7150 1120 1830 5900 13700 15700
2020-03-11 14:00 11.94 23800 15700 (2019) 1120 (2017) 7150 1120 1830 5900 13700 15700
2020-03-11 13:00 12.19 24500 15700 (2019) 1120 (2017) 7150 1120 1830 5900 13700 15700
2020-03-11 12:00 12.30 24800 15700 (2019) 1120 (2017) 7150 1120 1830 5900 13700 15700
2020-03-11 11:00 11.92 23800 15700 (2019) 1120 (2017) 7150 1120 1830 5900 13700 15700
2020-03-11 10:00 11.46 22500 15700 (2019) 1120 (2017) 7150 1120 1830 5900 13700 15700
2020-03-11 09:00 10.86 20800 15700 (2019) 1120 (2017) 7150 1120 1830 5900 13700 15700
2020-03-11 08:00 10.30 19400 15700 (2019) 1120 (2017) 7150 1120 1830 5900 13700 15700
2020-03-11 07:00 10.05 18600 15700 (2019) 1120 (2017) 7150 1120 1830 5900 13700 15700
2020-03-11 06:00 10.19 19100 15700 (2019) 1120 (2017) 7150 1120 1830 5900 13700 15700
2020-03-11 05:00 10.35 19500 15700 (2019) 1120 (2017) 7150 1120 1830 5900 13700 15700
2020-03-11 04:00 10.52 19900 15700 (2019) 1120 (2017) 7150 1120 1830 5900 13700 15700
2020-03-11 03:00 11.00 21200 15700 (2019) 1120 (2017) 7150 1120 1830 5900 13700 15700
2020-03-11 02:00 11.37 22200 15700 (2019) 1120 (2017) 7150 1120 1830 5900 13700 15700
2020-03-11 01:00 11.53 22700 15700 (2019) 1120 (2017) 7150 1120 1830 5900 13700 15700
2020-03-11 00:00 11.55 22700 15700 (2019) 1120 (2017) 7150 1120 1830 5900 13700 15700
2020-03-10 23:00 11.65 23000 12200 (2018) 1060 (2017) 6300 1060 2020 5980 10900 12200
2020-03-10 22:00 11.66 23000 12200 (2018) 1060 (2017) 6300 1060 2020 5980 10900 12200
2020-03-10 21:00 11.65 23000 12200 (2018) 1060 (2017) 6300 1060 2020 5980 10900 12200
2020-03-10 20:00 11.35 22200 12200 (2018) 1060 (2017) 6300 1060 2020 5980 10900 12200
2020-03-10 19:00 11.27 22000 12200 (2018) 1060 (2017) 6300 1060 2020 5980 10900 12200
2020-03-10 18:00 11.32 22100 12200 (2018) 1060 (2017) 6300 1060 2020 5980 10900 12200
2020-03-10 17:00 11.38 22300 12200 (2018) 1060 (2017) 6300 1060 2020 5980 10900 12200
2020-03-10 16:00 11.44 22400 12200 (2018) 1060 (2017) 6300 1060 2020 5980 10900 12200
2020-03-10 15:00 11.52 22600 12200 (2018) 1060 (2017) 6300 1060 2020 5980 10900 12200
2020-03-10 14:00 11.55 22700 12200 (2018) 1060 (2017) 6300 1060 2020 5980 10900 12200
2020-03-10 13:00 11.70 23100 12200 (2018) 1060 (2017) 6300 1060 2020 5980 10900 12200
2020-03-10 12:00 11.84 23500 12200 (2018) 1060 (2017) 6300 1060 2020 5980 10900 12200
2020-03-10 11:00 11.79 23400 12200 (2018) 1060 (2017) 6300 1060 2020 5980 10900 12200
2020-03-10 10:00 11.49 22600 12200 (2018) 1060 (2017) 6300 1060 2020 5980 10900 12200
2020-03-10 09:00 11.03 21300 12200 (2018) 1060 (2017) 6300 1060 2020 5980 10900 12200
2020-03-10 08:00 10.69 20400 12200 (2018) 1060 (2017) 6300 1060 2020 5980 10900 12200
2020-03-10 07:00 10.49 19900 12200 (2018) 1060 (2017) 6300 1060 2020 5980 10900 12200
2020-03-10 06:00 10.66 20300 12200 (2018) 1060 (2017) 6300 1060 2020 5980 10900 12200
2020-03-10 05:00 11.06 21400 12200 (2018) 1060 (2017) 6300 1060 2020 5980 10900 12200
2020-03-10 04:00 11.63 22900 12200 (2018) 1060 (2017) 6300 1060 2020 5980 10900 12200
2020-03-10 03:00 12.28 24800 12200 (2018) 1060 (2017) 6300 1060 2020 5980 10900 12200
2020-03-10 02:00 12.85 26400 12200 (2018) 1060 (2017) 6300 1060 2020 5980 10900 12200
2020-03-10 01:00 13.35 27900 12200 (2018) 1060 (2017) 6300 1060 2020 5980 10900 12200
2020-03-10 00:00 13.67 28800 12200 (2018) 1060 (2017) 6300 1060 2020 5980 10900 12200
2020-03-09 23:00 13.67 28800 19800 (2018) 1130 (2017) 11100 1130 3230 11700 18300 19800
2020-03-09 22:00 13.70 28900 19800 (2018) 1130 (2017) 11100 1130 3230 11700 18300 19800
2020-03-09 21:00 13.64 28700 19800 (2018) 1130 (2017) 11100 1130 3230 11700 18300 19800
2020-03-09 20:00 13.62 28700 19800 (2018) 1130 (2017) 11100 1130 3230 11700 18300 19800
2020-03-09 19:00 13.59 28600 19800 (2018) 1130 (2017) 11100 1130 3230 11700 18300 19800
2020-03-09 18:00 13.57 28500 19800 (2018) 1130 (2017) 11100 1130 3230 11700 18300 19800
2020-03-09 17:00 13.54 28400 19800 (2018) 1130 (2017) 11100 1130 3230 11700 18300 19800
2020-03-09 16:00 13.49 28300 19800 (2018) 1130 (2017) 11100 1130 3230 11700 18300 19800
2020-03-09 15:00 13.45 28200 19800 (2018) 1130 (2017) 11100 1130 3230 11700 18300 19800
2020-03-09 14:00 13.38 27900 19800 (2018) 1130 (2017) 11100 1130 3230 11700 18300 19800
2020-03-09 13:00 13.30 27700 19800 (2018) 1130 (2017) 11100 1130 3230 11700 18300 19800
2020-03-09 12:00 13.19 27400 19800 (2018) 1130 (2017) 11100 1130 3230 11700 18300 19800
2020-03-09 11:00 13.08 27100 19800 (2018) 1130 (2017) 11100 1130 3230 11700 18300 19800
2020-03-09 10:00 12.95 26700 19800 (2018) 1130 (2017) 11100 1130 3230 11700 18300 19800
2020-03-09 09:00 12.64 25800 19800 (2018) 1130 (2017) 11100 1130 3230 11700 18300 19800
2020-03-09 08:00 12.28 24800 19800 (2018) 1130 (2017) 11100 1130 3230 11700 18300 19800
2020-03-09 07:00 11.79 23400 19800 (2018) 1130 (2017) 11100 1130 3230 11700 18300 19800
2020-03-09 06:00 11.84 23500 19800 (2018) 1130 (2017) 11100 1130 3230 11700 18300 19800
2020-03-09 05:00 12.23 24600 19800 (2018) 1130 (2017) 11100 1130 3230 11700 18300 19800
2020-03-09 04:00 12.87 26500 19800 (2018) 1130 (2017) 11100 1130 3230 11700 18300 19800
2020-03-09 03:00 13.47 28200 19800 (2018) 1130 (2017) 11100 1130 3230 11700 18300 19800
2020-03-09 02:00 14.05 29900 19800 (2018) 1130 (2017) 11100 1130 3230 11700 18300 19800
2020-03-09 01:00 14.41 31000 19800 (2018) 1130 (2017) 11100 1130 3230 11700 18300 19800
2020-03-09 00:00 14.63 31700 19800 (2018) 1130 (2017) 11100 1130 3230 11700 18300 19800
2020-03-08 23:00 14.75 32100 23000 (2016) 1030 (2017) 15200 1030 4670 18300 22500 23000
2020-03-08 22:00 14.56 31500 23000 (2016) 1030 (2017) 15200 1030 4670 18300 22500 23000
2020-03-08 21:00 14.39 31000 23000 (2016) 1030 (2017) 15200 1030 4670 18300 22500 23000
2020-03-08 20:00 14.27 30600 23000 (2016) 1030 (2017) 15200 1030 4670 18300 22500 23000
2020-03-08 19:00 14.01 29800 23000 (2016) 1030 (2017) 15200 1030 4670 18300 22500 23000
2020-03-08 18:00 13.88 29400 23000 (2016) 1030 (2017) 15200 1030 4670 18300 22500 23000
2020-03-08 17:00 13.70 28900 23000 (2016) 1030 (2017) 15200 1030 4670 18300 22500 23000
2020-03-08 16:00 13.47 28200 23000 (2016) 1030 (2017) 15200 1030 4670 18300 22500 23000
2020-03-08 15:00 13.32 27800 23000 (2016) 1030 (2017) 15200 1030 4670 18300 22500 23000
2020-03-08 14:00 13.12 27200 23000 (2016) 1030 (2017) 15200 1030 4670 18300 22500 23000
2020-03-08 13:00 12.99 26800 23000 (2016) 1030 (2017) 15200 1030 4670 18300 22500 23000
2020-03-08 12:00 12.69 25900 23000 (2016) 1030 (2017) 15200 1030 4670 18300 22500 23000
2020-03-08 11:00 12.24 24700 23000 (2016) 1030 (2017) 15200 1030 4670 18300 22500 23000
2020-03-08 10:00 11.72 23200 23000 (2016) 1030 (2017) 15200 1030 4670 18300 22500 23000
2020-03-08 09:00 11.38 22300 23000 (2016) 1030 (2017) 15200 1030 4670 18300 22500 23000
2020-03-08 08:00 11.08 21400 23000 (2016) 1030 (2017) 15200 1030 4670 18300 22500 23000
2020-03-08 07:00 10.83 20800 23000 (2016) 1030 (2017) 15200 1030 4670 18300 22500 23000
2020-03-08 06:00 11.04 21300 23000 (2016) 1030 (2017) 15200 1030 4670 18300 22500 23000
2020-03-08 05:00 11.41 22300 23000 (2016) 1030 (2017) 15200 1030 4670 18300 22500 23000
2020-03-08 04:00 11.84 23500 23000 (2016) 1030 (2017) 15200 1030 4670 18300 22500 23000
2020-03-08 03:00 12.27 24700 23000 (2016) 1030 (2017) 15200 1030 4670 18300 22500 23000
2020-03-08 01:00 12.71 26000 23000 (2016) 1030 (2017) 15200 1030 4670 18300 22500 23000
2020-03-08 00:00 13.15 27300 23000 (2016) 1030 (2017) 15200 1030 4670 18300 22500 23000
2020-03-07 23:00 13.41 28000 22700 (2018) 1330 (2017) 14800 1330 4450 17600 22400 22700
2020-03-07 22:00 13.49 28300 22700 (2018) 1330 (2017) 14800 1330 4450 17600 22400 22700
2020-03-07 21:00 13.71 28900 22700 (2018) 1330 (2017) 14800 1330 4450 17600 22400 22700
2020-03-07 20:00 13.74 29000 22700 (2018) 1330 (2017) 14800 1330 4450 17600 22400 22700
2020-03-07 19:00 13.38 27900 22700 (2018) 1330 (2017) 14800 1330 4450 17600 22400 22700
2020-03-07 18:00 13.09 27100 22700 (2018) 1330 (2017) 14800 1330 4450 17600 22400 22700
2020-03-07 17:00 12.94 26700 22700 (2018) 1330 (2017) 14800 1330 4450 17600 22400 22700
2020-03-07 16:00 12.66 25900 22700 (2018) 1330 (2017) 14800 1330 4450 17600 22400 22700
2020-03-07 15:00 12.54 25500 22700 (2018) 1330 (2017) 14800 1330 4450 17600 22400 22700
2020-03-07 14:00 12.38 25100 22700 (2018) 1330 (2017) 14800 1330 4450 17600 22400 22700
2020-03-07 13:00 12.33 24900 22700 (2018) 1330 (2017) 14800 1330 4450 17600 22400 22700
2020-03-07 12:00 12.24 24700 22700 (2018) 1330 (2017) 14800 1330 4450 17600 22400 22700
2020-03-07 11:00 12.07 24200 22700 (2018) 1330 (2017) 14800 1330 4450 17600 22400 22700
2020-03-07 10:00 12.06 24100 22700 (2018) 1330 (2017) 14800 1330 4450 17600 22400 22700
2020-03-07 09:00 12.10 24300 22700 (2018) 1330 (2017) 14800 1330 4450 17600 22400 22700
2020-03-07 08:00 12.12 24300 22700 (2018) 1330 (2017) 14800 1330 4450 17600 22400 22700
2020-03-07 07:00 12.18 24500 22700 (2018) 1330 (2017) 14800 1330 4450 17600 22400 22700
2020-03-07 06:00 12.09 24200 22700 (2018) 1330 (2017) 14800 1330 4450 17600 22400 22700
2020-03-07 05:00 12.02 24000 22700 (2018) 1330 (2017) 14800 1330 4450 17600 22400 22700
2020-03-07 04:00 12.14 24400 22700 (2018) 1330 (2017) 14800 1330 4450 17600 22400 22700
2020-03-07 03:00 12.36 25000 22700 (2018) 1330 (2017) 14800 1330 4450 17600 22400 22700
2020-03-07 02:00 12.65 25800 22700 (2018) 1330 (2017) 14800 1330 4450 17600 22400 22700
2020-03-07 01:00 12.77 26200 22700 (2018) 1330 (2017) 14800 1330 4450 17600 22400 22700
2020-03-07 00:00 12.94 26700 22700 (2018) 1330 (2017) 14800 1330 4450 17600 22400 22700
2020-03-06 23:00 13.02 26900 36900 (2019) 972 (2017) 15900 972 1640 12800 33200 36900
2020-03-06 22:00 12.92 26600 36900 (2019) 972 (2017) 15900 972 1640 12800 33200 36900
2020-03-06 21:00 12.75 26100 36900 (2019) 972 (2017) 15900 972 1640 12800 33200 36900
2020-03-06 20:00 12.83 26300 36900 (2019) 972 (2017) 15900 972 1640 12800 33200 36900
2020-03-06 19:00 12.84 26400 36900 (2019) 972 (2017) 15900 972 1640 12800 33200 36900
2020-03-06 18:00 12.71 26000 36900 (2019) 972 (2017) 15900 972 1640 12800 33200 36900
2020-03-06 17:00 12.74 26100 36900 (2019) 972 (2017) 15900 972 1640 12800 33200 36900
2020-03-06 16:00 12.80 26300 36900 (2019) 972 (2017) 15900 972 1640 12800 33200 36900
2020-03-06 15:00 12.81 26300 36900 (2019) 972 (2017) 15900 972 1640 12800 33200 36900
2020-03-06 14:00 13.05 27000 36900 (2019) 972 (2017) 15900 972 1640 12800 33200 36900
2020-03-06 13:00 13.12 27200 36900 (2019) 972 (2017) 15900 972 1640 12800 33200 36900
2020-03-06 12:00 13.17 27300 36900 (2019) 972 (2017) 15900 972 1640 12800 33200 36900
2020-03-06 11:00 13.16 27300 36900 (2019) 972 (2017) 15900 972 1640 12800 33200 36900
2020-03-06 10:00 13.06 27000 36900 (2019) 972 (2017) 15900 972 1640 12800 33200 36900
2020-03-06 09:00 12.97 26700 36900 (2019) 972 (2017) 15900 972 1640 12800 33200 36900
2020-03-06 08:00 12.77 26200 36900 (2019) 972 (2017) 15900 972 1640 12800 33200 36900
2020-03-06 07:00 12.43 25200 36900 (2019) 972 (2017) 15900 972 1640 12800 33200 36900
2020-03-06 06:00 12.24 24700 36900 (2019) 972 (2017) 15900 972 1640 12800 33200 36900
2020-03-06 05:00 12.30 24800 36900 (2019) 972 (2017) 15900 972 1640 12800 33200 36900
2020-03-06 04:00 12.56 25600 36900 (2019) 972 (2017) 15900 972 1640 12800 33200 36900
2020-03-06 03:00 13.13 27200 36900 (2019) 972 (2017) 15900 972 1640 12800 33200 36900
2020-03-06 02:00 13.76 29100 36900 (2019) 972 (2017) 15900 972 1640 12800 33200 36900
2020-03-06 01:00 14.40 31000 36900 (2019) 972 (2017) 15900 972 1640 12800 33200 36900
2020-03-06 00:00 14.86 32400 36900 (2019) 972 (2017) 15900 972 1640 12800 33200 36900
2020-03-05 23:00 14.85 32400 31200 (2019) 976 (2017) 14400 976 1650 12600 28800 31200
2020-03-05 22:00 14.79 32200 31200 (2019) 976 (2017) 14400 976 1650 12600 28800 31200
2020-03-05 21:00 14.68 31800 31200 (2019) 976 (2017) 14400 976 1650 12600 28800 31200
2020-03-05 20:00 14.63 31700 31200 (2019) 976 (2017) 14400 976 1650 12600 28800 31200
2020-03-05 19:00 14.62 31700 31200 (2019) 976 (2017) 14400 976 1650 12600 28800 31200
2020-03-05 18:00 14.64 31700 31200 (2019) 976 (2017) 14400 976 1650 12600 28800 31200
2020-03-05 17:00 14.77 32100 31200 (2019) 976 (2017) 14400 976 1650 12600 28800 31200
2020-03-05 16:00 14.85 32400 31200 (2019) 976 (2017) 14400 976 1650 12600 28800 31200
2020-03-05 15:00 14.81 32200 31200 (2019) 976 (2017) 14400 976 1650 12600 28800 31200
2020-03-05 14:00 14.71 31900 31200 (2019) 976 (2017) 14400 976 1650 12600 28800 31200
2020-03-05 13:00 14.57 31500 31200 (2019) 976 (2017) 14400 976 1650 12600 28800 31200
2020-03-05 12:00 14.55 31400 31200 (2019) 976 (2017) 14400 976 1650 12600 28800 31200
2020-03-05 11:00 14.47 31200 31200 (2019) 976 (2017) 14400 976 1650 12600 28800 31200
2020-03-05 10:00 14.29 30700 31200 (2019) 976 (2017) 14400 976 1650 12600 28800 31200
2020-03-05 09:00 14.21 30400 31200 (2019) 976 (2017) 14400 976 1650 12600 28800 31200
2020-03-05 08:00 14.17 30300 31200 (2019) 976 (2017) 14400 976 1650 12600 28800 31200
2020-03-05 07:00 13.99 29800 31200 (2019) 976 (2017) 14400 976 1650 12600 28800 31200
2020-03-05 06:00 13.84 29300 31200 (2019) 976 (2017) 14400 976 1650 12600 28800 31200
2020-03-05 05:00 13.70 28900 31200 (2019) 976 (2017) 14400 976 1650 12600 28800 31200
2020-03-05 04:00 13.62 28700 31200 (2019) 976 (2017) 14400 976 1650 12600 28800 31200
2020-03-05 03:00 13.93 29600 31200 (2019) 976 (2017) 14400 976 1650 12600 28800 31200
2020-03-05 02:00 14.59 31600 31200 (2019) 976 (2017) 14400 976 1650 12600 28800 31200
2020-03-05 01:00 15.08 33100 31200 (2019) 976 (2017) 14400 976 1650 12600 28800 31200
2020-03-05 00:00 15.07 33000 31200 (2019) 976 (2017) 14400 976 1650 12600 28800 31200
2020-03-04 23:00 15.07 33000 21900 (2018) 1220 (2017) 12100 1220 1830 12700 21800 21900
2020-03-04 22:00 15.06 33000 21900 (2018) 1220 (2017) 12100 1220 1830 12700 21800 21900
2020-03-04 21:00 15.07 33000 21900 (2018) 1220 (2017) 12100 1220 1830 12700 21800 21900
2020-03-04 20:00 15.06 33000 21900 (2018) 1220 (2017) 12100 1220 1830 12700 21800 21900
2020-03-04 19:00 15.01 32900 21900 (2018) 1220 (2017) 12100 1220 1830 12700 21800 21900
2020-03-04 18:00 14.95 32700 21900 (2018) 1220 (2017) 12100 1220 1830 12700 21800 21900
2020-03-04 17:00 14.89 32500 21900 (2018) 1220 (2017) 12100 1220 1830 12700 21800 21900
2020-03-04 16:00 14.87 32400 21900 (2018) 1220 (2017) 12100 1220 1830 12700 21800 21900
2020-03-04 15:00 14.85 32400 21900 (2018) 1220 (2017) 12100 1220 1830 12700 21800 21900
2020-03-04 14:00 14.81 32200 21900 (2018) 1220 (2017) 12100 1220 1830 12700 21800 21900
2020-03-04 13:00 14.80 32200 21900 (2018) 1220 (2017) 12100 1220 1830 12700 21800 21900
2020-03-04 12:00 14.82 32300 21900 (2018) 1220 (2017) 12100 1220 1830 12700 21800 21900
2020-03-04 11:00 14.86 32400 21900 (2018) 1220 (2017) 12100 1220 1830 12700 21800 21900
2020-03-04 10:00 14.94 32600 21900 (2018) 1220 (2017) 12100 1220 1830 12700 21800 21900
2020-03-04 09:00 14.96 32700 21900 (2018) 1220 (2017) 12100 1220 1830 12700 21800 21900
2020-03-04 08:00 14.89 32500 21900 (2018) 1220 (2017) 12100 1220 1830 12700 21800 21900
2020-03-04 07:00 14.88 32500 21900 (2018) 1220 (2017) 12100 1220 1830 12700 21800 21900
2020-03-04 06:00 14.86 32400 21900 (2018) 1220 (2017) 12100 1220 1830 12700 21800 21900
2020-03-04 05:00 14.83 32300 21900 (2018) 1220 (2017) 12100 1220 1830 12700 21800 21900
2020-03-04 04:00 14.70 31900 21900 (2018) 1220 (2017) 12100 1220 1830 12700 21800 21900
2020-03-04 03:00 14.69 31900 21900 (2018) 1220 (2017) 12100 1220 1830 12700 21800 21900
2020-03-04 02:00 14.63 31700 21900 (2018) 1220 (2017) 12100 1220 1830 12700 21800 21900
2020-03-04 01:00 14.54 31400 21900 (2018) 1220 (2017) 12100 1220 1830 12700 21800 21900
2020-03-04 00:00 14.41 31000 21900 (2018) 1220 (2017) 12100 1220 1830 12700 21800 21900
2020-03-03 23:00 14.29 30700 23300 (2018) 3680 (2016) 11200 3680 3950 8830 20700 23300
2020-03-03 22:00 14.19 30400 23300 (2018) 3680 (2016) 11200 3680 3950 8830 20700 23300
2020-03-03 21:00 14.04 29900 23300 (2018) 3680 (2016) 11200 3680 3950 8830 20700 23300
2020-03-03 20:00 13.94 29600 23300 (2018) 3680 (2016) 11200 3680 3950 8830 20700 23300
2020-03-03 19:00 13.97 29700 23300 (2018) 3680 (2016) 11200 3680 3950 8830 20700 23300
2020-03-03 18:00 13.95 29600 23300 (2018) 3680 (2016) 11200 3680 3950 8830 20700 23300
2020-03-03 17:00 13.96 29700 23300 (2018) 3680 (2016) 11200 3680 3950 8830 20700 23300
2020-03-03 16:00 13.93 29600 23300 (2018) 3680 (2016) 11200 3680 3950 8830 20700 23300
2020-03-03 15:00 13.93 29600 23300 (2018) 3680 (2016) 11200 3680 3950 8830 20700 23300
2020-03-03 14:00 13.93 29600 23300 (2018) 3680 (2016) 11200 3680 3950 8830 20700 23300
2020-03-03 13:00 13.95 29600 23300 (2018) 3680 (2016) 11200 3680 3950 8830 20700 23300
2020-03-03 12:00 13.93 29600 23300 (2018) 3680 (2016) 11200 3680 3950 8830 20700 23300
2020-03-03 11:00 13.91 29500 23300 (2018) 3680 (2016) 11200 3680 3950 8830 20700 23300
2020-03-03 10:00 13.95 29600 23300 (2018) 3680 (2016) 11200 3680 3950 8830 20700 23300
2020-03-03 09:00 13.96 29700 23300 (2018) 3680 (2016) 11200 3680 3950 8830 20700 23300
2020-03-03 08:00 13.97 29700 23300 (2018) 3680 (2016) 11200 3680 3950 8830 20700 23300
2020-03-03 07:00 14.00 29800 23300 (2018) 3680 (2016) 11200 3680 3950 8830 20700 23300
2020-03-03 06:00 14.06 30000 23300 (2018) 3680 (2016) 11200 3680 3950 8830 20700 23300
2020-03-03 05:00 14.10 30100 23300 (2018) 3680 (2016) 11200 3680 3950 8830 20700 23300
2020-03-03 04:00 14.13 30200 23300 (2018) 3680 (2016) 11200 3680 3950 8830 20700 23300
2020-03-03 03:00 14.13 30200 23300 (2018) 3680 (2016) 11200 3680 3950 8830 20700 23300
2020-03-03 02:00 14.11 30100 23300 (2018) 3680 (2016) 11200 3680 3950 8830 20700 23300
2020-03-03 01:00 14.13 30200 23300 (2018) 3680 (2016) 11200 3680 3950 8830 20700 23300
2020-03-03 00:00 14.12 30100 23300 (2018) 3680 (2016) 11200 3680 3950 8830 20700 23300
2020-03-02 23:00 14.11 30100 32200 (2018) 2900 (2017) 14100 2900 3150 10600 28500 32200
2020-03-02 22:00 14.08 30000 32200 (2018) 2900 (2017) 14100 2900 3150 10600 28500 32200
2020-03-02 21:00 14.11 30100 32200 (2018) 2900 (2017) 14100 2900 3150 10600 28500 32200
2020-03-02 20:00 14.06 30000 32200 (2018) 2900 (2017) 14100 2900 3150 10600 28500 32200
2020-03-02 19:00 14.07 30000 32200 (2018) 2900 (2017) 14100 2900 3150 10600 28500 32200
2020-03-02 18:00 14.03 29900 32200 (2018) 2900 (2017) 14100 2900 3150 10600 28500 32200
2020-03-02 17:00 14.05 29900 32200 (2018) 2900 (2017) 14100 2900 3150 10600 28500 32200
2020-03-02 16:00 14.03 29900 32200 (2018) 2900 (2017) 14100 2900 3150 10600 28500 32200
2020-03-02 15:00 14.03 29900 32200 (2018) 2900 (2017) 14100 2900 3150 10600 28500 32200
2020-03-02 14:00 14.00 29800 32200 (2018) 2900 (2017) 14100 2900 3150 10600 28500 32200
2020-03-02 13:00 14.03 29900 32200 (2018) 2900 (2017) 14100 2900 3150 10600 28500 32200
2020-03-02 12:00 14.12 30100 32200 (2018) 2900 (2017) 14100 2900 3150 10600 28500 32200
2020-03-02 11:00 14.11 30100 32200 (2018) 2900 (2017) 14100 2900 3150 10600 28500 32200
2020-03-02 10:00 14.13 30200 32200 (2018) 2900 (2017) 14100 2900 3150 10600 28500 32200
2020-03-02 09:00 14.11 30100 32200 (2018) 2900 (2017) 14100 2900 3150 10600 28500 32200
2020-03-02 08:00 14.11 30100 32200 (2018) 2900 (2017) 14100 2900 3150 10600 28500 32200
2020-03-02 07:00 14.09 30100 32200 (2018) 2900 (2017) 14100 2900 3150 10600 28500 32200
2020-03-02 06:00 14.13 30200 32200 (2018) 2900 (2017) 14100 2900 3150 10600 28500 32200
2020-03-02 05:00 14.12 30100 32200 (2018) 2900 (2017) 14100 2900 3150 10600 28500 32200
2020-03-02 04:00 14.12 30100 32200 (2018) 2900 (2017) 14100 2900 3150 10600 28500 32200
2020-03-02 03:00 14.12 30100 32200 (2018) 2900 (2017) 14100 2900 3150 10600 28500 32200
2020-03-02 02:00 14.10 30100 32200 (2018) 2900 (2017) 14100 2900 3150 10600 28500 32200
2020-03-02 01:00 14.12 30100 32200 (2018) 2900 (2017) 14100 2900 3150 10600 28500 32200
2020-03-02 00:00 14.11 30100 32200 (2018) 2900 (2017) 14100 2900 3150 10600 28500 32200
2020-03-01 23:00 14.10 30100 33800 (2018) 1060 (2017) 16800 1060 1960 16200 32300 33800
2020-03-01 22:00 14.12 30100 33800 (2018) 1060 (2017) 16800 1060 1960 16200 32300 33800
2020-03-01 21:00 14.12 30100 33800 (2018) 1060 (2017) 16800 1060 1960 16200 32300 33800
2020-03-01 20:00 14.11 30100 33800 (2018) 1060 (2017) 16800 1060 1960 16200 32300 33800
2020-03-01 19:00 14.12 30100 33800 (2018) 1060 (2017) 16800 1060 1960 16200 32300 33800
2020-03-01 18:00 14.13 30200 33800 (2018) 1060 (2017) 16800 1060 1960 16200 32300 33800
2020-03-01 17:00 14.11 30100 33800 (2018) 1060 (2017) 16800 1060 1960 16200 32300 33800
2020-03-01 16:00 14.13 30200 33800 (2018) 1060 (2017) 16800 1060 1960 16200 32300 33800
2020-03-01 15:00 14.11 30100 33800 (2018) 1060 (2017) 16800 1060 1960 16200 32300 33800
2020-03-01 14:00 14.14 30200 33800 (2018) 1060 (2017) 16800 1060 1960 16200 32300 33800
2020-03-01 13:00 14.14 30200 33800 (2018) 1060 (2017) 16800 1060 1960 16200 32300 33800
2020-03-01 12:00 14.14 30200 33800 (2018) 1060 (2017) 16800 1060 1960 16200 32300 33800
2020-03-01 11:00 14.12 30100 33800 (2018) 1060 (2017) 16800 1060 1960 16200 32300 33800
2020-03-01 10:00 14.13 30200 33800 (2018) 1060 (2017) 16800 1060 1960 16200 32300 33800
2020-03-01 09:00 14.10 30100 33800 (2018) 1060 (2017) 16800 1060 1960 16200 32300 33800
2020-03-01 08:00 14.12 30100 33800 (2018) 1060 (2017) 16800 1060 1960 16200 32300 33800
2020-03-01 07:00 14.12 30100 33800 (2018) 1060 (2017) 16800 1060 1960 16200 32300 33800
2020-03-01 06:00 14.13 30200 33800 (2018) 1060 (2017) 16800 1060 1960 16200 32300 33800
2020-03-01 05:00 14.12 30100 33800 (2018) 1060 (2017) 16800 1060 1960 16200 32300 33800
2020-03-01 04:00 14.11 30100 33800 (2018) 1060 (2017) 16800 1060 1960 16200 32300 33800
2020-03-01 03:00 14.09 30100 33800 (2018) 1060 (2017) 16800 1060 1960 16200 32300 33800
2020-03-01 02:00 14.12 30100 33800 (2018) 1060 (2017) 16800 1060 1960 16200 32300 33800
2020-03-01 01:00 14.13 30200 33800 (2018) 1060 (2017) 16800 1060 1960 16200 32300 33800
2020-03-01 00:00 14.11 30100 33800 (2018) 1060 (2017) 16800 1060 1960 16200 32300 33800
2020-02-29 23:00 14.12 30100 4100 (2016) 4100 (2016) 4100 4100
2020-02-29 22:00 14.08 30000 4100 (2016) 4100 (2016) 4100 4100
2020-02-29 21:00 14.09 30100 4100 (2016) 4100 (2016) 4100 4100
2020-02-29 20:00 14.11 30100 4100 (2016) 4100 (2016) 4100 4100
2020-02-29 19:00 14.09 30100 4100 (2016) 4100 (2016) 4100 4100
2020-02-29 18:00 14.14 30200 4100 (2016) 4100 (2016) 4100 4100
2020-02-29 17:00 14.13 30200 4100 (2016) 4100 (2016) 4100 4100
2020-02-29 16:00 14.15 30200 4100 (2016) 4100 (2016) 4100 4100
2020-02-29 15:00 14.16 30300 4100 (2016) 4100 (2016) 4100 4100
2020-02-29 14:00 14.14 30200 4100 (2016) 4100 (2016) 4100 4100
2020-02-29 13:00 14.16 30300 4100 (2016) 4100 (2016) 4100 4100
2020-02-29 12:00 14.15 30200 4100 (2016) 4100 (2016) 4100 4100
2020-02-29 11:00 14.14 30200 4100 (2016) 4100 (2016) 4100 4100
2020-02-29 10:00 14.16 30300 4100 (2016) 4100 (2016) 4100 4100
2020-02-29 09:00 14.18 30300 4100 (2016) 4100 (2016) 4100 4100
2020-02-29 08:00 14.17 30300 4100 (2016) 4100 (2016) 4100 4100
2020-02-29 07:00 14.18 30300 4100 (2016) 4100 (2016) 4100 4100
2020-02-29 06:00 14.17 30300 4100 (2016) 4100 (2016) 4100 4100
2020-02-29 05:00 14.16 30300 4100 (2016) 4100 (2016) 4100 4100
2020-02-29 04:00 14.18 30300 4100 (2016) 4100 (2016) 4100 4100
2020-02-29 03:00 14.18 30300 4100 (2016) 4100 (2016) 4100 4100
2020-02-29 02:00 14.15 30200 4100 (2016) 4100 (2016) 4100 4100
2020-02-29 01:00 14.14 30200 4100 (2016) 4100 (2016) 4100 4100
2020-02-29 00:00 14.15 30200 4100 (2016) 4100 (2016) 4100 4100
2020-02-28 23:00 14.09 30100 33000 (2018) 1020 (2017) 16200 1020 1790 15400 31400 33000
2020-02-28 22:00 14.09 30100 33000 (2018) 1020 (2017) 16200 1020 1790 15400 31400 33000
2020-02-28 21:00 14.07 30000 33000 (2018) 1020 (2017) 16200 1020 1790 15400 31400 33000
2020-02-28 20:00 14.05 29900 33000 (2018) 1020 (2017) 16200 1020 1790 15400 31400 33000
2020-02-28 18:00 13.99 29800 33000 (2018) 1020 (2017) 16200 1020 1790 15400 31400 33000
2020-02-28 17:00 13.97 29700 33000 (2018) 1020 (2017) 16200 1020 1790 15400 31400 33000
2020-02-28 16:00 13.96 29700 33000 (2018) 1020 (2017) 16200 1020 1790 15400 31400 33000
2020-02-28 15:00 14.09 30100 33000 (2018) 1020 (2017) 16200 1020 1790 15400 31400 33000
2020-02-28 14:00 14.21 30400 33000 (2018) 1020 (2017) 16200 1020 1790 15400 31400 33000
2020-02-28 13:00 14.21 30400 33000 (2018) 1020 (2017) 16200 1020 1790 15400 31400 33000
2020-02-28 12:00 14.20 30400 33000 (2018) 1020 (2017) 16200 1020 1790 15400 31400 33000
2020-02-28 11:00 14.20 30400 33000 (2018) 1020 (2017) 16200 1020 1790 15400 31400 33000
2020-02-28 10:00 14.22 30400 33000 (2018) 1020 (2017) 16200 1020 1790 15400 31400 33000
2020-02-28 09:00 14.21 30400 33000 (2018) 1020 (2017) 16200 1020 1790 15400 31400 33000
2020-02-28 08:00 14.22 30400 33000 (2018) 1020 (2017) 16200 1020 1790 15400 31400 33000
2020-02-28 07:00 14.20 30400 33000 (2018) 1020 (2017) 16200 1020 1790 15400 31400 33000
2020-02-28 06:00 14.18 30300 33000 (2018) 1020 (2017) 16200 1020 1790 15400 31400 33000
2020-02-28 05:00 14.21 30400 33000 (2018) 1020 (2017) 16200 1020 1790 15400 31400 33000
2020-02-28 04:00 14.21 30400 33000 (2018) 1020 (2017) 16200 1020 1790 15400 31400 33000
2020-02-28 03:00 14.20 30400 33000 (2018) 1020 (2017) 16200 1020 1790 15400 31400 33000
2020-02-28 02:00 14.21 30400 33000 (2018) 1020 (2017) 16200 1020 1790 15400 31400 33000
2020-02-28 01:00 14.19 30400 33000 (2018) 1020 (2017) 16200 1020 1790 15400 31400 33000
2020-02-28 00:00 14.19 30400 33000 (2018) 1020 (2017) 16200 1020 1790 15400 31400 33000
2020-02-27 23:00 14.20 30400 30100 (2018) 1230 (2017) 14500 1230 2850 13400 27300 30100
2020-02-27 22:00 14.20 30400 30100 (2018) 1230 (2017) 14500 1230 2850 13400 27300 30100
2020-02-27 21:00 14.17 30300 30100 (2018) 1230 (2017) 14500 1230 2850 13400 27300 30100
2020-02-27 20:00 14.19 30400 30100 (2018) 1230 (2017) 14500 1230 2850 13400 27300 30100
2020-02-27 19:00 14.18 30300 30100 (2018) 1230 (2017) 14500 1230 2850 13400 27300 30100
2020-02-27 18:00 14.14 30200 30100 (2018) 1230 (2017) 14500 1230 2850 13400 27300 30100
2020-02-27 17:00 14.13 30200 30100 (2018) 1230 (2017) 14500 1230 2850 13400 27300 30100
2020-02-27 16:00 14.13 30200 30100 (2018) 1230 (2017) 14500 1230 2850 13400 27300 30100
2020-02-27 15:00 14.11 30100 30100 (2018) 1230 (2017) 14500 1230 2850 13400 27300 30100
2020-02-27 14:00 14.07 30000 30100 (2018) 1230 (2017) 14500 1230 2850 13400 27300 30100
2020-02-27 13:00 14.06 30000 30100 (2018) 1230 (2017) 14500 1230 2850 13400 27300 30100
2020-02-27 12:00 14.02 29800 30100 (2018) 1230 (2017) 14500 1230 2850 13400 27300 30100
2020-02-27 11:00 13.97 29700 30100 (2018) 1230 (2017) 14500 1230 2850 13400 27300 30100
2020-02-27 10:00 13.90 29500 30100 (2018) 1230 (2017) 14500 1230 2850 13400 27300 30100
2020-02-27 09:00 13.87 29400 30100 (2018) 1230 (2017) 14500 1230 2850 13400 27300 30100
2020-02-27 08:00 13.91 29500 30100 (2018) 1230 (2017) 14500 1230 2850 13400 27300 30100
2020-02-27 07:00 13.88 29400 30100 (2018) 1230 (2017) 14500 1230 2850 13400 27300 30100
2020-02-27 06:00 13.90 29500 30100 (2018) 1230 (2017) 14500 1230 2850 13400 27300 30100
2020-02-27 05:00 13.90 29500 30100 (2018) 1230 (2017) 14500 1230 2850 13400 27300 30100
2020-02-27 04:00 13.93 29600 30100 (2018) 1230 (2017) 14500 1230 2850 13400 27300 30100
2020-02-27 03:00 13.90 29500 30100 (2018) 1230 (2017) 14500 1230 2850 13400 27300 30100
2020-02-27 02:00 13.92 29500 30100 (2018) 1230 (2017) 14500 1230 2850 13400 27300 30100
2020-02-27 01:00 13.92 29500 30100 (2018) 1230 (2017) 14500 1230 2850 13400 27300 30100
2020-02-27 00:00 13.88 29400 30100 (2018) 1230 (2017) 14500 1230 2850 13400 27300 30100
2020-02-26 23:00 13.93 29600 26300 (2018) 3540 (2017) 16200 3540 6650 17500 24500 26300
2020-02-26 22:00 13.92 29500 26300 (2018) 3540 (2017) 16200 3540 6650 17500 24500 26300
2020-02-26 21:00 13.94 29600 26300 (2018) 3540 (2017) 16200 3540 6650 17500 24500 26300
2020-02-26 20:00 13.92 29500 26300 (2018) 3540 (2017) 16200 3540 6650 17500 24500 26300
2020-02-26 19:00 13.92 29500 26300 (2018) 3540 (2017) 16200 3540 6650 17500 24500 26300
2020-02-26 18:00 13.92 29500 26300 (2018) 3540 (2017) 16200 3540 6650 17500 24500 26300
2020-02-26 17:00 13.94 29600 26300 (2018) 3540 (2017) 16200 3540 6650 17500 24500 26300
2020-02-26 16:00 13.93 29600 26300 (2018) 3540 (2017) 16200 3540 6650 17500 24500 26300
2020-02-26 15:00 13.91 29500 26300 (2018) 3540 (2017) 16200 3540 6650 17500 24500 26300
2020-02-26 14:00 13.89 29500 26300 (2018) 3540 (2017) 16200 3540 6650 17500 24500 26300
2020-02-26 13:00 13.91 29500 26300 (2018) 3540 (2017) 16200 3540 6650 17500 24500 26300
2020-02-26 12:00 13.87 29400 26300 (2018) 3540 (2017) 16200 3540 6650 17500 24500 26300
2020-02-26 11:00 13.90 29500 26300 (2018) 3540 (2017) 16200 3540 6650 17500 24500 26300
2020-02-26 10:00 13.86 29400 26300 (2018) 3540 (2017) 16200 3540 6650 17500 24500 26300
2020-02-26 09:00 13.87 29400 26300 (2018) 3540 (2017) 16200 3540 6650 17500 24500 26300
2020-02-26 08:00 13.87 29400 26300 (2018) 3540 (2017) 16200 3540 6650 17500 24500 26300
2020-02-26 07:00 13.88 29400 26300 (2018) 3540 (2017) 16200 3540 6650 17500 24500 26300
2020-02-26 06:00 13.89 29500 26300 (2018) 3540 (2017) 16200 3540 6650 17500 24500 26300
2020-02-26 05:00 13.88 29400 26300 (2018) 3540 (2017) 16200 3540 6650 17500 24500 26300
2020-02-26 04:00 13.87 29400 26300 (2018) 3540 (2017) 16200 3540 6650 17500 24500 26300
2020-02-26 03:00 13.89 29500 26300 (2018) 3540 (2017) 16200 3540 6650 17500 24500 26300
2020-02-26 02:00 13.89 29500 26300 (2018) 3540 (2017) 16200 3540 6650 17500 24500 26300
2020-02-26 01:00 13.87 29400 26300 (2018) 3540 (2017) 16200 3540 6650 17500 24500 26300
2020-02-26 00:00 13.87 29400 26300 (2018) 3540 (2017) 16200 3540 6650 17500 24500 26300
2020-02-25 23:00 13.88 29400 30200 (2018) 2420 (2017) 14200 2420 4200 12100 26300 30200
2020-02-25 22:00 13.87 29400 30200 (2018) 2420 (2017) 14200 2420 4200 12100 26300 30200
2020-02-25 21:00 13.86 29400 30200 (2018) 2420 (2017) 14200 2420 4200 12100 26300 30200
2020-02-25 20:00 13.86 29400 30200 (2018) 2420 (2017) 14200 2420 4200 12100 26300 30200
2020-02-25 19:00 13.81 29200 30200 (2018) 2420 (2017) 14200 2420 4200 12100 26300 30200
2020-02-25 18:00 13.82 29200 30200 (2018) 2420 (2017) 14200 2420 4200 12100 26300 30200
2020-02-25 17:00 13.78 29100 30200 (2018) 2420 (2017) 14200 2420 4200 12100 26300 30200
2020-02-25 16:00 13.75 29000 30200 (2018) 2420 (2017) 14200 2420 4200 12100 26300 30200
2020-02-25 15:00 13.70 28900 30200 (2018) 2420 (2017) 14200 2420 4200 12100 26300 30200
2020-02-25 14:00 13.66 28800 30200 (2018) 2420 (2017) 14200 2420 4200 12100 26300 30200
2020-02-25 13:00 13.61 28600 30200 (2018) 2420 (2017) 14200 2420 4200 12100 26300 30200
2020-02-25 12:00 13.53 28400 30200 (2018) 2420 (2017) 14200 2420 4200 12100 26300 30200
2020-02-25 11:00 13.44 28100 30200 (2018) 2420 (2017) 14200 2420 4200 12100 26300 30200
2020-02-25 10:00 13.32 27800 30200 (2018) 2420 (2017) 14200 2420 4200 12100 26300 30200
2020-02-25 09:00 13.16 27300 30200 (2018) 2420 (2017) 14200 2420 4200 12100 26300 30200
2020-02-25 08:00 13.01 26900 30200 (2018) 2420 (2017) 14200 2420 4200 12100 26300 30200
2020-02-25 07:00 12.79 26200 30200 (2018) 2420 (2017) 14200 2420 4200 12100 26300 30200
2020-02-25 06:00 12.49 25400 30200 (2018) 2420 (2017) 14200 2420 4200 12100 26300 30200
2020-02-25 05:00 12.17 24500 30200 (2018) 2420 (2017) 14200 2420 4200 12100 26300 30200
2020-02-25 04:00 11.78 23400 30200 (2018) 2420 (2017) 14200 2420 4200 12100 26300 30200
2020-02-25 03:00 11.28 22000 30200 (2018) 2420 (2017) 14200 2420 4200 12100 26300 30200
2020-02-25 02:00 10.74 20500 30200 (2018) 2420 (2017) 14200 2420 4200 12100 26300 30200
2020-02-25 01:00 10.20 19100 30200 (2018) 2420 (2017) 14200 2420 4200 12100 26300 30200
2020-02-25 00:00 10.06 18700 30200 (2018) 2420 (2017) 14200 2420 4200 12100 26300 30200
2020-02-24 23:00 10.28 19300 17100 (2018) 4620 (2017) 11600 4620 5890 12400 16600 17100
2020-02-24 22:00 10.49 19900 17100 (2018) 4620 (2017) 11600 4620 5890 12400 16600 17100
2020-02-24 21:00 10.74 20500 17100 (2018) 4620 (2017) 11600 4620 5890 12400 16600 17100
2020-02-24 20:00 11.04 21300 17100 (2018) 4620 (2017) 11600 4620 5890 12400 16600 17100
2020-02-24 19:00 11.34 22200 17100 (2018) 4620 (2017) 11600 4620 5890 12400 16600 17100
2020-02-24 18:00 11.54 22700 17100 (2018) 4620 (2017) 11600 4620 5890 12400 16600 17100
2020-02-24 17:00 11.77 23300 17100 (2018) 4620 (2017) 11600 4620 5890 12400 16600 17100
2020-02-24 16:00 12.03 24100 17100 (2018) 4620 (2017) 11600 4620 5890 12400 16600 17100
2020-02-24 15:00 12.36 25000 17100 (2018) 4620 (2017) 11600 4620 5890 12400 16600 17100
2020-02-24 14:00 12.45 25300 17100 (2018) 4620 (2017) 11600 4620 5890 12400 16600 17100
2020-02-24 13:00 12.05 24100 17100 (2018) 4620 (2017) 11600 4620 5890 12400 16600 17100
2020-02-24 12:00 11.56 22800 17100 (2018) 4620 (2017) 11600 4620 5890 12400 16600 17100
2020-02-24 11:00 11.04 21300 17100 (2018) 4620 (2017) 11600 4620 5890 12400 16600 17100
2020-02-24 10:00 10.65 20300 17100 (2018) 4620 (2017) 11600 4620 5890 12400 16600 17100
2020-02-24 09:00 10.44 19700 17100 (2018) 4620 (2017) 11600 4620 5890 12400 16600 17100
2020-02-24 08:00 10.27 19300 17100 (2018) 4620 (2017) 11600 4620 5890 12400 16600 17100
2020-02-24 07:00 10.33 19400 17100 (2018) 4620 (2017) 11600 4620 5890 12400 16600 17100
2020-02-24 06:00 10.24 19200 17100 (2018) 4620 (2017) 11600 4620 5890 12400 16600 17100
2020-02-24 05:00 10.20 19100 17100 (2018) 4620 (2017) 11600 4620 5890 12400 16600 17100
2020-02-24 04:00 10.15 18900 17100 (2018) 4620 (2017) 11600 4620 5890 12400 16600 17100
2020-02-24 03:00 10.02 18500 17100 (2018) 4620 (2017) 11600 4620 5890 12400 16600 17100
2020-02-24 02:00 9.79 17800 17100 (2018) 4620 (2017) 11600 4620 5890 12400 16600 17100
2020-02-24 01:00 9.60 17300 17100 (2018) 4620 (2017) 11600 4620 5890 12400 16600 17100
2020-02-24 00:00 9.58 17200 17100 (2018) 4620 (2017) 11600 4620 5890 12400 16600 17100
2020-02-23 23:00 9.55 17100 20700 (2018) 5370 (2017) 14100 5370 6580 15100 20500 20700
2020-02-23 22:00 9.53 17100 20700 (2018) 5370 (2017) 14100 5370 6580 15100 20500 20700
2020-02-23 21:00 9.42 16800 20700 (2018) 5370 (2017) 14100 5370 6580 15100 20500 20700
2020-02-23 20:00 9.21 16200 20700 (2018) 5370 (2017) 14100 5370 6580 15100 20500 20700
2020-02-23 19:00 8.81 15000 20700 (2018) 5370 (2017) 14100 5370 6580 15100 20500 20700
2020-02-23 18:00 8.56 14300 20700 (2018) 5370 (2017) 14100 5370 6580 15100 20500 20700
2020-02-23 17:00 8.44 14000 20700 (2018) 5370 (2017) 14100 5370 6580 15100 20500 20700
2020-02-23 16:00 8.37 13800 20700 (2018) 5370 (2017) 14100 5370 6580 15100 20500 20700
2020-02-23 15:00 8.38 13900 20700 (2018) 5370 (2017) 14100 5370 6580 15100 20500 20700
2020-02-23 14:00 8.37 13800 20700 (2018) 5370 (2017) 14100 5370 6580 15100 20500 20700
2020-02-23 13:00 8.26 13500 20700 (2018) 5370 (2017) 14100 5370 6580 15100 20500 20700
2020-02-23 12:00 8.14 13200 20700 (2018) 5370 (2017) 14100 5370 6580 15100 20500 20700
2020-02-23 11:00 8.04 12900 20700 (2018) 5370 (2017) 14100 5370 6580 15100 20500 20700
2020-02-23 10:00 7.90 12600 20700 (2018) 5370 (2017) 14100 5370 6580 15100 20500 20700
2020-02-23 09:00 7.73 12100 20700 (2018) 5370 (2017) 14100 5370 6580 15100 20500 20700
2020-02-23 08:00 7.62 11900 20700 (2018) 5370 (2017) 14100 5370 6580 15100 20500 20700
2020-02-23 07:00 7.56 11700 20700 (2018) 5370 (2017) 14100 5370 6580 15100 20500 20700
2020-02-23 06:00 7.54 11700 20700 (2018) 5370 (2017) 14100 5370 6580 15100 20500 20700
2020-02-23 05:00 7.55 11700 20700 (2018) 5370 (2017) 14100 5370 6580 15100 20500 20700
2020-02-23 04:00 7.69 12000 20700 (2018) 5370 (2017) 14100 5370 6580 15100 20500 20700
2020-02-23 03:00 7.94 12700 20700 (2018) 5370 (2017) 14100 5370 6580 15100 20500 20700
2020-02-23 02:00 8.15 13200 20700 (2018) 5370 (2017) 14100 5370 6580 15100 20500 20700
2020-02-23 01:00 8.24 13500 20700 (2018) 5370 (2017) 14100 5370 6580 15100 20500 20700
2020-02-23 00:00 8.34 13700 20700 (2018) 5370 (2017) 14100 5370 6580 15100 20500 20700
2020-02-22 23:00 8.55 14300 26200 (2019) 4990 (2017) 14300 4990 5700 13100 24200 26200
2020-02-22 22:00 8.57 14400 26200 (2019) 4990 (2017) 14300 4990 5700 13100 24200 26200
2020-02-22 21:00 8.40 13900 26200 (2019) 4990 (2017) 14300 4990 5700 13100 24200 26200
2020-02-22 20:00 8.27 13600 26200 (2019) 4990 (2017) 14300 4990 5700 13100 24200 26200
2020-02-22 19:00 8.16 13300 26200 (2019) 4990 (2017) 14300 4990 5700 13100 24200 26200
2020-02-22 18:00 8.26 13500 26200 (2019) 4990 (2017) 14300 4990 5700 13100 24200 26200
2020-02-22 17:00 8.37 13800 26200 (2019) 4990 (2017) 14300 4990 5700 13100 24200 26200
2020-02-22 16:00 8.52 14200 26200 (2019) 4990 (2017) 14300 4990 5700 13100 24200 26200
2020-02-22 15:00 8.72 14800 26200 (2019) 4990 (2017) 14300 4990 5700 13100 24200 26200
2020-02-22 14:00 8.98 15500 26200 (2019) 4990 (2017) 14300 4990 5700 13100 24200 26200
2020-02-22 13:00 9.28 16400 26200 (2019) 4990 (2017) 14300 4990 5700 13100 24200 26200
2020-02-22 12:00 9.54 17100 26200 (2019) 4990 (2017) 14300 4990 5700 13100 24200 26200
2020-02-22 11:00 9.73 17700 26200 (2019) 4990 (2017) 14300 4990 5700 13100 24200 26200
2020-02-22 10:00 10.13 18900 26200 (2019) 4990 (2017) 14300 4990 5700 13100 24200 26200
2020-02-22 09:00 10.43 19700 26200 (2019) 4990 (2017) 14300 4990 5700 13100 24200 26200
2020-02-22 08:00 10.47 19800 26200 (2019) 4990 (2017) 14300 4990 5700 13100 24200 26200
2020-02-22 07:00 10.35 19500 26200 (2019) 4990 (2017) 14300 4990 5700 13100 24200 26200
2020-02-22 06:00 10.14 18900 26200 (2019) 4990 (2017) 14300 4990 5700 13100 24200 26200
2020-02-22 05:00 10.12 18800 26200 (2019) 4990 (2017) 14300 4990 5700 13100 24200 26200
2020-02-22 04:00 10.49 19900 26200 (2019) 4990 (2017) 14300 4990 5700 13100 24200 26200
2020-02-22 03:00 10.99 21200 26200 (2019) 4990 (2017) 14300 4990 5700 13100 24200 26200
2020-02-22 02:00 11.33 22100 26200 (2019) 4990 (2017) 14300 4990 5700 13100 24200 26200
2020-02-22 01:00 11.46 22500 26200 (2019) 4990 (2017) 14300 4990 5700 13100 24200 26200
2020-02-22 00:00 11.46 22500 26200 (2019) 4990 (2017) 14300 4990 5700 13100 24200 26200
2020-02-21 23:00 11.35 22200 21200 (2019) 5110 (2016) 11400 5110 5200 9600 19300 21200
2020-02-21 22:00 10.97 21100 21200 (2019) 5110 (2016) 11400 5110 5200 9600 19300 21200
2020-02-21 21:00 10.50 19900 21200 (2019) 5110 (2016) 11400 5110 5200 9600 19300 21200
2020-02-21 20:00 9.81 17900 21200 (2019) 5110 (2016) 11400 5110 5200 9600 19300 21200
2020-02-21 19:00 9.23 16200 21200 (2019) 5110 (2016) 11400 5110 5200 9600 19300 21200
2020-02-21 18:00 9.02 15600 21200 (2019) 5110 (2016) 11400 5110 5200 9600 19300 21200
2020-02-21 17:00 9.13 15900 21200 (2019) 5110 (2016) 11400 5110 5200 9600 19300 21200
2020-02-21 16:00 9.43 16800 21200 (2019) 5110 (2016) 11400 5110 5200 9600 19300 21200
2020-02-21 15:00 9.80 17900 21200 (2019) 5110 (2016) 11400 5110 5200 9600 19300 21200
2020-02-21 14:00 10.23 19200 21200 (2019) 5110 (2016) 11400 5110 5200 9600 19300 21200
2020-02-21 13:00 10.68 20400 21200 (2019) 5110 (2016) 11400 5110 5200 9600 19300 21200
2020-02-21 12:00 11.06 21400 21200 (2019) 5110 (2016) 11400 5110 5200 9600 19300 21200
2020-02-21 11:00 11.52 22600 21200 (2019) 5110 (2016) 11400 5110 5200 9600 19300 21200
2020-02-21 10:00 11.75 23300 21200 (2019) 5110 (2016) 11400 5110 5200 9600 19300 21200
2020-02-21 09:00 11.40 22300 21200 (2019) 5110 (2016) 11400 5110 5200 9600 19300 21200
2020-02-21 08:00 11.01 21300 21200 (2019) 5110 (2016) 11400 5110 5200 9600 19300 21200
2020-02-21 07:00 10.70 20400 21200 (2019) 5110 (2016) 11400 5110 5200 9600 19300 21200
2020-02-21 06:00 10.56 20000 21200 (2019) 5110 (2016) 11400 5110 5200 9600 19300 21200
2020-02-21 05:00 10.52 19900 21200 (2019) 5110 (2016) 11400 5110 5200 9600 19300 21200
2020-02-21 04:00 10.12 18800 21200 (2019) 5110 (2016) 11400 5110 5200 9600 19300 21200
2020-02-21 03:00 9.85 18000 21200 (2019) 5110 (2016) 11400 5110 5200 9600 19300 21200
2020-02-21 02:00 9.73 17700 21200 (2019) 5110 (2016) 11400 5110 5200 9600 19300 21200
2020-02-21 01:00 9.61 17300 21200 (2019) 5110 (2016) 11400 5110 5200 9600 19300 21200
2020-02-21 00:00 9.49 17000 21200 (2019) 5110 (2016) 11400 5110 5200 9600 19300 21200
2020-02-20 23:00 9.49 17000 21900 (2019) 3120 (2017) 9610 3120 3620 6700 18500 21900
2020-02-20 22:00 9.39 16700 21900 (2019) 3120 (2017) 9610 3120 3620 6700 18500 21900
2020-02-20 21:00 9.24 16200 21900 (2019) 3120 (2017) 9610 3120 3620 6700 18500 21900
2020-02-20 20:00 9.02 15600 21900 (2019) 3120 (2017) 9610 3120 3620 6700 18500 21900
2020-02-20 19:00 8.86 15200 21900 (2019) 3120 (2017) 9610 3120 3620 6700 18500 21900
2020-02-20 18:00 8.92 15300 21900 (2019) 3120 (2017) 9610 3120 3620 6700 18500 21900
2020-02-20 17:00 9.08 15800 21900 (2019) 3120 (2017) 9610 3120 3620 6700 18500 21900
2020-02-20 16:00 9.37 16600 21900 (2019) 3120 (2017) 9610 3120 3620 6700 18500 21900
2020-02-20 15:00 9.74 17700 21900 (2019) 3120 (2017) 9610 3120 3620 6700 18500 21900
2020-02-20 14:00 10.04 18600 21900 (2019) 3120 (2017) 9610 3120 3620 6700 18500 21900
2020-02-20 13:00 10.24 19200 21900 (2019) 3120 (2017) 9610 3120 3620 6700 18500 21900
2020-02-20 12:00 10.27 19300 21900 (2019) 3120 (2017) 9610 3120 3620 6700 18500 21900
2020-02-20 11:00 10.36 19500 21900 (2019) 3120 (2017) 9610 3120 3620 6700 18500 21900
2020-02-20 10:00 10.34 19500 21900 (2019) 3120 (2017) 9610 3120 3620 6700 18500 21900
2020-02-20 09:00 10.06 18700 21900 (2019) 3120 (2017) 9610 3120 3620 6700 18500 21900
2020-02-20 08:00 9.96 18400 21900 (2019) 3120 (2017) 9610 3120 3620 6700 18500 21900
2020-02-20 07:00 10.21 19100 21900 (2019) 3120 (2017) 9610 3120 3620 6700 18500 21900
2020-02-20 06:00 10.56 20000 21900 (2019) 3120 (2017) 9610 3120 3620 6700 18500 21900
2020-02-20 05:00 10.76 20600 21900 (2019) 3120 (2017) 9610 3120 3620 6700 18500 21900
2020-02-20 04:00 10.73 20500 21900 (2019) 3120 (2017) 9610 3120 3620 6700 18500 21900
2020-02-20 03:00 10.62 20200 21900 (2019) 3120 (2017) 9610 3120 3620 6700 18500 21900
2020-02-20 02:00 10.52 19900 21900 (2019) 3120 (2017) 9610 3120 3620 6700 18500 21900
2020-02-20 01:00 10.50 19900 21900 (2019) 3120 (2017) 9610 3120 3620 6700 18500 21900
2020-02-20 00:00 10.40 19600 21900 (2019) 3120 (2017) 9610 3120 3620 6700 18500 21900
2020-02-19 23:00 10.42 19700 30100 (2019) 3540 (2017) 12700 3540 3710 8560 25800 30100
2020-02-19 22:00 10.56 20000 30100 (2019) 3540 (2017) 12700 3540 3710 8560 25800 30100
2020-02-19 21:00 10.60 20200 30100 (2019) 3540 (2017) 12700 3540 3710 8560 25800 30100
2020-02-19 20:00 10.40 19600 30100 (2019) 3540 (2017) 12700 3540 3710 8560 25800 30100
2020-02-19 19:00 10.14 18900 30100 (2019) 3540 (2017) 12700 3540 3710 8560 25800 30100
2020-02-19 18:00 10.03 18600 30100 (2019) 3540 (2017) 12700 3540 3710 8560 25800 30100
2020-02-19 17:00 9.99 18400 30100 (2019) 3540 (2017) 12700 3540 3710 8560 25800 30100
2020-02-19 16:00 1 18500 30100 (2019) 3540 (2017) 12700 3540 3710 8560 25800 30100
2020-02-19 15:00 10.06 18700 30100 (2019) 3540 (2017) 12700 3540 3710 8560 25800 30100
2020-02-19 14:00 10.24 19200 30100 (2019) 3540 (2017) 12700 3540 3710 8560 25800 30100
2020-02-19 13:00 10.38 19600 30100 (2019) 3540 (2017) 12700 3540 3710 8560 25800 30100
2020-02-19 12:00 10.34 19500 30100 (2019) 3540 (2017) 12700 3540 3710 8560 25800 30100
2020-02-19 11:00 10.20 19100 30100 (2019) 3540 (2017) 12700 3540 3710 8560 25800 30100
2020-02-19 10:00 1 18500 30100 (2019) 3540 (2017) 12700 3540 3710 8560 25800 30100
2020-02-19 09:00 9.82 17900 30100 (2019) 3540 (2017) 12700 3540 3710 8560 25800 30100
2020-02-19 08:00 9.81 17900 30100 (2019) 3540 (2017) 12700 3540 3710 8560 25800 30100
2020-02-19 07:00 9.88 18100 30100 (2019) 3540 (2017) 12700 3540 3710 8560 25800 30100
2020-02-19 06:00 9.90 18200 30100 (2019) 3540 (2017) 12700 3540 3710 8560 25800 30100
2020-02-19 05:00 9.96 18400 30100 (2019) 3540 (2017) 12700 3540 3710 8560 25800 30100
2020-02-19 04:00 9.86 18100 30100 (2019) 3540 (2017) 12700 3540 3710 8560 25800 30100
2020-02-19 03:00 9.79 17800 30100 (2019) 3540 (2017) 12700 3540 3710 8560 25800 30100
2020-02-19 02:00 9.75 17700 30100 (2019) 3540 (2017) 12700 3540 3710 8560 25800 30100
2020-02-19 01:00 9.81 17900 30100 (2019) 3540 (2017) 12700 3540 3710 8560 25800 30100
2020-02-19 00:00 10.05 18600 30100 (2019) 3540 (2017) 12700 3540 3710 8560 25800 30100
2020-02-18 23:00 10.30 19400 19400 (2019) 2680 (2018) 8900 2680 3160 6760 16800 19400
2020-02-18 22:00 10.27 19300 19400 (2019) 2680 (2018) 8900 2680 3160 6760 16800 19400
2020-02-18 21:00 10.18 19000 19400 (2019) 2680 (2018) 8900 2680 3160 6760 16800 19400
2020-02-18 20:00 10.06 18700 19400 (2019) 2680 (2018) 8900 2680 3160 6760 16800 19400
2020-02-18 19:00 9.92 18200 19400 (2019) 2680 (2018) 8900 2680 3160 6760 16800 19400
2020-02-18 18:00 9.75 17700 19400 (2019) 2680 (2018) 8900 2680 3160 6760 16800 19400
2020-02-18 17:00 9.54 17100 19400 (2019) 2680 (2018) 8900 2680 3160 6760 16800 19400
2020-02-18 16:00 9.40 16700 19400 (2019) 2680 (2018) 8900 2680 3160 6760 16800 19400
2020-02-18 15:00 9.27 16300 19400 (2019) 2680 (2018) 8900 2680 3160 6760 16800 19400
2020-02-18 14:00 9.07 15800 19400 (2019) 2680 (2018) 8900 2680 3160 6760 16800 19400
2020-02-18 13:00 8.82 15100 19400 (2019) 2680 (2018) 8900 2680 3160 6760 16800 19400
2020-02-18 12:00 8.58 14400 19400 (2019) 2680 (2018) 8900 2680 3160 6760 16800 19400
2020-02-18 11:00 8.36 13800 19400 (2019) 2680 (2018) 8900 2680 3160 6760 16800 19400
2020-02-18 10:00 8.01 12900 19400 (2019) 2680 (2018) 8900 2680 3160 6760 16800 19400
2020-02-18 09:00 7.74 12200 19400 (2019) 2680 (2018) 8900 2680 3160 6760 16800 19400
2020-02-18 08:00 7.67 12000 19400 (2019) 2680 (2018) 8900 2680 3160 6760 16800 19400
2020-02-18 07:00 7.73 12100 19400 (2019) 2680 (2018) 8900 2680 3160 6760 16800 19400
2020-02-18 06:00 7.88 12500 19400 (2019) 2680 (2018) 8900 2680 3160 6760 16800 19400
2020-02-18 05:00 8.05 13000 19400 (2019) 2680 (2018) 8900 2680 3160 6760 16800 19400
2020-02-18 04:00 8.24 13500 19400 (2019) 2680 (2018) 8900 2680 3160 6760 16800 19400
2020-02-18 03:00 8.49 14100 19400 (2019) 2680 (2018) 8900 2680 3160 6760 16800 19400
2020-02-18 02:00 8.77 14900 19400 (2019) 2680 (2018) 8900 2680 3160 6760 16800 19400
2020-02-18 01:00 9.11 15900 19400 (2019) 2680 (2018) 8900 2680 3160 6760 16800 19400
2020-02-18 00:00 9.48 16900 19400 (2019) 2680 (2018) 8900 2680 3160 6760 16800 19400
2020-02-17 23:00 9.89 18100 14400 (2019) 1110 (2018) 9380 1110 3000 11000 14100 14400
2020-02-17 22:00 10.32 19400 14400 (2019) 1110 (2018) 9380 1110 3000 11000 14100 14400
2020-02-17 21:00 10.74 20500 14400 (2019) 1110 (2018) 9380 1110 3000 11000 14100 14400
2020-02-17 20:00 11.04 21300 14400 (2019) 1110 (2018) 9380 1110 3000 11000 14100 14400
2020-02-17 19:00 11.05 21400 14400 (2019) 1110 (2018) 9380 1110 3000 11000 14100 14400
2020-02-17 18:00 11.17 21700 14400 (2019) 1110 (2018) 9380 1110 3000 11000 14100 14400
2020-02-17 17:00 11.18 21700 14400 (2019) 1110 (2018) 9380 1110 3000 11000 14100 14400
2020-02-17 16:00 11.11 21500 14400 (2019) 1110 (2018) 9380 1110 3000 11000 14100 14400
2020-02-17 15:00 11.13 21600 14400 (2019) 1110 (2018) 9380 1110 3000 11000 14100 14400
2020-02-17 14:00 11.00 21200 14400 (2019) 1110 (2018) 9380 1110 3000 11000 14100 14400
2020-02-17 13:00 10.75 20600 14400 (2019) 1110 (2018) 9380 1110 3000 11000 14100 14400
2020-02-17 12:00 10.30 19400 14400 (2019) 1110 (2018) 9380 1110 3000 11000 14100 14400
2020-02-17 11:00 9.89 18100 14400 (2019) 1110 (2018) 9380 1110 3000 11000 14100 14400
2020-02-17 10:00 9.36 16600 14400 (2019) 1110 (2018) 9380 1110 3000 11000 14100 14400
2020-02-17 09:00 8.85 15100 14400 (2019) 1110 (2018) 9380 1110 3000 11000 14100 14400
2020-02-17 08:00 8.43 14000 14400 (2019) 1110 (2018) 9380 1110 3000 11000 14100 14400
2020-02-17 07:00 8.11 13100 14400 (2019) 1110 (2018) 9380 1110 3000 11000 14100 14400
2020-02-17 06:00 8.08 13100 14400 (2019) 1110 (2018) 9380 1110 3000 11000 14100 14400
2020-02-17 05:00 8.26 13500 14400 (2019) 1110 (2018) 9380 1110 3000 11000 14100 14400
2020-02-17 04:00 8.46 14100 14400 (2019) 1110 (2018) 9380 1110 3000 11000 14100 14400
2020-02-17 03:00 8.70 14700 14400 (2019) 1110 (2018) 9380 1110 3000 11000 14100 14400
2020-02-17 02:00 8.97 15500 14400 (2019) 1110 (2018) 9380 1110 3000 11000 14100 14400
2020-02-17 01:00 9.29 16400 14400 (2019) 1110 (2018) 9380 1110 3000 11000 14100 14400
2020-02-17 00:00 9.64 17400 14400 (2019) 1110 (2018) 9380 1110 3000 11000 14100 14400
2020-02-16 23:00 10.02 18500 23700 (2019) 1360 (2018) 13300 1360 3480 14000 22300 23700
2020-02-16 22:00 10.38 19600 23700 (2019) 1360 (2018) 13300 1360 3480 14000 22300 23700
2020-02-16 21:00 10.73 20500 23700 (2019) 1360 (2018) 13300 1360 3480 14000 22300 23700
2020-02-16 20:00 11.03 21300 23700 (2019) 1360 (2018) 13300 1360 3480 14000 22300 23700
2020-02-16 19:00 11.29 22000 23700 (2019) 1360 (2018) 13300 1360 3480 14000 22300 23700
2020-02-16 18:00 11.50 22600 23700 (2019) 1360 (2018) 13300 1360 3480 14000 22300 23700
2020-02-16 17:00 11.51 22600 23700 (2019) 1360 (2018) 13300 1360 3480 14000 22300 23700
2020-02-16 16:00 11.32 22100 23700 (2019) 1360 (2018) 13300 1360 3480 14000 22300 23700
2020-02-16 15:00 11.15 21600 23700 (2019) 1360 (2018) 13300 1360 3480 14000 22300 23700
2020-02-16 14:00 11.03 21300 23700 (2019) 1360 (2018) 13300 1360 3480 14000 22300 23700
2020-02-16 13:00 10.85 20800 23700 (2019) 1360 (2018) 13300 1360 3480 14000 22300 23700
2020-02-16 12:00 10.76 20600 23700 (2019) 1360 (2018) 13300 1360 3480 14000 22300 23700
2020-02-16 11:00 10.62 20200 23700 (2019) 1360 (2018) 13300 1360 3480 14000 22300 23700
2020-02-16 10:00 10.36 19500 23700 (2019) 1360 (2018) 13300 1360 3480 14000 22300 23700
2020-02-16 09:00 9.95 18300 23700 (2019) 1360 (2018) 13300 1360 3480 14000 22300 23700
2020-02-16 08:00 9.69 17600 23700 (2019) 1360 (2018) 13300 1360 3480 14000 22300 23700
2020-02-16 07:00 9.66 17500 23700 (2019) 1360 (2018) 13300 1360 3480 14000 22300 23700
2020-02-16 06:00 9.88 18100 23700 (2019) 1360 (2018) 13300 1360 3480 14000 22300 23700
2020-02-16 05:00 10.32 19400 23700 (2019) 1360 (2018) 13300 1360 3480 14000 22300 23700
2020-02-16 04:00 10.81 20700 23700 (2019) 1360 (2018) 13300 1360 3480 14000 22300 23700
2020-02-16 03:00 11.34 22200 23700 (2019) 1360 (2018) 13300 1360 3480 14000 22300 23700
2020-02-16 02:00 11.87 23600 23700 (2019) 1360 (2018) 13300 1360 3480 14000 22300 23700
2020-02-16 01:00 12.26 24700 23700 (2019) 1360 (2018) 13300 1360 3480 14000 22300 23700
2020-02-16 00:00 12.34 24900 23700 (2019) 1360 (2018) 13300 1360 3480 14000 22300 23700
2020-02-15 23:00 12.55 25500 22700 (2019) 1370 (2018) 10500 1370 2110 8910 20400 22700
2020-02-15 22:00 12.66 25900 22700 (2019) 1370 (2018) 10500 1370 2110 8910 20400 22700
2020-02-15 21:00 12.71 26000 22700 (2019) 1370 (2018) 10500 1370 2110 8910 20400 22700
2020-02-15 20:00 12.61 25700 22700 (2019) 1370 (2018) 10500 1370 2110 8910 20400 22700
2020-02-15 19:00 12.23 24600 22700 (2019) 1370 (2018) 10500 1370 2110 8910 20400 22700
2020-02-15 18:00 11.90 23700 22700 (2019) 1370 (2018) 10500 1370 2110 8910 20400 22700
2020-02-15 17:00 11.85 23600 22700 (2019) 1370 (2018) 10500 1370 2110 8910 20400 22700
2020-02-15 16:00 11.79 23400 22700 (2019) 1370 (2018) 10500 1370 2110 8910 20400 22700
2020-02-15 15:00 11.71 23200 22700 (2019) 1370 (2018) 10500 1370 2110 8910 20400 22700
2020-02-15 14:00 11.67 23100 22700 (2019) 1370 (2018) 10500 1370 2110 8910 20400 22700
2020-02-15 13:00 11.55 22700 22700 (2019) 1370 (2018) 10500 1370 2110 8910 20400 22700
2020-02-15 12:00 11.38 22300 22700 (2019) 1370 (2018) 10500 1370 2110 8910 20400 22700
2020-02-15 11:00 11.03 21300 22700 (2019) 1370 (2018) 10500 1370 2110 8910 20400 22700
2020-02-15 10:00 10.40 19600 22700 (2019) 1370 (2018) 10500 1370 2110 8910 20400 22700
2020-02-15 09:00 9.61 17300 22700 (2019) 1370 (2018) 10500 1370 2110 8910 20400 22700
2020-02-15 08:00 9.23 16200 22700 (2019) 1370 (2018) 10500 1370 2110 8910 20400 22700
2020-02-15 07:00 9.39 16700 22700 (2019) 1370 (2018) 10500 1370 2110 8910 20400 22700
2020-02-15 06:00 9.72 17600 22700 (2019) 1370 (2018) 10500 1370 2110 8910 20400 22700
2020-02-15 05:00 10.33 19400 22700 (2019) 1370 (2018) 10500 1370 2110 8910 20400 22700
2020-02-15 04:00 11.15 21600 22700 (2019) 1370 (2018) 10500 1370 2110 8910 20400 22700
2020-02-15 03:00 12.05 24100 22700 (2019) 1370 (2018) 10500 1370 2110 8910 20400 22700
2020-02-15 02:00 13.03 26900 22700 (2019) 1370 (2018) 10500 1370 2110 8910 20400 22700
2020-02-15 01:00 13.91 29500 22700 (2019) 1370 (2018) 10500 1370 2110 8910 20400 22700
2020-02-15 00:00 14.47 31200 22700 (2019) 1370 (2018) 10500 1370 2110 8910 20400 22700
2020-02-14 23:00 14.80 32200 14300 (2019) 1380 (2018) 8180 1380 2520 8520 13500 14300
2020-02-14 22:00 14.90 32500 14300 (2019) 1380 (2018) 8180 1380 2520 8520 13500 14300
2020-02-14 21:00 14.87 32400 14300 (2019) 1380 (2018) 8180 1380 2520 8520 13500 14300
2020-02-14 20:00 14.97 32700 14300 (2019) 1380 (2018) 8180 1380 2520 8520 13500 14300
2020-02-14 19:00 15.05 33000 14300 (2019) 1380 (2018) 8180 1380 2520 8520 13500 14300
2020-02-14 18:00 15.30 33800 14300 (2019) 1380 (2018) 8180 1380 2520 8520 13500 14300
2020-02-14 17:00 15.29 33700 14300 (2019) 1380 (2018) 8180 1380 2520 8520 13500 14300
2020-02-14 16:00 15.27 33700 14300 (2019) 1380 (2018) 8180 1380 2520 8520 13500 14300
2020-02-14 15:00 15.28 33700 14300 (2019) 1380 (2018) 8180 1380 2520 8520 13500 14300
2020-02-14 14:00 15.26 33600 14300 (2019) 1380 (2018) 8180 1380 2520 8520 13500 14300
2020-02-14 13:00 15.27 33700 14300 (2019) 1380 (2018) 8180 1380 2520 8520 13500 14300
2020-02-14 12:00 15.24 33600 14300 (2019) 1380 (2018) 8180 1380 2520 8520 13500 14300
2020-02-14 11:00 15.21 33500 14300 (2019) 1380 (2018) 8180 1380 2520 8520 13500 14300
2020-02-14 10:00 15.21 33500 14300 (2019) 1380 (2018) 8180 1380 2520 8520 13500 14300
2020-02-14 09:00 15.18 33400 14300 (2019) 1380 (2018) 8180 1380 2520 8520 13500 14300
2020-02-14 08:00 15.20 33400 14300 (2019) 1380 (2018) 8180 1380 2520 8520 13500 14300
2020-02-14 07:00 15.19 33400 14300 (2019) 1380 (2018) 8180 1380 2520 8520 13500 14300
2020-02-14 06:00 15.21 33500 14300 (2019) 1380 (2018) 8180 1380 2520 8520 13500 14300
2020-02-14 05:00 15.19 33400 14300 (2019) 1380 (2018) 8180 1380 2520 8520 13500 14300
2020-02-14 04:00 15.19 33400 14300 (2019) 1380 (2018) 8180 1380 2520 8520 13500 14300
2020-02-14 03:00 15.17 33400 14300 (2019) 1380 (2018) 8180 1380 2520 8520 13500 14300
2020-02-14 02:00 14.96 32700 14300 (2019) 1380 (2018) 8180 1380 2520 8520 13500 14300
2020-02-14 01:00 15.17 33400 14300 (2019) 1380 (2018) 8180 1380 2520 8520 13500 14300
2020-02-14 00:00 15.18 33400 14300 (2019) 1380 (2018) 8180 1380 2520 8520 13500 14300
2020-02-13 23:00 15.18 33400 19600 (2019) 2670 (2018) 10900 2670 2990 10700 19100 19600
2020-02-13 22:00 15.18 33400 19600 (2019) 2670 (2018) 10900 2670 2990 10700 19100 19600
2020-02-13 21:00 15.15 33300 19600 (2019) 2670 (2018) 10900 2670 2990 10700 19100 19600
2020-02-13 20:00 15.16 33300 19600 (2019) 2670 (2018) 10900 2670 2990 10700 19100 19600
2020-02-13 19:00 15.16 33300 19600 (2019) 2670 (2018) 10900 2670 2990 10700 19100 19600
2020-02-13 18:00 15.11 33200 19600 (2019) 2670 (2018) 10900 2670 2990 10700 19100 19600
2020-02-13 17:00 15.10 33100 19600 (2019) 2670 (2018) 10900 2670 2990 10700 19100 19600
2020-02-13 16:00 15.07 33000 19600 (2019) 2670 (2018) 10900 2670 2990 10700 19100 19600
2020-02-13 15:00 15.05 33000 19600 (2019) 2670 (2018) 10900 2670 2990 10700 19100 19600
2020-02-13 14:00 15.02 32900 19600 (2019) 2670 (2018) 10900 2670 2990 10700 19100 19600
2020-02-13 13:00 14.96 32700 19600 (2019) 2670 (2018) 10900 2670 2990 10700 19100 19600
2020-02-13 12:00 14.93 32600 19600 (2019) 2670 (2018) 10900 2670 2990 10700 19100 19600
2020-02-13 11:00 14.85 32400 19600 (2019) 2670 (2018) 10900 2670 2990 10700 19100 19600
2020-02-13 10:00 14.77 32100 19600 (2019) 2670 (2018) 10900 2670 2990 10700 19100 19600
2020-02-13 09:00 14.64 31700 19600 (2019) 2670 (2018) 10900 2670 2990 10700 19100 19600
2020-02-13 08:00 14.55 31400 19600 (2019) 2670 (2018) 10900 2670 2990 10700 19100 19600
2020-02-13 07:00 14.38 30900 19600 (2019) 2670 (2018) 10900 2670 2990 10700 19100 19600
2020-02-13 06:00 14.27 30600 19600 (2019) 2670 (2018) 10900 2670 2990 10700 19100 19600
2020-02-13 05:00 14.09 30100 19600 (2019) 2670 (2018) 10900 2670 2990 10700 19100 19600
2020-02-13 04:00 13.85 29300 19600 (2019) 2670 (2018) 10900 2670 2990 10700 19100 19600
2020-02-13 03:00 13.57 28500 19600 (2019) 2670 (2018) 10900 2670 2990 10700 19100 19600
2020-02-13 02:00 13.23 27500 19600 (2019) 2670 (2018) 10900 2670 2990 10700 19100 19600
2020-02-13 01:00 12.88 26500 19600 (2019) 2670 (2018) 10900 2670 2990 10700 19100 19600
2020-02-13 00:00 12.64 25800 19600 (2019) 2670 (2018) 10900 2670 2990 10700 19100 19600
2020-02-12 23:00 12.77 26200 28400 (2019) 1070 (2017) 13800 1070 1500 12900 27100 28400
2020-02-12 22:00 12.97 26700 28400 (2019) 1070 (2017) 13800 1070 1500 12900 27100 28400
2020-02-12 21:00 13.18 27400 28400 (2019) 1070 (2017) 13800 1070 1500 12900 27100 28400
2020-02-12 20:00 13.17 27300 28400 (2019) 1070 (2017) 13800 1070 1500 12900 27100 28400
2020-02-12 19:00 12.90 26500 28400 (2019) 1070 (2017) 13800 1070 1500 12900 27100 28400
2020-02-12 18:00 12.68 25900 28400 (2019) 1070 (2017) 13800 1070 1500 12900 27100 28400
2020-02-12 17:00 12.84 26400 28400 (2019) 1070 (2017) 13800 1070 1500 12900 27100 28400
2020-02-12 16:00 12.84 26400 28400 (2019) 1070 (2017) 13800 1070 1500 12900 27100 28400
2020-02-12 15:00 12.87 26500 28400 (2019) 1070 (2017) 13800 1070 1500 12900 27100 28400
2020-02-12 14:00 12.86 26400 28400 (2019) 1070 (2017) 13800 1070 1500 12900 27100 28400
2020-02-12 13:00 12.71 26000 28400 (2019) 1070 (2017) 13800 1070 1500 12900 27100 28400
2020-02-12 12:00 12.55 25500 28400 (2019) 1070 (2017) 13800 1070 1500 12900 27100 28400
2020-02-12 11:00 12.40 25100 28400 (2019) 1070 (2017) 13800 1070 1500 12900 27100 28400
2020-02-12 10:00 12.23 24600 28400 (2019) 1070 (2017) 13800 1070 1500 12900 27100 28400
2020-02-12 09:00 12.23 24600 28400 (2019) 1070 (2017) 13800 1070 1500 12900 27100 28400
2020-02-12 08:00 12.21 24600 28400 (2019) 1070 (2017) 13800 1070 1500 12900 27100 28400
2020-02-12 07:00 12.20 24500 28400 (2019) 1070 (2017) 13800 1070 1500 12900 27100 28400
2020-02-12 06:00 12.17 24500 28400 (2019) 1070 (2017) 13800 1070 1500 12900 27100 28400
2020-02-12 05:00 12.23 24600 28400 (2019) 1070 (2017) 13800 1070 1500 12900 27100 28400
2020-02-12 04:00 12.21 24600 28400 (2019) 1070 (2017) 13800 1070 1500 12900 27100 28400
2020-02-12 03:00 12.21 24600 28400 (2019) 1070 (2017) 13800 1070 1500 12900 27100 28400
2020-02-12 02:00 12.27 24700 28400 (2019) 1070 (2017) 13800 1070 1500 12900 27100 28400
2020-02-12 01:00 12.36 25000 28400 (2019) 1070 (2017) 13800 1070 1500 12900 27100 28400
2020-02-12 00:00 12.41 25100 28400 (2019) 1070 (2017) 13800 1070 1500 12900 27100 28400
2020-02-11 23:00 12.60 25700 22500 (2016) 1650 (2018) 10600 1650 1730 9030 20900 22500
2020-02-11 22:00 12.80 26300 22500 (2016) 1650 (2018) 10600 1650 1730 9030 20900 22500
2020-02-11 21:00 12.83 26300 22500 (2016) 1650 (2018) 10600 1650 1730 9030 20900 22500
2020-02-11 20:00 12.89 26500 22500 (2016) 1650 (2018) 10600 1650 1730 9030 20900 22500
2020-02-11 19:00 13.04 27000 22500 (2016) 1650 (2018) 10600 1650 1730 9030 20900 22500
2020-02-11 18:00 12.94 26700 22500 (2016) 1650 (2018) 10600 1650 1730 9030 20900 22500
2020-02-11 17:00 12.86 26400 22500 (2016) 1650 (2018) 10600 1650 1730 9030 20900 22500
2020-02-11 16:00 12.93 26600 22500 (2016) 1650 (2018) 10600 1650 1730 9030 20900 22500
2020-02-11 15:00 13.24 27500 22500 (2016) 1650 (2018) 10600 1650 1730 9030 20900 22500
2020-02-11 14:00 13.47 28200 22500 (2016) 1650 (2018) 10600 1650 1730 9030 20900 22500
2020-02-11 13:00 13.71 28900 22500 (2016) 1650 (2018) 10600 1650 1730 9030 20900 22500
2020-02-11 12:00 13.76 29100 22500 (2016) 1650 (2018) 10600 1650 1730 9030 20900 22500
2020-02-11 11:00 13.84 29300 22500 (2016) 1650 (2018) 10600 1650 1730 9030 20900 22500
2020-02-11 10:00 13.78 29100 22500 (2016) 1650 (2018) 10600 1650 1730 9030 20900 22500
2020-02-11 09:00 13.67 28800 22500 (2016) 1650 (2018) 10600 1650 1730 9030 20900 22500
2020-02-11 08:00 13.68 28800 22500 (2016) 1650 (2018) 10600 1650 1730 9030 20900 22500
2020-02-11 07:00 13.69 28900 22500 (2016) 1650 (2018) 10600 1650 1730 9030 20900 22500
2020-02-11 06:00 13.75 29000 22500 (2016) 1650 (2018) 10600 1650 1730 9030 20900 22500
2020-02-11 05:00 13.80 29200 22500 (2016) 1650 (2018) 10600 1650 1730 9030 20900 22500
2020-02-11 04:00 13.84 29300 22500 (2016) 1650 (2018) 10600 1650 1730 9030 20900 22500
2020-02-11 03:00 13.90 29500 22500 (2016) 1650 (2018) 10600 1650 1730 9030 20900 22500
2020-02-11 02:00 13.97 29700 22500 (2016) 1650 (2018) 10600 1650 1730 9030 20900 22500
2020-02-11 01:00 14.04 29900 22500 (2016) 1650 (2018) 10600 1650 1730 9030 20900 22500
2020-02-11 00:00 14.14 30200 22500 (2016) 1650 (2018) 10600 1650 1730 9030 20900 22500
2020-02-10 23:00 14.18 30300 30500 (2016) 2300 (2018) 12400 2300 3430 8400 25400 30500
2020-02-10 22:00 14.23 30500 30500 (2016) 2300 (2018) 12400 2300 3430 8400 25400 30500
2020-02-10 21:00 14.22 30400 30500 (2016) 2300 (2018) 12400 2300 3430 8400 25400 30500
2020-02-10 20:00 14.21 30400 30500 (2016) 2300 (2018) 12400 2300 3430 8400 25400 30500
2020-02-10 19:00 14.28 30600 30500 (2016) 2300 (2018) 12400 2300 3430 8400 25400 30500
2020-02-10 18:00 14.34 30800 30500 (2016) 2300 (2018) 12400 2300 3430 8400 25400 30500
2020-02-10 17:00 14.29 30700 30500 (2016) 2300 (2018) 12400 2300 3430 8400 25400 30500
2020-02-10 16:00 14.25 30500 30500 (2016) 2300 (2018) 12400 2300 3430 8400 25400 30500
2020-02-10 15:00 14.15 30200 30500 (2016) 2300 (2018) 12400 2300 3430 8400 25400 30500
2020-02-10 14:00 14.13 30200 30500 (2016) 2300 (2018) 12400 2300 3430 8400 25400 30500
2020-02-10 13:00 14.16 30300 30500 (2016) 2300 (2018) 12400 2300 3430 8400 25400 30500
2020-02-10 12:00 14.10 30100 30500 (2016) 2300 (2018) 12400 2300 3430 8400 25400 30500
2020-02-10 11:00 14.12 30100 30500 (2016) 2300 (2018) 12400 2300 3430 8400 25400 30500
2020-02-10 10:00 14.19 30400 30500 (2016) 2300 (2018) 12400 2300 3430 8400 25400 30500
2020-02-10 09:00 14.32 30700 30500 (2016) 2300 (2018) 12400 2300 3430 8400 25400 30500
2020-02-10 08:00 14.50 31300 30500 (2016) 2300 (2018) 12400 2300 3430 8400 25400 30500
2020-02-10 07:00 14.58 31500 30500 (2016) 2300 (2018) 12400 2300 3430 8400 25400 30500
2020-02-10 06:00 14.72 32000 30500 (2016) 2300 (2018) 12400 2300 3430 8400 25400 30500
2020-02-10 05:00 14.98 32800 30500 (2016) 2300 (2018) 12400 2300 3430 8400 25400 30500
2020-02-10 04:00 15.28 33700 30500 (2016) 2300 (2018) 12400 2300 3430 8400 25400 30500
2020-02-10 03:00 15.56 34600 30500 (2016) 2300 (2018) 12400 2300 3430 8400 25400 30500
2020-02-10 02:00 15.92 35700 30500 (2016) 2300 (2018) 12400 2300 3430 8400 25400 30500
2020-02-10 01:00 16.20 36600 30500 (2016) 2300 (2018) 12400 2300 3430 8400 25400 30500
2020-02-10 00:00 16.49 37500 30500 (2016) 2300 (2018) 12400 2300 3430 8400 25400 30500
2020-02-09 23:00 16.57 37800 32000 (2016) 1560 (2018) 15600 1560 4770 14400 27600 32000
2020-02-09 22:00 16.55 37700 32000 (2016) 1560 (2018) 15600 1560 4770 14400 27600 32000
2020-02-09 21:00 16.53 37600 32000 (2016) 1560 (2018) 15600 1560 4770 14400 27600 32000
2020-02-09 20:00 16.56 37700 32000 (2016) 1560 (2018) 15600 1560 4770 14400 27600 32000
2020-02-09 19:00 16.51 37600 32000 (2016) 1560 (2018) 15600 1560 4770 14400 27600 32000
2020-02-09 18:00 16.52 37600 32000 (2016) 1560 (2018) 15600 1560 4770 14400 27600 32000
2020-02-09 17:00 16.54 37700 32000 (2016) 1560 (2018) 15600 1560 4770 14400 27600 32000
2020-02-09 16:00 16.51 37600 32000 (2016) 1560 (2018) 15600 1560 4770 14400 27600 32000
2020-02-09 15:00 16.51 37600 32000 (2016) 1560 (2018) 15600 1560 4770 14400 27600 32000
2020-02-09 14:00 16.50 37600 32000 (2016) 1560 (2018) 15600 1560 4770 14400 27600 32000
2020-02-09 13:00 16.53 37600 32000 (2016) 1560 (2018) 15600 1560 4770 14400 27600 32000
2020-02-09 12:00 16.51 37600 32000 (2016) 1560 (2018) 15600 1560 4770 14400 27600 32000
2020-02-09 11:00 16.47 37500 32000 (2016) 1560 (2018) 15600 1560 4770 14400 27600 32000
2020-02-09 10:00 16.50 37600 32000 (2016) 1560 (2018) 15600 1560 4770 14400 27600 32000
2020-02-09 09:00 16.52 37600 32000 (2016) 1560 (2018) 15600 1560 4770 14400 27600 32000
2020-02-09 08:00 16.50 37600 32000 (2016) 1560 (2018) 15600 1560 4770 14400 27600 32000
2020-02-09 07:00 16.49 37500 32000 (2016) 1560 (2018) 15600 1560 4770 14400 27600 32000
2020-02-09 06:00 16.52 37600 32000 (2016) 1560 (2018) 15600 1560 4770 14400 27600 32000
2020-02-09 05:00 16.52 37600 32000 (2016) 1560 (2018) 15600 1560 4770 14400 27600 32000
2020-02-09 04:00 16.50 37600 32000 (2016) 1560 (2018) 15600 1560 4770 14400 27600 32000
2020-02-09 03:00 16.49 37500 32000 (2016) 1560 (2018) 15600 1560 4770 14400 27600 32000
2020-02-09 02:00 16.51 37600 32000 (2016) 1560 (2018) 15600 1560 4770 14400 27600 32000
2020-02-09 01:00 16.52 37600 32000 (2016) 1560 (2018) 15600 1560 4770 14400 27600 32000
2020-02-09 00:00 16.51 37600 32000 (2016) 1560 (2018) 15600 1560 4770 14400 27600 32000
2020-02-08 23:00 16.50 37600 26600 (2016) 1390 (2018) 15300 1390 3180 16600 26100 26600
2020-02-08 22:00 16.53 37600 26600 (2016) 1390 (2018) 15300 1390 3180 16600 26100 26600
2020-02-08 21:00 16.55 37700 26600 (2016) 1390 (2018) 15300 1390 3180 16600 26100 26600
2020-02-08 20:00 16.56 37700 26600 (2016) 1390 (2018) 15300 1390 3180 16600 26100 26600
2020-02-08 19:00 16.58 37800 26600 (2016) 1390 (2018) 15300 1390 3180 16600 26100 26600
2020-02-08 18:00 16.59 37800 26600 (2016) 1390 (2018) 15300 1390 3180 16600 26100 26600
2020-02-08 17:00 16.60 37900 26600 (2016) 1390 (2018) 15300 1390 3180 16600 26100 26600
2020-02-08 16:00 16.58 37800 26600 (2016) 1390 (2018) 15300 1390 3180 16600 26100 26600
2020-02-08 15:00 16.58 37800 26600 (2016) 1390 (2018) 15300 1390 3180 16600 26100 26600
2020-02-08 14:00 16.55 37700 26600 (2016) 1390 (2018) 15300 1390 3180 16600 26100 26600
2020-02-08 13:00 16.53 37600 26600 (2016) 1390 (2018) 15300 1390 3180 16600 26100 26600
2020-02-08 12:00 16.51 37600 26600 (2016) 1390 (2018) 15300 1390 3180 16600 26100 26600
2020-02-08 11:00 16.46 37400 26600 (2016) 1390 (2018) 15300 1390 3180 16600 26100 26600
2020-02-08 10:00 16.48 37500 26600 (2016) 1390 (2018) 15300 1390 3180 16600 26100 26600
2020-02-08 09:00 16.45 37400 26600 (2016) 1390 (2018) 15300 1390 3180 16600 26100 26600
2020-02-08 08:00 16.42 37300 26600 (2016) 1390 (2018) 15300 1390 3180 16600 26100 26600
2020-02-08 07:00 16.40 37200 26600 (2016) 1390 (2018) 15300 1390 3180 16600 26100 26600
2020-02-08 06:00 16.37 37100 26600 (2016) 1390 (2018) 15300 1390 3180 16600 26100 26600
2020-02-08 05:00 16.37 37100 26600 (2016) 1390 (2018) 15300 1390 3180 16600 26100 26600
2020-02-08 04:00 16.36 37100 26600 (2016) 1390 (2018) 15300 1390 3180 16600 26100 26600
2020-02-08 03:00 16.34 37000 26600 (2016) 1390 (2018) 15300 1390 3180 16600 26100 26600
2020-02-08 02:00 16.35 37100 26600 (2016) 1390 (2018) 15300 1390 3180 16600 26100 26600
2020-02-08 01:00 16.31 36900 26600 (2016) 1390 (2018) 15300 1390 3180 16600 26100 26600
2020-02-08 00:00 16.27 36800 26600 (2016) 1390 (2018) 15300 1390 3180 16600 26100 26600
2020-02-07 23:00 16.27 36800 17700 (2019) 1170 (2017) 9650 1170 1750 9860 17300 17700
2020-02-07 22:00 16.26 36800 17700 (2019) 1170 (2017) 9650 1170 1750 9860 17300 17700
2020-02-07 21:00 16.23 36700 17700 (2019) 1170 (2017) 9650 1170 1750 9860 17300 17700
2020-02-07 20:00 16.20 36600 17700 (2019) 1170 (2017) 9650 1170 1750 9860 17300 17700
2020-02-07 19:00 16.20 36600 17700 (2019) 1170 (2017) 9650 1170 1750 9860 17300 17700
2020-02-07 18:00 16.20 36600 17700 (2019) 1170 (2017) 9650 1170 1750 9860 17300 17700
2020-02-07 17:00 16.18 36500 17700 (2019) 1170 (2017) 9650 1170 1750 9860 17300 17700
2020-02-07 16:00 16.18 36500 17700 (2019) 1170 (2017) 9650 1170 1750 9860 17300 17700
2020-02-07 15:00 16.18 36500 17700 (2019) 1170 (2017) 9650 1170 1750 9860 17300 17700
2020-02-07 14:00 16.19 36600 17700 (2019) 1170 (2017) 9650 1170 1750 9860 17300 17700
2020-02-07 13:00 16.17 36500 17700 (2019) 1170 (2017) 9650 1170 1750 9860 17300 17700
2020-02-07 12:00 16.19 36600 17700 (2019) 1170 (2017) 9650 1170 1750 9860 17300 17700
2020-02-07 11:00 16.18 36500 17700 (2019) 1170 (2017) 9650 1170 1750 9860 17300 17700
2020-02-07 10:00 16.13 36400 17700 (2019) 1170 (2017) 9650 1170 1750 9860 17300 17700
2020-02-07 09:00 16.16 36500 17700 (2019) 1170 (2017) 9650 1170 1750 9860 17300 17700
2020-02-07 08:00 16.16 36500 17700 (2019) 1170 (2017) 9650 1170 1750 9860 17300 17700
2020-02-07 07:00 16.18 36500 17700 (2019) 1170 (2017) 9650 1170 1750 9860 17300 17700
2020-02-07 06:00 16.19 36600 17700 (2019) 1170 (2017) 9650 1170 1750 9860 17300 17700
2020-02-07 05:00 16.17 36500 17700 (2019) 1170 (2017) 9650 1170 1750 9860 17300 17700
2020-02-07 04:00 16.17 36500 17700 (2019) 1170 (2017) 9650 1170 1750 9860 17300 17700
2020-02-07 03:00 16.15 36400 17700 (2019) 1170 (2017) 9650 1170 1750 9860 17300 17700
2020-02-07 02:00 16.14 36400 17700 (2019) 1170 (2017) 9650 1170 1750 9860 17300 17700
2020-02-07 01:00 16.11 36300 17700 (2019) 1170 (2017) 9650 1170 1750 9860 17300 17700
2020-02-07 00:00 16.14 36400 17700 (2019) 1170 (2017) 9650 1170 1750 9860 17300 17700
2020-02-06 23:00 16.12 36300 15400 (2016) 5280 (2017) 8840 5280 5760 7350 13400 15400
2020-02-06 22:00 16.14 36400 15400 (2016) 5280 (2017) 8840 5280 5760 7350 13400 15400
2020-02-06 21:00 16.15 36400 15400 (2016) 5280 (2017) 8840 5280 5760 7350 13400 15400
2020-02-06 20:00 16.17 36500 15400 (2016) 5280 (2017) 8840 5280 5760 7350 13400 15400
2020-02-06 19:00 16.17 36500 15400 (2016) 5280 (2017) 8840 5280 5760 7350 13400 15400
2020-02-06 18:00 16.13 36400 15400 (2016) 5280 (2017) 8840 5280 5760 7350 13400 15400
2020-02-06 17:00 16.14 36400 15400 (2016) 5280 (2017) 8840 5280 5760 7350 13400 15400
2020-02-06 16:00 16.14 36400 15400 (2016) 5280 (2017) 8840 5280 5760 7350 13400 15400
2020-02-06 15:00 16.16 36500 15400 (2016) 5280 (2017) 8840 5280 5760 7350 13400 15400
2020-02-06 14:00 16.15 36400 15400 (2016) 5280 (2017) 8840 5280 5760 7350 13400 15400
2020-02-06 13:00 16.16 36500 15400 (2016) 5280 (2017) 8840 5280 5760 7350 13400 15400
2020-02-06 12:00 16.16 36500 15400 (2016) 5280 (2017) 8840 5280 5760 7350 13400 15400
2020-02-06 11:00 16.13 36400 15400 (2016) 5280 (2017) 8840 5280 5760 7350 13400 15400
2020-02-06 10:00 16.14 36400 15400 (2016) 5280 (2017) 8840 5280 5760 7350 13400 15400
2020-02-06 09:00 16.10 36300 15400 (2016) 5280 (2017) 8840 5280 5760 7350 13400 15400
2020-02-06 08:00 16.13 36400 15400 (2016) 5280 (2017) 8840 5280 5760 7350 13400 15400
2020-02-06 07:00 16.10 36300 15400 (2016) 5280 (2017) 8840 5280 5760 7350 13400 15400
2020-02-06 06:00 16.11 36300 15400 (2016) 5280 (2017) 8840 5280 5760 7350 13400 15400
2020-02-06 05:00 16.12 36300 15400 (2016) 5280 (2017) 8840 5280 5760 7350 13400 15400
2020-02-06 04:00 16.09 36200 15400 (2016) 5280 (2017) 8840 5280 5760 7350 13400 15400
2020-02-06 03:00 16.07 36200 15400 (2016) 5280 (2017) 8840 5280 5760 7350 13400 15400
2020-02-06 02:00 16.08 36200 15400 (2016) 5280 (2017) 8840 5280 5760 7350 13400 15400
2020-02-06 01:00 16.02 36000 15400 (2016) 5280 (2017) 8840 5280 5760 7350 13400 15400
2020-02-06 00:00 16.01 36000 15400 (2016) 5280 (2017) 8840 5280 5760 7350 13400 15400
2020-02-05 23:00 15.98 35900 24300 (2016) 2490 (2019) 12500 2490 3690 11600 22200 24300
2020-02-05 22:00 15.94 35800 24300 (2016) 2490 (2019) 12500 2490 3690 11600 22200 24300
2020-02-05 21:00 15.87 35500 24300 (2016) 2490 (2019) 12500 2490 3690 11600 22200 24300
2020-02-05 20:00 15.82 35400 24300 (2016) 2490 (2019) 12500 2490 3690 11600 22200 24300
2020-02-05 19:00 15.74 35100 24300 (2016) 2490 (2019) 12500 2490 3690 11600 22200 24300
2020-02-05 18:00 15.67 34900 24300 (2016) 2490 (2019) 12500 2490 3690 11600 22200 24300
2020-02-05 17:00 15.58 34600 24300 (2016) 2490 (2019) 12500 2490 3690 11600 22200 24300
2020-02-05 16:00 15.48 34300 24300 (2016) 2490 (2019) 12500 2490 3690 11600 22200 24300
2020-02-05 15:00 15.37 34000 24300 (2016) 2490 (2019) 12500 2490 3690 11600 22200 24300
2020-02-05 14:00 15.18 33400 24300 (2016) 2490 (2019) 12500 2490 3690 11600 22200 24300
2020-02-05 13:00 15.03 32900 24300 (2016) 2490 (2019) 12500 2490 3690 11600 22200 24300
2020-02-05 12:00 14.92 32600 24300 (2016) 2490 (2019) 12500 2490 3690 11600 22200 24300
2020-02-05 11:00 14.73 32000 24300 (2016) 2490 (2019) 12500 2490 3690 11600 22200 24300
2020-02-05 10:00 14.42 31100 24300 (2016) 2490 (2019) 12500 2490 3690 11600 22200 24300
2020-02-05 09:00 14.10 30100 24300 (2016) 2490 (2019) 12500 2490 3690 11600 22200 24300
2020-02-05 08:00 13.79 29200 24300 (2016) 2490 (2019) 12500 2490 3690 11600 22200 24300
2020-02-05 07:00 13.68 28800 24300 (2016) 2490 (2019) 12500 2490 3690 11600 22200 24300
2020-02-05 06:00 14.08 30000 24300 (2016) 2490 (2019) 12500 2490 3690 11600 22200 24300
2020-02-05 05:00 14.53 31400 24300 (2016) 2490 (2019) 12500 2490 3690 11600 22200 24300
2020-02-05 04:00 14.88 32500 24300 (2016) 2490 (2019) 12500 2490 3690 11600 22200 24300
2020-02-05 03:00 15.18 33400 24300 (2016) 2490 (2019) 12500 2490 3690 11600 22200 24300
2020-02-05 02:00 15.37 34000 24300 (2016) 2490 (2019) 12500 2490 3690 11600 22200 24300
2020-02-05 01:00 15.36 33900 24300 (2016) 2490 (2019) 12500 2490 3690 11600 22200 24300
2020-02-05 00:00 15.48 34300 24300 (2016) 2490 (2019) 12500 2490 3690 11600 22200 24300
2020-02-04 23:00 15.44 34200 25200 (2016) 1370 (2018) 10900 1370 1690 8570 22500 25200
2020-02-04 22:00 15.28 33700 25200 (2016) 1370 (2018) 10900 1370 1690 8570 22500 25200
2020-02-04 21:00 15.16 33300 25200 (2016) 1370 (2018) 10900 1370 1690 8570 22500 25200
2020-02-04 20:00 14.93 32600 25200 (2016) 1370 (2018) 10900 1370 1690 8570 22500 25200
2020-02-04 19:00 14.72 32000 25200 (2016) 1370 (2018) 10900 1370 1690 8570 22500 25200
2020-02-04 18:00 14.45 31100 25200 (2016) 1370 (2018) 10900 1370 1690 8570 22500 25200
2020-02-04 17:00 14.11 30100 25200 (2016) 1370 (2018) 10900 1370 1690 8570 22500 25200
2020-02-04 16:00 13.64 28700 25200 (2016) 1370 (2018) 10900 1370 1690 8570 22500 25200
2020-02-04 15:00 13.09 27100 25200 (2016) 1370 (2018) 10900 1370 1690 8570 22500 25200
2020-02-04 14:00 12.41 25100 25200 (2016) 1370 (2018) 10900 1370 1690 8570 22500 25200
2020-02-04 13:00 11.72 23200 25200 (2016) 1370 (2018) 10900 1370 1690 8570 22500 25200
2020-02-04 12:00 11.24 21900 25200 (2016) 1370 (2018) 10900 1370 1690 8570 22500 25200
2020-02-04 11:00 11.11 21500 25200 (2016) 1370 (2018) 10900 1370 1690 8570 22500 25200
2020-02-04 10:00 11.10 21500 25200 (2016) 1370 (2018) 10900 1370 1690 8570 22500 25200
2020-02-04 09:00 11.28 22000 25200 (2016) 1370 (2018) 10900 1370 1690 8570 22500 25200
2020-02-04 08:00 11.55 22700 25200 (2016) 1370 (2018) 10900 1370 1690 8570 22500 25200
2020-02-04 07:00 11.87 23600 25200 (2016) 1370 (2018) 10900 1370 1690 8570 22500 25200
2020-02-04 06:00 12.35 25000 25200 (2016) 1370 (2018) 10900 1370 1690 8570 22500 25200
2020-02-04 05:00 12.78 26200 25200 (2016) 1370 (2018) 10900 1370 1690 8570 22500 25200
2020-02-04 04:00 13.07 27000 25200 (2016) 1370 (2018) 10900 1370 1690 8570 22500 25200
2020-02-04 03:00 13.33 27800 25200 (2016) 1370 (2018) 10900 1370 1690 8570 22500 25200
2020-02-04 02:00 13.64 28700 25200 (2016) 1370 (2018) 10900 1370 1690 8570 22500 25200
2020-02-04 01:00 13.87 29400 25200 (2016) 1370 (2018) 10900 1370 1690 8570 22500 25200
2020-02-04 00:00 13.97 29700 25200 (2016) 1370 (2018) 10900 1370 1690 8570 22500 25200
2020-02-03 23:00 13.77 29100 28200 (2016) 1610 (2018) 12000 1610 1880 9030 25000 28200
2020-02-03 22:00 13.55 28400 28200 (2016) 1610 (2018) 12000 1610 1880 9030 25000 28200
2020-02-03 21:00 13.24 27500 28200 (2016) 1610 (2018) 12000 1610 1880 9030 25000 28200
2020-02-03 20:00 13.00 26800 28200 (2016) 1610 (2018) 12000 1610 1880 9030 25000 28200
2020-02-03 19:00 12.92 26600 28200 (2016) 1610 (2018) 12000 1610 1880 9030 25000 28200
2020-02-03 18:00 13.28 27700 28200 (2016) 1610 (2018) 12000 1610 1880 9030 25000 28200
2020-02-03 17:00 13.53 28400 28200 (2016) 1610 (2018) 12000 1610 1880 9030 25000 28200
2020-02-03 16:00 13.77 29100 28200 (2016) 1610 (2018) 12000 1610 1880 9030 25000 28200
2020-02-03 15:00 13.63 28700 28200 (2016) 1610 (2018) 12000 1610 1880 9030 25000 28200
2020-02-03 14:00 13.43 28100 28200 (2016) 1610 (2018) 12000 1610 1880 9030 25000 28200
2020-02-03 13:00 13.42 28100 28200 (2016) 1610 (2018) 12000 1610 1880 9030 25000 28200
2020-02-03 12:00 13.91 29500 28200 (2016) 1610 (2018) 12000 1610 1880 9030 25000 28200
2020-02-03 11:00 14.54 31400 28200 (2016) 1610 (2018) 12000 1610 1880 9030 25000 28200
2020-02-03 10:00 15.17 33400 28200 (2016) 1610 (2018) 12000 1610 1880 9030 25000 28200
2020-02-03 09:00 15.32 33800 28200 (2016) 1610 (2018) 12000 1610 1880 9030 25000 28200
2020-02-03 08:00 15.33 33800 28200 (2016) 1610 (2018) 12000 1610 1880 9030 25000 28200
2020-02-03 07:00 15.35 33900 28200 (2016) 1610 (2018) 12000 1610 1880 9030 25000 28200
2020-02-03 06:00 15.64 34800 28200 (2016) 1610 (2018) 12000 1610 1880 9030 25000 28200
2020-02-03 05:00 15.70 35000 28200 (2016) 1610 (2018) 12000 1610 1880 9030 25000 28200
2020-02-03 04:00 15.60 34700 28200 (2016) 1610 (2018) 12000 1610 1880 9030 25000 28200
2020-02-03 03:00 15.48 34300 28200 (2016) 1610 (2018) 12000 1610 1880 9030 25000 28200
2020-02-03 02:00 15.38 34000 28200 (2016) 1610 (2018) 12000 1610 1880 9030 25000 28200
2020-02-03 01:00 15.23 33500 28200 (2016) 1610 (2018) 12000 1610 1880 9030 25000 28200
2020-02-03 00:00 15.02 32900 28200 (2016) 1610 (2018) 12000 1610 1880 9030 25000 28200
2020-02-02 23:00 14.84 32300 29300 (2016) 3850 (2018) 11300 3850 3890 5990 24000 29300
2020-02-02 22:00 14.57 31500 29300 (2016) 3850 (2018) 11300 3850 3890 5990 24000 29300
2020-02-02 21:00 14.34 30800 29300 (2016) 3850 (2018) 11300 3850 3890 5990 24000 29300
2020-02-02 20:00 14.16 30300 29300 (2016) 3850 (2018) 11300 3850 3890 5990 24000 29300
2020-02-02 19:00 14.05 29900 29300 (2016) 3850 (2018) 11300 3850 3890 5990 24000 29300
2020-02-02 18:00 14.24 30500 29300 (2016) 3850 (2018) 11300 3850 3890 5990 24000 29300
2020-02-02 17:00 14.12 30100 29300 (2016) 3850 (2018) 11300 3850 3890 5990 24000 29300
2020-02-02 16:00 13.89 29500 29300 (2016) 3850 (2018) 11300 3850 3890 5990 24000 29300
2020-02-02 15:00 13.67 28800 29300 (2016) 3850 (2018) 11300 3850 3890 5990 24000 29300
2020-02-02 14:00 13.79 29200 29300 (2016) 3850 (2018) 11300 3850 3890 5990 24000 29300
2020-02-02 13:00 13.94 29600 29300 (2016) 3850 (2018) 11300 3850 3890 5990 24000 29300
2020-02-02 12:00 14.06 30000 29300 (2016) 3850 (2018) 11300 3850 3890 5990 24000 29300
2020-02-02 11:00 14.35 30800 29300 (2016) 3850 (2018) 11300 3850 3890 5990 24000 29300
2020-02-02 10:00 14.68 31800 29300 (2016) 3850 (2018) 11300 3850 3890 5990 24000 29300
2020-02-02 09:00 15.07 33000 29300 (2016) 3850 (2018) 11300 3850 3890 5990 24000 29300
2020-02-02 08:00 14.97 32700 29300 (2016) 3850 (2018) 11300 3850 3890 5990 24000 29300
2020-02-02 07:00 14.89 32500 29300 (2016) 3850 (2018) 11300 3850 3890 5990 24000 29300
2020-02-02 06:00 15.17 33400 29300 (2016) 3850 (2018) 11300 3850 3890 5990 24000 29300
2020-02-02 05:00 15.01 32900 29300 (2016) 3850 (2018) 11300 3850 3890 5990 24000 29300
2020-02-02 04:00 14.81 32200 29300 (2016) 3850 (2018) 11300 3850 3890 5990 24000 29300
2020-02-02 03:00 14.54 31400 29300 (2016) 3850 (2018) 11300 3850 3890 5990 24000 29300
2020-02-02 02:00 14.22 30400 29300 (2016) 3850 (2018) 11300 3850 3890 5990 24000 29300
2020-02-02 01:00 13.90 29500 29300 (2016) 3850 (2018) 11300 3850 3890 5990 24000 29300
2020-02-02 00:00 13.63 28700 29300 (2016) 3850 (2018) 11300 3850 3890 5990 24000 29300
2020-02-01 23:00 13.20 27400 23900 (2016) 1510 (2017) 11600 1510 1540 10500 22800 23900
2020-02-01 22:00 12.83 26300 23900 (2016) 1510 (2017) 11600 1510 1540 10500 22800 23900
2020-02-01 21:00 12.76 26100 23900 (2016) 1510 (2017) 11600 1510 1540 10500 22800 23900
2020-02-01 20:00 12.89 26500 23900 (2016) 1510 (2017) 11600 1510 1540 10500 22800 23900
2020-02-01 19:00 13.19 27400 23900 (2016) 1510 (2017) 11600 1510 1540 10500 22800 23900
2020-02-01 18:00 13.35 27900 23900 (2016) 1510 (2017) 11600 1510 1540 10500 22800 23900
2020-02-01 17:00 13.70 28900 23900 (2016) 1510 (2017) 11600 1510 1540 10500 22800 23900
2020-02-01 16:00 14.14 30200 23900 (2016) 1510 (2017) 11600 1510 1540 10500 22800 23900
2020-02-01 15:00 14.42 31100 23900 (2016) 1510 (2017) 11600 1510 1540 10500 22800 23900
2020-02-01 14:00 14.62 31700 23900 (2016) 1510 (2017) 11600 1510 1540 10500 22800 23900
2020-02-01 13:00 14.93 32600 23900 (2016) 1510 (2017) 11600 1510 1540 10500 22800 23900
2020-02-01 12:00 15.24 33600 23900 (2016) 1510 (2017) 11600 1510 1540 10500 22800 23900
2020-02-01 11:00 15.21 33500 23900 (2016) 1510 (2017) 11600 1510 1540 10500 22800 23900
2020-02-01 10:00 15.05 33000 23900 (2016) 1510 (2017) 11600 1510 1540 10500 22800 23900
2020-02-01 09:00 15.02 32900 23900 (2016) 1510 (2017) 11600 1510 1540 10500 22800 23900
2020-02-01 08:00 15.33 33800 23900 (2016) 1510 (2017) 11600 1510 1540 10500 22800 23900
2020-02-01 07:00 15.35 33900 23900 (2016) 1510 (2017) 11600 1510 1540 10500 22800 23900
2020-02-01 06:00 15.36 33900 23900 (2016) 1510 (2017) 11600 1510 1540 10500 22800 23900
2020-02-01 05:00 15.20 33400 23900 (2016) 1510 (2017) 11600 1510 1540 10500 22800 23900
2020-02-01 04:00 15.06 33000 23900 (2016) 1510 (2017) 11600 1510 1540 10500 22800 23900
2020-02-01 03:00 14.82 32300 23900 (2016) 1510 (2017) 11600 1510 1540 10500 22800 23900
2020-02-01 02:00 14.57 31500 23900 (2016) 1510 (2017) 11600 1510 1540 10500 22800 23900
2020-02-01 01:00 14.30 30700 23900 (2016) 1510 (2017) 11600 1510 1540 10500 22800 23900
2020-02-01 00:00 14.06 30000 23900 (2016) 1510 (2017) 11600 1510 1540 10500 22800 23900
2020-01-31 23:00 14.08 30000 35400 (2019) 1520 (2017) 16600 1520 2650 14800 32500 35400
2020-01-31 22:00 14.20 30400 35400 (2019) 1520 (2017) 16600 1520 2650 14800 32500 35400
2020-01-31 21:00 14.23 30500 35400 (2019) 1520 (2017) 16600 1520 2650 14800 32500 35400
2020-01-31 20:00 14.25 30500 35400 (2019) 1520 (2017) 16600 1520 2650 14800 32500 35400
2020-01-31 19:00 14.21 30400 35400 (2019) 1520 (2017) 16600 1520 2650 14800 32500 35400
2020-01-31 18:00 13.93 29600 35400 (2019) 1520 (2017) 16600 1520 2650 14800 32500 35400
2020-01-31 17:00 13.70 28900 35400 (2019) 1520 (2017) 16600 1520 2650 14800 32500 35400
2020-01-31 16:00 13.80 29200 35400 (2019) 1520 (2017) 16600 1520 2650 14800 32500 35400
2020-01-31 15:00 13.96 29700 35400 (2019) 1520 (2017) 16600 1520 2650 14800 32500 35400
2020-01-31 14:00 14.17 30300 35400 (2019) 1520 (2017) 16600 1520 2650 14800 32500 35400
2020-01-31 13:00 14.50 31300 35400 (2019) 1520 (2017) 16600 1520 2650 14800 32500 35400
2020-01-31 12:00 14.69 31900 35400 (2019) 1520 (2017) 16600 1520 2650 14800 32500 35400
2020-01-31 11:00 14.79 32200 35400 (2019) 1520 (2017) 16600 1520 2650 14800 32500 35400
2020-01-31 10:00 14.55 31400 35400 (2019) 1520 (2017) 16600 1520 2650 14800 32500 35400
2020-01-31 09:00 14.24 30500 35400 (2019) 1520 (2017) 16600 1520 2650 14800 32500 35400
2020-01-31 08:00 13.92 29500 35400 (2019) 1520 (2017) 16600 1520 2650 14800 32500 35400
2020-01-31 07:00 13.79 29200 35400 (2019) 1520 (2017) 16600 1520 2650 14800 32500 35400
2020-01-31 06:00 14.05 29900 35400 (2019) 1520 (2017) 16600 1520 2650 14800 32500 35400
2020-01-31 05:00 14.42 31100 35400 (2019) 1520 (2017) 16600 1520 2650 14800 32500 35400
2020-01-31 04:00 14.18 30300 35400 (2019) 1520 (2017) 16600 1520 2650 14800 32500 35400
2020-01-31 03:00 13.75 29000 35400 (2019) 1520 (2017) 16600 1520 2650 14800 32500 35400
2020-01-31 02:00 13.22 27500 35400 (2019) 1520 (2017) 16600 1520 2650 14800 32500 35400
2020-01-31 01:00 12.74 26100 35400 (2019) 1520 (2017) 16600 1520 2650 14800 32500 35400
2020-01-31 00:00 12.48 25300 35400 (2019) 1520 (2017) 16600 1520 2650 14800 32500 35400
2020-01-30 23:00 12.79 26200 35700 (2019) 3630 (2017) 18600 3630 3740 17500 34500 35700
2020-01-30 22:00 12.97 26700 35700 (2019) 3630 (2017) 18600 3630 3740 17500 34500 35700
2020-01-30 21:00 13.20 27400 35700 (2019) 3630 (2017) 18600 3630 3740 17500 34500 35700
2020-01-30 20:00 13.44 28100 35700 (2019) 3630 (2017) 18600 3630 3740 17500 34500 35700
2020-01-30 19:00 13.67 28800 35700 (2019) 3630 (2017) 18600 3630 3740 17500 34500 35700
2020-01-30 18:00 13.55 28400 35700 (2019) 3630 (2017) 18600 3630 3740 17500 34500 35700
2020-01-30 17:00 13.92 29500 35700 (2019) 3630 (2017) 18600 3630 3740 17500 34500 35700
2020-01-30 16:00 14.04 29900 35700 (2019) 3630 (2017) 18600 3630 3740 17500 34500 35700
2020-01-30 15:00 14.30 30700 35700 (2019) 3630 (2017) 18600 3630 3740 17500 34500 35700
2020-01-30 14:00 14.60 31600 35700 (2019) 3630 (2017) 18600 3630 3740 17500 34500 35700
2020-01-30 13:00 14.99 32800 35700 (2019) 3630 (2017) 18600 3630 3740 17500 34500 35700
2020-01-30 12:00 14.84 32300 35700 (2019) 3630 (2017) 18600 3630 3740 17500 34500 35700
2020-01-30 11:00 14.60 31600 35700 (2019) 3630 (2017) 18600 3630 3740 17500 34500 35700
2020-01-30 10:00 14.30 30700 35700 (2019) 3630 (2017) 18600 3630 3740 17500 34500 35700
2020-01-30 09:00 13.90 29500 35700 (2019) 3630 (2017) 18600 3630 3740 17500 34500 35700
2020-01-30 08:00 13.56 28500 35700 (2019) 3630 (2017) 18600 3630 3740 17500 34500 35700
2020-01-30 07:00 13.37 27900 35700 (2019) 3630 (2017) 18600 3630 3740 17500 34500 35700
2020-01-30 06:00 13.82 29200 35700 (2019) 3630 (2017) 18600 3630 3740 17500 34500 35700
2020-01-30 05:00 14.37 30900 35700 (2019) 3630 (2017) 18600 3630 3740 17500 34500 35700
2020-01-30 04:00 14.79 32200 35700 (2019) 3630 (2017) 18600 3630 3740 17500 34500 35700
2020-01-30 03:00 14.56 31500 35700 (2019) 3630 (2017) 18600 3630 3740 17500 34500 35700
2020-01-30 02:00 14.22 30400 35700 (2019) 3630 (2017) 18600 3630 3740 17500 34500 35700
2020-01-30 01:00 13.92 29500 35700 (2019) 3630 (2017) 18600 3630 3740 17500 34500 35700
2020-01-30 00:00 13.75 29000 35700 (2019) 3630 (2017) 18600 3630 3740 17500 34500 35700
2020-01-29 23:00 14.05 29900 34300 (2016) 1380 (2018) 16300 1380 1800 14700 32300 34300
2020-01-29 22:00 14.38 30900 34300 (2016) 1380 (2018) 16300 1380 1800 14700 32300 34300
2020-01-29 21:00 14.69 31900 34300 (2016) 1380 (2018) 16300 1380 1800 14700 32300 34300
2020-01-29 20:00 14.99 32800 34300 (2016) 1380 (2018) 16300 1380 1800 14700 32300 34300
2020-01-29 19:00 15.28 33700 34300 (2016) 1380 (2018) 16300 1380 1800 14700 32300 34300
2020-01-29 18:00 15.21 33500 34300 (2016) 1380 (2018) 16300 1380 1800 14700 32300 34300
2020-01-29 17:00 15.17 33400 34300 (2016) 1380 (2018) 16300 1380 1800 14700 32300 34300
2020-01-29 16:00 15.44 34200 34300 (2016) 1380 (2018) 16300 1380 1800 14700 32300 34300
2020-01-29 15:00 15.63 34800 34300 (2016) 1380 (2018) 16300 1380 1800 14700 32300 34300
2020-01-29 14:00 15.60 34700 34300 (2016) 1380 (2018) 16300 1380 1800 14700 32300 34300
2020-01-29 13:00 15.52 34400 34300 (2016) 1380 (2018) 16300 1380 1800 14700 32300 34300
2020-01-29 12:00 15.34 33900 34300 (2016) 1380 (2018) 16300 1380 1800 14700 32300 34300
2020-01-29 11:00 15.21 33500 34300 (2016) 1380 (2018) 16300 1380 1800 14700 32300 34300
2020-01-29 10:00 14.99 32800 34300 (2016) 1380 (2018) 16300 1380 1800 14700 32300 34300
2020-01-29 09:00 14.78 32100 34300 (2016) 1380 (2018) 16300 1380 1800 14700 32300 34300
2020-01-29 08:00 14.54 31400 34300 (2016) 1380 (2018) 16300 1380 1800 14700 32300 34300
2020-01-29 07:00 14.58 31500 34300 (2016) 1380 (2018) 16300 1380 1800 14700 32300 34300
2020-01-29 06:00 15.06 33000 34300 (2016) 1380 (2018) 16300 1380 1800 14700 32300 34300
2020-01-29 05:00 15.83 35400 34300 (2016) 1380 (2018) 16300 1380 1800 14700 32300 34300
2020-01-29 04:00 16.44 37400 34300 (2016) 1380 (2018) 16300 1380 1800 14700 32300 34300
2020-01-29 03:00 16.55 37700 34300 (2016) 1380 (2018) 16300 1380 1800 14700 32300 34300
2020-01-29 02:00 16.56 37700 34300 (2016) 1380 (2018) 16300 1380 1800 14700 32300 34300
2020-01-29 01:00 16.55 37700 34300 (2016) 1380 (2018) 16300 1380 1800 14700 32300 34300
2020-01-29 00:00 16.49 37500 34300 (2016) 1380 (2018) 16300 1380 1800 14700 32300 34300
2020-01-28 23:00 16.53 37600 35900 (2016) 1390 (2018) 15200 1390 3820 11700 30000 35900
2020-01-28 22:00 16.48 37500 35900 (2016) 1390 (2018) 15200 1390 3820 11700 30000 35900
2020-01-28 21:00 16.49 37500 35900 (2016) 1390 (2018) 15200 1390 3820 11700 30000 35900
2020-01-28 20:00 16.45 37400 35900 (2016) 1390 (2018) 15200 1390 3820 11700 30000 35900
2020-01-28 19:00 16.48 37500 35900 (2016) 1390 (2018) 15200 1390 3820 11700 30000 35900
2020-01-28 18:00 16.47 37500 35900 (2016) 1390 (2018) 15200 1390 3820 11700 30000 35900
2020-01-28 17:00 16.47 37500 35900 (2016) 1390 (2018) 15200 1390 3820 11700 30000 35900
2020-01-28 16:00 16.48 37500 35900 (2016) 1390 (2018) 15200 1390 3820 11700 30000 35900
2020-01-28 15:00 16.46 37400 35900 (2016) 1390 (2018) 15200 1390 3820 11700 30000 35900
2020-01-28 14:00 16.47 37500 35900 (2016) 1390 (2018) 15200 1390 3820 11700 30000 35900
2020-01-28 13:00 16.45 37400 35900 (2016) 1390 (2018) 15200 1390 3820 11700 30000 35900
2020-01-28 12:00 16.48 37500 35900 (2016) 1390 (2018) 15200 1390 3820 11700 30000 35900
2020-01-28 11:00 16.48 37500 35900 (2016) 1390 (2018) 15200 1390 3820 11700 30000 35900
2020-01-28 10:00 16.49 37500 35900 (2016) 1390 (2018) 15200 1390 3820 11700 30000 35900
2020-01-28 09:00 16.49 37500 35900 (2016) 1390 (2018) 15200 1390 3820 11700 30000 35900
2020-01-28 08:00 16.51 37600 35900 (2016) 1390 (2018) 15200 1390 3820 11700 30000 35900
2020-01-28 07:00 16.54 37700 35900 (2016) 1390 (2018) 15200 1390 3820 11700 30000 35900
2020-01-28 06:00 16.53 37600 35900 (2016) 1390 (2018) 15200 1390 3820 11700 30000 35900
2020-01-28 05:00 16.54 37700 35900 (2016) 1390 (2018) 15200 1390 3820 11700 30000 35900
2020-01-28 04:00 16.48 37500 35900 (2016) 1390 (2018) 15200 1390 3820 11700 30000 35900
2020-01-28 03:00 16.54 37700 35900 (2016) 1390 (2018) 15200 1390 3820 11700 30000 35900
2020-01-28 02:00 16.52 37600 35900 (2016) 1390 (2018) 15200 1390 3820 11700 30000 35900
2020-01-28 01:00 16.50 37600 35900 (2016) 1390 (2018) 15200 1390 3820 11700 30000 35900
2020-01-28 00:00 16.48 37500 35900 (2016) 1390 (2018) 15200 1390 3820 11700 30000 35900
2020-01-27 23:00 16.47 37500 36400 (2016) 1390 (2018) 13900 1390 1720 8810 31000 36400
2020-01-27 22:00 16.49 37500 36400 (2016) 1390 (2018) 13900 1390 1720 8810 31000 36400
2020-01-27 21:00 16.49 37500 36400 (2016) 1390 (2018) 13900 1390 1720 8810 31000 36400
2020-01-27 20:00 16.50 37600 36400 (2016) 1390 (2018) 13900 1390 1720 8810 31000 36400
2020-01-27 19:00 16.46 37400 36400 (2016) 1390 (2018) 13900 1390 1720 8810 31000 36400
2020-01-27 18:00 16.45 37400 36400 (2016) 1390 (2018) 13900 1390 1720 8810 31000 36400
2020-01-27 17:00 16.46 37400 36400 (2016) 1390 (2018) 13900 1390 1720 8810 31000 36400
2020-01-27 16:00 16.45 37400 36400 (2016) 1390 (2018) 13900 1390 1720 8810 31000 36400
2020-01-27 15:00 16.47 37500 36400 (2016) 1390 (2018) 13900 1390 1720 8810 31000 36400
2020-01-27 14:00 16.47 37500 36400 (2016) 1390 (2018) 13900 1390 1720 8810 31000 36400
2020-01-27 13:00 16.42 37300 36400 (2016) 1390 (2018) 13900 1390 1720 8810 31000 36400
2020-01-27 12:00 16.45 37400 36400 (2016) 1390 (2018) 13900 1390 1720 8810 31000 36400
2020-01-27 11:00 16.46 37400 36400 (2016) 1390 (2018) 13900 1390 1720 8810 31000 36400
2020-01-27 10:00 16.44 37400 36400 (2016) 1390 (2018) 13900 1390 1720 8810 31000 36400
2020-01-27 09:00 16.44 37400 36400 (2016) 1390 (2018) 13900 1390 1720 8810 31000 36400
2020-01-27 08:00 16.42 37300 36400 (2016) 1390 (2018) 13900 1390 1720 8810 31000 36400
2020-01-27 07:00 16.38 37200 36400 (2016) 1390 (2018) 13900 1390 1720 8810 31000 36400
2020-01-27 06:00 16.40 37200 36400 (2016) 1390 (2018) 13900 1390 1720 8810 31000 36400
2020-01-27 05:00 16.39 37200 36400 (2016) 1390 (2018) 13900 1390 1720 8810 31000 36400
2020-01-27 04:00 16.36 37100 36400 (2016) 1390 (2018) 13900 1390 1720 8810 31000 36400
2020-01-27 03:00 16.35 37100 36400 (2016) 1390 (2018) 13900 1390 1720 8810 31000 36400
2020-01-27 02:00 16.33 37000 36400 (2016) 1390 (2018) 13900 1390 1720 8810 31000 36400
2020-01-27 01:00 16.29 36900 36400 (2016) 1390 (2018) 13900 1390 1720 8810 31000 36400
2020-01-27 00:00 16.24 36700 36400 (2016) 1390 (2018) 13900 1390 1720 8810 31000 36400
2020-01-26 23:00 16.26 36800 35100 (2016) 1570 (2018) 13900 1570 3510 9560 28800 35100
2020-01-26 22:00 16.27 36800 35100 (2016) 1570 (2018) 13900 1570 3510 9560 28800 35100
2020-01-26 21:00 16.30 36900 35100 (2016) 1570 (2018) 13900 1570 3510 9560 28800 35100
2020-01-26 19:00 16.34 37000 35100 (2016) 1570 (2018) 13900 1570 3510 9560 28800 35100
2020-01-26 18:00 16.43 37300 35100 (2016) 1570 (2018) 13900 1570 3510 9560 28800 35100
2020-01-26 17:00 16.42 37300 35100 (2016) 1570 (2018) 13900 1570 3510 9560 28800 35100
2020-01-26 16:00 16.39 37200 35100 (2016) 1570 (2018) 13900 1570 3510 9560 28800 35100
2020-01-26 15:00 16.38 37200 35100 (2016) 1570 (2018) 13900 1570 3510 9560 28800 35100
2020-01-26 14:00 16.35 37100 35100 (2016) 1570 (2018) 13900 1570 3510 9560 28800 35100
2020-01-26 13:00 16.35 37100 35100 (2016) 1570 (2018) 13900 1570 3510 9560 28800 35100
2020-01-26 12:00 16.28 36800 35100 (2016) 1570 (2018) 13900 1570 3510 9560 28800 35100
2020-01-26 11:00 16.25 36800 35100 (2016) 1570 (2018) 13900 1570 3510 9560 28800 35100
2020-01-26 10:00 16.28 36800 35100 (2016) 1570 (2018) 13900 1570 3510 9560 28800 35100
2020-01-26 09:00 16.32 37000 35100 (2016) 1570 (2018) 13900 1570 3510 9560 28800 35100
2020-01-26 08:00 16.35 37100 35100 (2016) 1570 (2018) 13900 1570 3510 9560 28800 35100
2020-01-26 07:00 16.33 37000 35100 (2016) 1570 (2018) 13900 1570 3510 9560 28800 35100
2020-01-26 06:00 16.29 36900 35100 (2016) 1570 (2018) 13900 1570 3510 9560 28800 35100
2020-01-26 05:00 16.22 36700 35100 (2016) 1570 (2018) 13900 1570 3510 9560 28800 35100
2020-01-26 04:00 16.24 36700 35100 (2016) 1570 (2018) 13900 1570 3510 9560 28800 35100
2020-01-26 03:00 16.18 36500 35100 (2016) 1570 (2018) 13900 1570 3510 9560 28800 35100
2020-01-26 02:00 16.13 36400 35100 (2016) 1570 (2018) 13900 1570 3510 9560 28800 35100
2020-01-26 01:00 16.06 36100 35100 (2016) 1570 (2018) 13900 1570 3510 9560 28800 35100
2020-01-26 00:00 16.03 36100 35100 (2016) 1570 (2018) 13900 1570 3510 9560 28800 35100
2020-01-25 23:00 16.01 36000 37300 (2016) 1120 (2017) 17000 1120 1630 14800 34600 37300
2020-01-25 22:00 16.04 36100 37300 (2016) 1120 (2017) 17000 1120 1630 14800 34600 37300
2020-01-25 21:00 16.09 36200 37300 (2016) 1120 (2017) 17000 1120 1630 14800 34600 37300
2020-01-25 20:00 16.10 36300 37300 (2016) 1120 (2017) 17000 1120 1630 14800 34600 37300
2020-01-25 19:00 16.17 36500 37300 (2016) 1120 (2017) 17000 1120 1630 14800 34600 37300
2020-01-25 18:00 16.20 36600 37300 (2016) 1120 (2017) 17000 1120 1630 14800 34600 37300
2020-01-25 17:00 16.26 36800 37300 (2016) 1120 (2017) 17000 1120 1630 14800 34600 37300
2020-01-25 16:00 16.26 36800 37300 (2016) 1120 (2017) 17000 1120 1630 14800 34600 37300
2020-01-25 15:00 16.26 36800 37300 (2016) 1120 (2017) 17000 1120 1630 14800 34600 37300
2020-01-25 14:00 16.23 36700 37300 (2016) 1120 (2017) 17000 1120 1630 14800 34600 37300
2020-01-25 13:00 16.17 36500 37300 (2016) 1120 (2017) 17000 1120 1630 14800 34600 37300
2020-01-25 12:00 16.14 36400 37300 (2016) 1120 (2017) 17000 1120 1630 14800 34600 37300
2020-01-25 11:00 16.03 36100 37300 (2016) 1120 (2017) 17000 1120 1630 14800 34600 37300
2020-01-25 10:00 15.99 35900 37300 (2016) 1120 (2017) 17000 1120 1630 14800 34600 37300
2020-01-25 09:00 15.92 35700 37300 (2016) 1120 (2017) 17000 1120 1630 14800 34600 37300
2020-01-25 08:00 15.79 35300 37300 (2016) 1120 (2017) 17000 1120 1630 14800 34600 37300
2020-01-25 07:00 15.67 34900 37300 (2016) 1120 (2017) 17000 1120 1630 14800 34600 37300
2020-01-25 06:00 15.49 34300 37300 (2016) 1120 (2017) 17000 1120 1630 14800 34600 37300
2020-01-25 05:00 15.33 33800 37300 (2016) 1120 (2017) 17000 1120 1630 14800 34600 37300
2020-01-25 04:00 15.08 33100 37300 (2016) 1120 (2017) 17000 1120 1630 14800 34600 37300
2020-01-25 03:00 14.77 32100 37300 (2016) 1120 (2017) 17000 1120 1630 14800 34600 37300
2020-01-25 02:00 14.41 31000 37300 (2016) 1120 (2017) 17000 1120 1630 14800 34600 37300
2020-01-25 01:00 13.98 29700 37300 (2016) 1120 (2017) 17000 1120 1630 14800 34600 37300
2020-01-25 00:00 13.51 28300 37300 (2016) 1120 (2017) 17000 1120 1630 14800 34600 37300
2020-01-24 23:00 13.12 27200 37000 (2016) 1450 (2018) 16600 1450 1700 13900 34100 37000
2020-01-24 22:00 12.84 26400 37000 (2016) 1450 (2018) 16600 1450 1700 13900 34100 37000
2020-01-24 21:00 12.72 26000 37000 (2016) 1450 (2018) 16600 1450 1700 13900 34100 37000
2020-01-24 20:00 12.70 26000 37000 (2016) 1450 (2018) 16600 1450 1700 13900 34100 37000
2020-01-24 19:00 12.72 26000 37000 (2016) 1450 (2018) 16600 1450 1700 13900 34100 37000
2020-01-24 18:00 12.77 26200 37000 (2016) 1450 (2018) 16600 1450 1700 13900 34100 37000
2020-01-24 17:00 12.80 26300 37000 (2016) 1450 (2018) 16600 1450 1700 13900 34100 37000
2020-01-24 16:00 12.84 26400 37000 (2016) 1450 (2018) 16600 1450 1700 13900 34100 37000
2020-01-24 15:00 12.87 26500 37000 (2016) 1450 (2018) 16600 1450 1700 13900 34100 37000
2020-01-24 14:00 12.96 26700 37000 (2016) 1450 (2018) 16600 1450 1700 13900 34100 37000
2020-01-24 13:00 13.05 27000 37000 (2016) 1450 (2018) 16600 1450 1700 13900 34100 37000
2020-01-24 12:00 13.14 27200 37000 (2016) 1450 (2018) 16600 1450 1700 13900 34100 37000
2020-01-24 11:00 13.30 27700 37000 (2016) 1450 (2018) 16600 1450 1700 13900 34100 37000
2020-01-24 10:00 13.47 28200 37000 (2016) 1450 (2018) 16600 1450 1700 13900 34100 37000
2020-01-24 09:00 13.64 28700 37000 (2016) 1450 (2018) 16600 1450 1700 13900 34100 37000
2020-01-24 08:00 13.89 29500 37000 (2016) 1450 (2018) 16600 1450 1700 13900 34100 37000
2020-01-24 07:00 14.14 30200 37000 (2016) 1450 (2018) 16600 1450 1700 13900 34100 37000
2020-01-24 06:00 14.39 31000 37000 (2016) 1450 (2018) 16600 1450 1700 13900 34100 37000
2020-01-24 05:00 14.62 31700 37000 (2016) 1450 (2018) 16600 1450 1700 13900 34100 37000
2020-01-24 04:00 14.56 31500 37000 (2016) 1450 (2018) 16600 1450 1700 13900 34100 37000
2020-01-24 03:00 14.52 31400 37000 (2016) 1450 (2018) 16600 1450 1700 13900 34100 37000
2020-01-24 02:00 14.43 31100 37000 (2016) 1450 (2018) 16600 1450 1700 13900 34100 37000
2020-01-24 01:00 14.32 30700 37000 (2016) 1450 (2018) 16600 1450 1700 13900 34100 37000
2020-01-24 00:00 14.21 30400 37000 (2016) 1450 (2018) 16600 1450 1700 13900 34100 37000
2020-01-23 23:00 14.09 30100 37900 (2016) 1560 (2018) 17500 1560 2560 15200 34600 37900
2020-01-23 22:00 14.07 30000 37900 (2016) 1560 (2018) 17500 1560 2560 15200 34600 37900
2020-01-23 21:00 14.30 30700 37900 (2016) 1560 (2018) 17500 1560 2560 15200 34600 37900
2020-01-23 20:00 14.42 31100 37900 (2016) 1560 (2018) 17500 1560 2560 15200 34600 37900
2020-01-23 19:00 14.42 31100 37900 (2016) 1560 (2018) 17500 1560 2560 15200 34600 37900
2020-01-23 18:00 14.39 31000 37900 (2016) 1560 (2018) 17500 1560 2560 15200 34600 37900
2020-01-23 17:00 14.62 31700 37900 (2016) 1560 (2018) 17500 1560 2560 15200 34600 37900
2020-01-23 16:00 14.57 31500 37900 (2016) 1560 (2018) 17500 1560 2560 15200 34600 37900
2020-01-23 15:00 14.47 31200 37900 (2016) 1560 (2018) 17500 1560 2560 15200 34600 37900
2020-01-23 14:00 14.36 30900 37900 (2016) 1560 (2018) 17500 1560 2560 15200 34600 37900
2020-01-23 13:00 14.31 30700 37900 (2016) 1560 (2018) 17500 1560 2560 15200 34600 37900
2020-01-23 12:00 14.16 30300 37900 (2016) 1560 (2018) 17500 1560 2560 15200 34600 37900
2020-01-23 11:00 14.04 29900 37900 (2016) 1560 (2018) 17500 1560 2560 15200 34600 37900
2020-01-23 10:00 13.87 29400 37900 (2016) 1560 (2018) 17500 1560 2560 15200 34600 37900
2020-01-23 09:00 13.71 28900 37900 (2016) 1560 (2018) 17500 1560 2560 15200 34600 37900
2020-01-23 08:00 13.59 28600 37900 (2016) 1560 (2018) 17500 1560 2560 15200 34600 37900
2020-01-23 07:00 13.59 28600 37900 (2016) 1560 (2018) 17500 1560 2560 15200 34600 37900
2020-01-23 06:00 14.00 29800 37900 (2016) 1560 (2018) 17500 1560 2560 15200 34600 37900
2020-01-23 05:00 14.43 31100 37900 (2016) 1560 (2018) 17500 1560 2560 15200 34600 37900
2020-01-23 04:00 14.66 31800 37900 (2016) 1560 (2018) 17500 1560 2560 15200 34600 37900
2020-01-23 03:00 14.63 31700 37900 (2016) 1560 (2018) 17500 1560 2560 15200 34600 37900
2020-01-23 02:00 14.54 31400 37900 (2016) 1560 (2018) 17500 1560 2560 15200 34600 37900
2020-01-23 01:00 14.44 31100 37900 (2016) 1560 (2018) 17500 1560 2560 15200 34600 37900
2020-01-23 00:00 14.33 30800 37900 (2016) 1560 (2018) 17500 1560 2560 15200 34600 37900
2020-01-22 23:00 14.23 30500 37900 (2016) 1120 (2017) 16400 1120 1350 13200 34500 37900
2020-01-22 22:00 14.09 30100 37900 (2016) 1120 (2017) 16400 1120 1350 13200 34500 37900
2020-01-22 21:00 13.92 29500 37900 (2016) 1120 (2017) 16400 1120 1350 13200 34500 37900
2020-01-22 20:00 13.73 29000 37900 (2016) 1120 (2017) 16400 1120 1350 13200 34500 37900
2020-01-22 19:00 13.55 28400 37900 (2016) 1120 (2017) 16400 1120 1350 13200 34500 37900
2020-01-22 18:00 13.30 27700 37900 (2016) 1120 (2017) 16400 1120 1350 13200 34500 37900
2020-01-22 17:00 13.10 27100 37900 (2016) 1120 (2017) 16400 1120 1350 13200 34500 37900
2020-01-22 16:00 13.11 27200 37900 (2016) 1120 (2017) 16400 1120 1350 13200 34500 37900
2020-01-22 15:00 13.17 27300 37900 (2016) 1120 (2017) 16400 1120 1350 13200 34500 37900
2020-01-22 14:00 13.20 27400 37900 (2016) 1120 (2017) 16400 1120 1350 13200 34500 37900
2020-01-22 13:00 13.20 27400 37900 (2016) 1120 (2017) 16400 1120 1350 13200 34500 37900
2020-01-22 12:00 13.11 27200 37900 (2016) 1120 (2017) 16400 1120 1350 13200 34500 37900
2020-01-22 11:00 12.99 26800 37900 (2016) 1120 (2017) 16400 1120 1350 13200 34500 37900
2020-01-22 10:00 12.93 26600 37900 (2016) 1120 (2017) 16400 1120 1350 13200 34500 37900
2020-01-22 09:00 12.89 26500 37900 (2016) 1120 (2017) 16400 1120 1350 13200 34500 37900
2020-01-22 08:00 12.67 25900 37900 (2016) 1120 (2017) 16400 1120 1350 13200 34500 37900
2020-01-22 07:00 12.59 25700 37900 (2016) 1120 (2017) 16400 1120 1350 13200 34500 37900
2020-01-22 06:00 12.93 26600 37900 (2016) 1120 (2017) 16400 1120 1350 13200 34500 37900
2020-01-22 05:00 13.31 27700 37900 (2016) 1120 (2017) 16400 1120 1350 13200 34500 37900
2020-01-22 04:00 13.47 28200 37900 (2016) 1120 (2017) 16400 1120 1350 13200 34500 37900
2020-01-22 03:00 13.52 28400 37900 (2016) 1120 (2017) 16400 1120 1350 13200 34500 37900
2020-01-22 02:00 13.63 28700 37900 (2016) 1120 (2017) 16400 1120 1350 13200 34500 37900
2020-01-22 01:00 13.49 28300 37900 (2016) 1120 (2017) 16400 1120 1350 13200 34500 37900
2020-01-22 00:00 13.43 28100 37900 (2016) 1120 (2017) 16400 1120 1350 13200 34500 37900
2020-01-21 23:00 13.10 27100 37900 (2016) 1070 (2017) 12700 1070 1150 5840 31000 37900
2020-01-21 22:00 12.78 26200 37900 (2016) 1070 (2017) 12700 1070 1150 5840 31000 37900
2020-01-21 21:00 12.33 24900 37900 (2016) 1070 (2017) 12700 1070 1150 5840 31000 37900
2020-01-21 20:00 11.92 23800 37900 (2016) 1070 (2017) 12700 1070 1150 5840 31000 37900
2020-01-21 19:00 11.73 23200 37900 (2016) 1070 (2017) 12700 1070 1150 5840 31000 37900
2020-01-21 18:00 11.94 23800 37900 (2016) 1070 (2017) 12700 1070 1150 5840 31000 37900
2020-01-21 17:00 12.10 24300 37900 (2016) 1070 (2017) 12700 1070 1150 5840 31000 37900
2020-01-21 16:00 12.43 25200 37900 (2016) 1070 (2017) 12700 1070 1150 5840 31000 37900
2020-01-21 15:00 12.85 26400 37900 (2016) 1070 (2017) 12700 1070 1150 5840 31000 37900
2020-01-21 14:00 13.16 27300 37900 (2016) 1070 (2017) 12700 1070 1150 5840 31000 37900
2020-01-21 13:00 13.25 27600 37900 (2016) 1070 (2017) 12700 1070 1150 5840 31000 37900
2020-01-21 12:00 13.71 28900 37900 (2016) 1070 (2017) 12700 1070 1150 5840 31000 37900
2020-01-21 11:00 14.32 30700 37900 (2016) 1070 (2017) 12700 1070 1150 5840 31000 37900
2020-01-21 10:00 14.72 32000 37900 (2016) 1070 (2017) 12700 1070 1150 5840 31000 37900
2020-01-21 09:00 14.74 32000 37900 (2016) 1070 (2017) 12700 1070 1150 5840 31000 37900
2020-01-21 08:00 14.72 32000 37900 (2016) 1070 (2017) 12700 1070 1150 5840 31000 37900
2020-01-21 07:00 14.65 31800 37900 (2016) 1070 (2017) 12700 1070 1150 5840 31000 37900
2020-01-21 06:00 14.59 31600 37900 (2016) 1070 (2017) 12700 1070 1150 5840 31000 37900
2020-01-21 05:00 14.52 31400 37900 (2016) 1070 (2017) 12700 1070 1150 5840 31000 37900
2020-01-21 04:00 14.44 31100 37900 (2016) 1070 (2017) 12700 1070 1150 5840 31000 37900
2020-01-21 03:00 14.37 30900 37900 (2016) 1070 (2017) 12700 1070 1150 5840 31000 37900
2020-01-21 02:00 14.22 30400 37900 (2016) 1070 (2017) 12700 1070 1150 5840 31000 37900
2020-01-21 01:00 14.13 30200 37900 (2016) 1070 (2017) 12700 1070 1150 5840 31000 37900
2020-01-21 00:00 14.03 29900 37900 (2016) 1070 (2017) 12700 1070 1150 5840 31000 37900
2020-01-20 23:00 14.03 29900 37800 (2016) 1190 (2017) 12200 1190 1230 4910 30500 37800
2020-01-20 22:00 14.41 31000 37800 (2016) 1190 (2017) 12200 1190 1230 4910 30500 37800
2020-01-20 21:00 14.76 32100 37800 (2016) 1190 (2017) 12200 1190 1230 4910 30500 37800
2020-01-20 20:00 14.96 32700 37800 (2016) 1190 (2017) 12200 1190 1230 4910 30500 37800
2020-01-20 19:00 14.96 32700 37800 (2016) 1190 (2017) 12200 1190 1230 4910 30500 37800
2020-01-20 18:00 14.99 32800 37800 (2016) 1190 (2017) 12200 1190 1230 4910 30500 37800
2020-01-20 17:00 14.99 32800 37800 (2016) 1190 (2017) 12200 1190 1230 4910 30500 37800
2020-01-20 16:00 14.96 32700 37800 (2016) 1190 (2017) 12200 1190 1230 4910 30500 37800
2020-01-20 15:00 14.96 32700 37800 (2016) 1190 (2017) 12200 1190 1230 4910 30500 37800
2020-01-20 14:00 14.95 32700 37800 (2016) 1190 (2017) 12200 1190 1230 4910 30500 37800
2020-01-20 13:00 14.95 32700 37800 (2016) 1190 (2017) 12200 1190 1230 4910 30500 37800
2020-01-20 12:00 14.96 32700 37800 (2016) 1190 (2017) 12200 1190 1230 4910 30500 37800
2020-01-20 11:00 14.95 32700 37800 (2016) 1190 (2017) 12200 1190 1230 4910 30500 37800
2020-01-20 10:00 14.96 32700 37800 (2016) 1190 (2017) 12200 1190 1230 4910 30500 37800
2020-01-20 09:00 14.96 32700 37800 (2016) 1190 (2017) 12200 1190 1230 4910 30500 37800
2020-01-20 08:00 14.98 32800 37800 (2016) 1190 (2017) 12200 1190 1230 4910 30500 37800
2020-01-20 07:00 15.11 33200 37800 (2016) 1190 (2017) 12200 1190 1230 4910 30500 37800
2020-01-20 06:00 15.62 34800 37800 (2016) 1190 (2017) 12200 1190 1230 4910 30500 37800
2020-01-20 05:00 16.23 36700 37800 (2016) 1190 (2017) 12200 1190 1230 4910 30500 37800
2020-01-20 04:00 16.47 37500 37800 (2016) 1190 (2017) 12200 1190 1230 4910 30500 37800
2020-01-20 03:00 16.51 37600 37800 (2016) 1190 (2017) 12200 1190 1230 4910 30500 37800
2020-01-20 02:00 16.47 37500 37800 (2016) 1190 (2017) 12200 1190 1230 4910 30500 37800
2020-01-20 01:00 16.49 37500 37800 (2016) 1190 (2017) 12200 1190 1230 4910 30500 37800
2020-01-20 00:00 16.49 37500 37800 (2016) 1190 (2017) 12200 1190 1230 4910 30500 37800
2020-01-19 23:00 16.48 37500 39500 (2016) 1410 (2018) 13800 1410 1530 7210 32800 39500
2020-01-19 22:00 16.44 37400 39500 (2016) 1410 (2018) 13800 1410 1530 7210 32800 39500
2020-01-19 21:00 16.47 37500 39500 (2016) 1410 (2018) 13800 1410 1530 7210 32800 39500
2020-01-19 20:00 16.43 37300 39500 (2016) 1410 (2018) 13800 1410 1530 7210 32800 39500
2020-01-19 19:00 16.42 37300 39500 (2016) 1410 (2018) 13800 1410 1530 7210 32800 39500
2020-01-19 18:00 16.40 37200 39500 (2016) 1410 (2018) 13800 1410 1530 7210 32800 39500
2020-01-19 17:00 16.38 37200 39500 (2016) 1410 (2018) 13800 1410 1530 7210 32800 39500
2020-01-19 16:00 16.35 37100 39500 (2016) 1410 (2018) 13800 1410 1530 7210 32800 39500
2020-01-19 15:00 16.35 37100 39500 (2016) 1410 (2018) 13800 1410 1530 7210 32800 39500
2020-01-19 14:00 16.35 37100 39500 (2016) 1410 (2018) 13800 1410 1530 7210 32800 39500
2020-01-19 13:00 16.41 37300 39500 (2016) 1410 (2018) 13800 1410 1530 7210 32800 39500
2020-01-19 12:00 16.50 37600 39500 (2016) 1410 (2018) 13800 1410 1530 7210 32800 39500
2020-01-19 11:00 16.55 37700 39500 (2016) 1410 (2018) 13800 1410 1530 7210 32800 39500
2020-01-19 10:00 16.63 38000 39500 (2016) 1410 (2018) 13800 1410 1530 7210 32800 39500
2020-01-19 09:00 16.69 38200 39500 (2016) 1410 (2018) 13800 1410 1530 7210 32800 39500
2020-01-19 08:00 16.80 38500 39500 (2016) 1410 (2018) 13800 1410 1530 7210 32800 39500
2020-01-19 07:00 16.91 38900 39500 (2016) 1410 (2018) 13800 1410 1530 7210 32800 39500
2020-01-19 06:00 17.01 39300 39500 (2016) 1410 (2018) 13800 1410 1530 7210 32800 39500
2020-01-19 05:00 17.14 39700 39500 (2016) 1410 (2018) 13800 1410 1530 7210 32800 39500
2020-01-19 04:00 17.19 39900 39500 (2016) 1410 (2018) 13800 1410 1530 7210 32800 39500
2020-01-19 03:00 17.26 40100 39500 (2016) 1410 (2018) 13800 1410 1530 7210 32800 39500
2020-01-19 02:00 17.31 40300 39500 (2016) 1410 (2018) 13800 1410 1530 7210 32800 39500
2020-01-19 01:00 17.35 40500 39500 (2016) 1410 (2018) 13800 1410 1530 7210 32800 39500
2020-01-19 00:00 17.37 40500 39500 (2016) 1410 (2018) 13800 1410 1530 7210 32800 39500
2020-01-18 23:00 17.42 40700 40500 (2016) 1870 (2017) 18700 1870 2350 16200 37500 40500
2020-01-18 22:00 17.45 40800 40500 (2016) 1870 (2017) 18700 1870 2350 16200 37500 40500
2020-01-18 21:00 17.45 40800 40500 (2016) 1870 (2017) 18700 1870 2350 16200 37500 40500
2020-01-18 20:00 17.46 40800 40500 (2016) 1870 (2017) 18700 1870 2350 16200 37500 40500
2020-01-18 19:00 17.52 41000 40500 (2016) 1870 (2017) 18700 1870 2350 16200 37500 40500
2020-01-18 18:00 17.55 41200 40500 (2016) 1870 (2017) 18700 1870 2350 16200 37500 40500
2020-01-18 17:00 17.55 41200 40500 (2016) 1870 (2017) 18700 1870 2350 16200 37500 40500
2020-01-18 16:00 17.57 41200 40500 (2016) 1870 (2017) 18700 1870 2350 16200 37500 40500
2020-01-18 15:00 17.63 41400 40500 (2016) 1870 (2017) 18700 1870 2350 16200 37500 40500
2020-01-18 14:00 17.65 41500 40500 (2016) 1870 (2017) 18700 1870 2350 16200 37500 40500
2020-01-18 13:00 17.72 41800 40500 (2016) 1870 (2017) 18700 1870 2350 16200 37500 40500
2020-01-18 12:00 17.78 42000 40500 (2016) 1870 (2017) 18700 1870 2350 16200 37500 40500
2020-01-18 11:00 17.82 42100 40500 (2016) 1870 (2017) 18700 1870 2350 16200 37500 40500
2020-01-18 10:00 17.88 42300 40500 (2016) 1870 (2017) 18700 1870 2350 16200 37500 40500
2020-01-18 09:00 17.91 42400 40500 (2016) 1870 (2017) 18700 1870 2350 16200 37500 40500
2020-01-18 08:00 17.92 42500 40500 (2016) 1870 (2017) 18700 1870 2350 16200 37500 40500
2020-01-18 07:00 17.96 42600 40500 (2016) 1870 (2017) 18700 1870 2350 16200 37500 40500
2020-01-18 06:00 17.99 42700 40500 (2016) 1870 (2017) 18700 1870 2350 16200 37500 40500
2020-01-18 05:00 17.97 42600 40500 (2016) 1870 (2017) 18700 1870 2350 16200 37500 40500
2020-01-18 04:00 17.97 42600 40500 (2016) 1870 (2017) 18700 1870 2350 16200 37500 40500
2020-01-18 03:00 17.90 42400 40500 (2016) 1870 (2017) 18700 1870 2350 16200 37500 40500
2020-01-18 02:00 17.75 41900 40500 (2016) 1870 (2017) 18700 1870 2350 16200 37500 40500
2020-01-18 01:00 17.35 40500 40500 (2016) 1870 (2017) 18700 1870 2350 16200 37500 40500
2020-01-18 00:00 16.87 38800 40500 (2016) 1870 (2017) 18700 1870 2350 16200 37500 40500
2020-01-17 23:00 16.57 37800 41100 (2016) 1070 (2017) 21000 1070 3850 20800 38200 41100
2020-01-17 22:00 16.47 37500 41100 (2016) 1070 (2017) 21000 1070 3850 20800 38200 41100
2020-01-17 21:00 16.37 37100 41100 (2016) 1070 (2017) 21000 1070 3850 20800 38200 41100
2020-01-17 20:00 16.32 37000 41100 (2016) 1070 (2017) 21000 1070 3850 20800 38200 41100
2020-01-17 19:00 16.28 36800 41100 (2016) 1070 (2017) 21000 1070 3850 20800 38200 41100
2020-01-17 18:00 16.24 36700 41100 (2016) 1070 (2017) 21000 1070 3850 20800 38200 41100
2020-01-17 17:00 16.23 36700 41100 (2016) 1070 (2017) 21000 1070 3850 20800 38200 41100
2020-01-17 16:00 16.19 36600 41100 (2016) 1070 (2017) 21000 1070 3850 20800 38200 41100
2020-01-17 15:00 16.19 36600 41100 (2016) 1070 (2017) 21000 1070 3850 20800 38200 41100
2020-01-17 14:00 16.19 36600 41100 (2016) 1070 (2017) 21000 1070 3850 20800 38200 41100
2020-01-17 13:00 16.14 36400 41100 (2016) 1070 (2017) 21000 1070 3850 20800 38200 41100
2020-01-17 12:00 16.14 36400 41100 (2016) 1070 (2017) 21000 1070 3850 20800 38200 41100
2020-01-17 11:00 16.15 36400 41100 (2016) 1070 (2017) 21000 1070 3850 20800 38200 41100
2020-01-17 10:00 16.14 36400 41100 (2016) 1070 (2017) 21000 1070 3850 20800 38200 41100
2020-01-17 09:00 16.13 36400 41100 (2016) 1070 (2017) 21000 1070 3850 20800 38200 41100
2020-01-17 08:00 16.13 36400 41100 (2016) 1070 (2017) 21000 1070 3850 20800 38200 41100
2020-01-17 07:00 16.14 36400 41100 (2016) 1070 (2017) 21000 1070 3850 20800 38200 41100
2020-01-17 06:00 16.10 36300 41100 (2016) 1070 (2017) 21000 1070 3850 20800 38200 41100
2020-01-17 05:00 16.10 36300 41100 (2016) 1070 (2017) 21000 1070 3850 20800 38200 41100
2020-01-17 04:00 16.09 36200 41100 (2016) 1070 (2017) 21000 1070 3850 20800 38200 41100
2020-01-17 03:00 16.06 36100 41100 (2016) 1070 (2017) 21000 1070 3850 20800 38200 41100
2020-01-17 02:00 16.03 36100 41100 (2016) 1070 (2017) 21000 1070 3850 20800 38200 41100
2020-01-17 01:00 16.06 36100 41100 (2016) 1070 (2017) 21000 1070 3850 20800 38200 41100
2020-01-17 00:00 16.06 36100 41100 (2016) 1070 (2017) 21000 1070 3850 20800 38200 41100
2020-01-16 23:00 16.04 36100 47400 (2016) 1080 (2017) 18800 1080 2620 13300 40400 47400
2020-01-16 22:00 16.02 36000 47400 (2016) 1080 (2017) 18800 1080 2620 13300 40400 47400
2020-01-16 21:00 15.99 35900 47400 (2016) 1080 (2017) 18800 1080 2620 13300 40400 47400
2020-01-16 20:00 15.96 35800 47400 (2016) 1080 (2017) 18800 1080 2620 13300 40400 47400
2020-01-16 19:00 15.92 35700 47400 (2016) 1080 (2017) 18800 1080 2620 13300 40400 47400
2020-01-16 18:00 15.85 35500 47400 (2016) 1080 (2017) 18800 1080 2620 13300 40400 47400
2020-01-16 17:00 15.79 35300 47400 (2016) 1080 (2017) 18800 1080 2620 13300 40400 47400
2020-01-16 16:00 15.83 35400 47400 (2016) 1080 (2017) 18800 1080 2620 13300 40400 47400
2020-01-16 15:00 15.98 35900 47400 (2016) 1080 (2017) 18800 1080 2620 13300 40400 47400
2020-01-16 14:00 16.13 36400 47400 (2016) 1080 (2017) 18800 1080 2620 13300 40400 47400
2020-01-16 13:00 16.17 36500 47400 (2016) 1080 (2017) 18800 1080 2620 13300 40400 47400
2020-01-16 12:00 16.16 36500 47400 (2016) 1080 (2017) 18800 1080 2620 13300 40400 47400
2020-01-16 11:00 16.17 36500 47400 (2016) 1080 (2017) 18800 1080 2620 13300 40400 47400
2020-01-16 10:00 16.13 36400 47400 (2016) 1080 (2017) 18800 1080 2620 13300 40400 47400
2020-01-16 09:00 16.12 36300 47400 (2016) 1080 (2017) 18800 1080 2620 13300 40400 47400
2020-01-16 08:00 16.15 36400 47400 (2016) 1080 (2017) 18800 1080 2620 13300 40400 47400
2020-01-16 07:00 16.14 36400 47400 (2016) 1080 (2017) 18800 1080 2620 13300 40400 47400
2020-01-16 06:00 16.11 36300 47400 (2016) 1080 (2017) 18800 1080 2620 13300 40400 47400
2020-01-16 05:00 16.11 36300 47400 (2016) 1080 (2017) 18800 1080 2620 13300 40400 47400
2020-01-16 04:00 16.12 36300 47400 (2016) 1080 (2017) 18800 1080 2620 13300 40400 47400
2020-01-16 03:00 16.13 36400 47400 (2016) 1080 (2017) 18800 1080 2620 13300 40400 47400
2020-01-16 02:00 16.10 36300 47400 (2016) 1080 (2017) 18800 1080 2620 13300 40400 47400
2020-01-16 01:00 16.09 36200 47400 (2016) 1080 (2017) 18800 1080 2620 13300 40400 47400
2020-01-16 00:00 16.09 36200 47400 (2016) 1080 (2017) 18800 1080 2620 13300 40400 47400
2020-01-15 23:00 16.09 36200 51700 (2016) 1110 (2017) 18900 1110 1380 11300 43900 51700
2020-01-15 22:00 16.06 36100 51700 (2016) 1110 (2017) 18900 1110 1380 11300 43900 51700
2020-01-15 21:00 16.06 36100 51700 (2016) 1110 (2017) 18900 1110 1380 11300 43900 51700
2020-01-15 20:00 16.07 36200 51700 (2016) 1110 (2017) 18900 1110 1380 11300 43900 51700
2020-01-15 19:00 16.05 36100 51700 (2016) 1110 (2017) 18900 1110 1380 11300 43900 51700
2020-01-15 18:00 16.04 36100 51700 (2016) 1110 (2017) 18900 1110 1380 11300 43900 51700
2020-01-15 17:00 16.01 36000 51700 (2016) 1110 (2017) 18900 1110 1380 11300 43900 51700
2020-01-15 16:00 15.99 35900 51700 (2016) 1110 (2017) 18900 1110 1380 11300 43900 51700
2020-01-15 15:00 15.98 35900 51700 (2016) 1110 (2017) 18900 1110 1380 11300 43900 51700
2020-01-15 14:00 15.97 35900 51700 (2016) 1110 (2017) 18900 1110 1380 11300 43900 51700
2020-01-15 13:00 15.95 35800 51700 (2016) 1110 (2017) 18900 1110 1380 11300 43900 51700
2020-01-15 12:00 15.94 35800 51700 (2016) 1110 (2017) 18900 1110 1380 11300 43900 51700
2020-01-15 11:00 15.91 35700 51700 (2016) 1110 (2017) 18900 1110 1380 11300 43900 51700
2020-01-15 10:00 15.86 35500 51700 (2016) 1110 (2017) 18900 1110 1380 11300 43900 51700
2020-01-15 09:00 15.80 35300 51700 (2016) 1110 (2017) 18900 1110 1380 11300 43900 51700
2020-01-15 08:00 15.80 35300 51700 (2016) 1110 (2017) 18900 1110 1380 11300 43900 51700
2020-01-15 07:00 15.75 35200 51700 (2016) 1110 (2017) 18900 1110 1380 11300 43900 51700
2020-01-15 06:00 15.70 35000 51700 (2016) 1110 (2017) 18900 1110 1380 11300 43900 51700
2020-01-15 05:00 15.62 34800 51700 (2016) 1110 (2017) 18900 1110 1380 11300 43900 51700
2020-01-15 04:00 15.52 34400 51700 (2016) 1110 (2017) 18900 1110 1380 11300 43900 51700
2020-01-15 03:00 15.40 34100 51700 (2016) 1110 (2017) 18900 1110 1380 11300 43900 51700
2020-01-15 02:00 15.32 33800 51700 (2016) 1110 (2017) 18900 1110 1380 11300 43900 51700
2020-01-15 01:00 15.15 33300 51700 (2016) 1110 (2017) 18900 1110 1380 11300 43900 51700
2020-01-15 00:00 15.01 32900 51700 (2016) 1110 (2017) 18900 1110 1380 11300 43900 51700
2020-01-14 23:00 14.80 32200 51600 (2016) 2320 (2018) 18600 2320 2410 10200 43100 51600
2020-01-14 22:00 14.64 31700 51600 (2016) 2320 (2018) 18600 2320 2410 10200 43100 51600
2020-01-14 21:00 14.56 31500 51600 (2016) 2320 (2018) 18600 2320 2410 10200 43100 51600
2020-01-14 20:00 14.57 31500 51600 (2016) 2320 (2018) 18600 2320 2410 10200 43100 51600
2020-01-14 19:00 14.54 31400 51600 (2016) 2320 (2018) 18600 2320 2410 10200 43100 51600
2020-01-14 18:00 14.56 31500 51600 (2016) 2320 (2018) 18600 2320 2410 10200 43100 51600
2020-01-14 17:00 14.56 31500 51600 (2016) 2320 (2018) 18600 2320 2410 10200 43100 51600
2020-01-14 16:00 14.55 31400 51600 (2016) 2320 (2018) 18600 2320 2410 10200 43100 51600
2020-01-14 15:00 14.57 31500 51600 (2016) 2320 (2018) 18600 2320 2410 10200 43100 51600
2020-01-14 14:00 14.54 31400 51600 (2016) 2320 (2018) 18600 2320 2410 10200 43100 51600
2020-01-14 13:00 14.55 31400 51600 (2016) 2320 (2018) 18600 2320 2410 10200 43100 51600
2020-01-14 12:00 14.55 31400 51600 (2016) 2320 (2018) 18600 2320 2410 10200 43100 51600
2020-01-14 11:00 14.50 31300 51600 (2016) 2320 (2018) 18600 2320 2410 10200 43100 51600
2020-01-14 10:00 14.53 31400 51600 (2016) 2320 (2018) 18600 2320 2410 10200 43100 51600
2020-01-14 09:00 14.51 31300 51600 (2016) 2320 (2018) 18600 2320 2410 10200 43100 51600
2020-01-14 08:00 14.49 31300 51600 (2016) 2320 (2018) 18600 2320 2410 10200 43100 51600
2020-01-14 07:00 14.48 31200 51600 (2016) 2320 (2018) 18600 2320 2410 10200 43100 51600
2020-01-14 06:00 14.47 31200 51600 (2016) 2320 (2018) 18600 2320 2410 10200 43100 51600
2020-01-14 05:00 14.46 31200 51600 (2016) 2320 (2018) 18600 2320 2410 10200 43100 51600
2020-01-14 04:00 14.42 31100 51600 (2016) 2320 (2018) 18600 2320 2410 10200 43100 51600
2020-01-14 03:00 14.41 31000 51600 (2016) 2320 (2018) 18600 2320 2410 10200 43100 51600
2020-01-14 02:00 14.36 30900 51600 (2016) 2320 (2018) 18600 2320 2410 10200 43100 51600
2020-01-14 01:00 14.35 30800 51600 (2016) 2320 (2018) 18600 2320 2410 10200 43100 51600
2020-01-14 00:00 14.27 30600 51600 (2016) 2320 (2018) 18600 2320 2410 10200 43100 51600
2020-01-13 23:00 14.25 30500 51700 (2016) 1520 (2018) 20000 1520 2140 13400 44500 51700
2020-01-13 22:00 14.19 30400 51700 (2016) 1520 (2018) 20000 1520 2140 13400 44500 51700
2020-01-13 21:00 14.11 30100 51700 (2016) 1520 (2018) 20000 1520 2140 13400 44500 51700
2020-01-13 20:00 14.06 30000 51700 (2016) 1520 (2018) 20000 1520 2140 13400 44500 51700
2020-01-13 19:00 13.98 29700 51700 (2016) 1520 (2018) 20000 1520 2140 13400 44500 51700
2020-01-13 18:00 13.84 29300 51700 (2016) 1520 (2018) 20000 1520 2140 13400 44500 51700
2020-01-13 17:00 13.69 28900 51700 (2016) 1520 (2018) 20000 1520 2140 13400 44500 51700
2020-01-13 16:00 13.54 28400 51700 (2016) 1520 (2018) 20000 1520 2140 13400 44500 51700
2020-01-13 15:00 13.34 27800 51700 (2016) 1520 (2018) 20000 1520 2140 13400 44500 51700
2020-01-13 14:00 13.17 27300 51700 (2016) 1520 (2018) 20000 1520 2140 13400 44500 51700
2020-01-13 13:00 13.05 27000 51700 (2016) 1520 (2018) 20000 1520 2140 13400 44500 51700
2020-01-13 12:00 12.78 26200 51700 (2016) 1520 (2018) 20000 1520 2140 13400 44500 51700
2020-01-13 11:00 12.43 25200 51700 (2016) 1520 (2018) 20000 1520 2140 13400 44500 51700
2020-01-13 10:00 12.06 24100 51700 (2016) 1520 (2018) 20000 1520 2140 13400 44500 51700
2020-01-13 09:00 11.77 23300 51700 (2016) 1520 (2018) 20000 1520 2140 13400 44500 51700
2020-01-13 08:00 11.49 22600 51700 (2016) 1520 (2018) 20000 1520 2140 13400 44500 51700
2020-01-13 07:00 11.24 21900 51700 (2016) 1520 (2018) 20000 1520 2140 13400 44500 51700
2020-01-13 06:00 11.41 22300 51700 (2016) 1520 (2018) 20000 1520 2140 13400 44500 51700
2020-01-13 05:00 11.69 23100 51700 (2016) 1520 (2018) 20000 1520 2140 13400 44500 51700
2020-01-13 04:00 11.75 23300 51700 (2016) 1520 (2018) 20000 1520 2140 13400 44500 51700
2020-01-13 03:00 11.65 23000 51700 (2016) 1520 (2018) 20000 1520 2140 13400 44500 51700
2020-01-13 02:00 11.51 22600 51700 (2016) 1520 (2018) 20000 1520 2140 13400 44500 51700
2020-01-13 01:00 11.23 21900 51700 (2016) 1520 (2018) 20000 1520 2140 13400 44500 51700
2020-01-13 00:00 11.04 21300 51700 (2016) 1520 (2018) 20000 1520 2140 13400 44500 51700
2020-01-12 23:00 10.92 21000 51700 (2016) 1080 (2017) 18100 1080 1410 9810 43100 51700
2020-01-12 22:00 10.93 21000 51700 (2016) 1080 (2017) 18100 1080 1410 9810 43100 51700
2020-01-12 21:00 11.21 21800 51700 (2016) 1080 (2017) 18100 1080 1410 9810 43100 51700
2020-01-12 20:00 11.55 22700 51700 (2016) 1080 (2017) 18100 1080 1410 9810 43100 51700
2020-01-12 19:00 11.90 23700 51700 (2016) 1080 (2017) 18100 1080 1410 9810 43100 51700
2020-01-12 18:00 12.31 24900 51700 (2016) 1080 (2017) 18100 1080 1410 9810 43100 51700
2020-01-12 17:00 12.76 26100 51700 (2016) 1080 (2017) 18100 1080 1410 9810 43100 51700
2020-01-12 16:00 13.25 27600 51700 (2016) 1080 (2017) 18100 1080 1410 9810 43100 51700
2020-01-12 15:00 13.82 29200 51700 (2016) 1080 (2017) 18100 1080 1410 9810 43100 51700
2020-01-12 14:00 14.40 31000 51700 (2016) 1080 (2017) 18100 1080 1410 9810 43100 51700
2020-01-12 13:00 15.07 33000 51700 (2016) 1080 (2017) 18100 1080 1410 9810 43100 51700
2020-01-12 12:00 15.81 35400 51700 (2016) 1080 (2017) 18100 1080 1410 9810 43100 51700
2020-01-12 11:00 16.57 37800 51700 (2016) 1080 (2017) 18100 1080 1410 9810 43100 51700
2020-01-12 10:00 17.35 40500 51700 (2016) 1080 (2017) 18100 1080 1410 9810 43100 51700
2020-01-12 09:00 17.65 41500 51700 (2016) 1080 (2017) 18100 1080 1410 9810 43100 51700
2020-01-12 08:00 17.89 42400 51700 (2016) 1080 (2017) 18100 1080 1410 9810 43100 51700
2020-01-12 07:00 18.11 43100 51700 (2016) 1080 (2017) 18100 1080 1410 9810 43100 51700
2020-01-12 06:00 18.37 44100 51700 (2016) 1080 (2017) 18100 1080 1410 9810 43100 51700
2020-01-12 05:00 18.63 45000 51700 (2016) 1080 (2017) 18100 1080 1410 9810 43100 51700
2020-01-12 04:00 18.92 46100 51700 (2016) 1080 (2017) 18100 1080 1410 9810 43100 51700
2020-01-12 03:00 19.16 47000 51700 (2016) 1080 (2017) 18100 1080 1410 9810 43100 51700
2020-01-12 02:00 19.47 48100 51700 (2016) 1080 (2017) 18100 1080 1410 9810 43100 51700
2020-01-12 01:00 19.76 49200 51700 (2016) 1080 (2017) 18100 1080 1410 9810 43100 51700
2020-01-12 00:00 20.05 50300 51700 (2016) 1080 (2017) 18100 1080 1410 9810 43100 51700
2020-01-11 23:00 20.36 51500 51700 (2016) 1110 (2017) 20200 1110 1160 14100 45500 51700
2020-01-11 22:00 20.72 52600 51700 (2016) 1110 (2017) 20200 1110 1160 14100 45500 51700
2020-01-11 21:00 21.05 53500 51700 (2016) 1110 (2017) 20200 1110 1160 14100 45500 51700
2020-01-11 20:00 21.38 54400 51700 (2016) 1110 (2017) 20200 1110 1160 14100 45500 51700
2020-01-11 19:00 21.77 55400 51700 (2016) 1110 (2017) 20200 1110 1160 14100 45500 51700
2020-01-11 18:00 22.17 56500 51700 (2016) 1110 (2017) 20200 1110 1160 14100 45500 51700
2020-01-11 17:00 22.58 57600 51700 (2016) 1110 (2017) 20200 1110 1160 14100 45500 51700
2020-01-11 16:00 22.98 58700 51700 (2016) 1110 (2017) 20200 1110 1160 14100 45500 51700
2020-01-11 15:00 23.04 58800 51700 (2016) 1110 (2017) 20200 1110 1160 14100 45500 51700
2020-01-11 14:00 23.04 58800 51700 (2016) 1110 (2017) 20200 1110 1160 14100 45500 51700
2020-01-11 13:00 23.01 58700 51700 (2016) 1110 (2017) 20200 1110 1160 14100 45500 51700
2020-01-11 12:00 22.96 58600 51700 (2016) 1110 (2017) 20200 1110 1160 14100 45500 51700
2020-01-11 11:00 22.90 58400 51700 (2016) 1110 (2017) 20200 1110 1160 14100 45500 51700
2020-01-11 10:00 22.87 58400 51700 (2016) 1110 (2017) 20200 1110 1160 14100 45500 51700
2020-01-11 09:00 22.84 58300 51700 (2016) 1110 (2017) 20200 1110 1160 14100 45500 51700
2020-01-11 08:00 22.76 58100 51700 (2016) 1110 (2017) 20200 1110 1160 14100 45500 51700
2020-01-11 07:00 22.71 57900 51700 (2016) 1110 (2017) 20200 1110 1160 14100 45500 51700
2020-01-11 06:00 22.65 57800 51700 (2016) 1110 (2017) 20200 1110 1160 14100 45500 51700
2020-01-11 05:00 22.60 57600 51700 (2016) 1110 (2017) 20200 1110 1160 14100 45500 51700
2020-01-11 04:00 22.46 57300 51700 (2016) 1110 (2017) 20200 1110 1160 14100 45500 51700
2020-01-11 03:00 22.21 56600 51700 (2016) 1110 (2017) 20200 1110 1160 14100 45500 51700
2020-01-11 02:00 21.75 55400 51700 (2016) 1110 (2017) 20200 1110 1160 14100 45500 51700
2020-01-11 01:00 21.06 53500 51700 (2016) 1110 (2017) 20200 1110 1160 14100 45500 51700
2020-01-11 00:00 20.36 51500 51700 (2016) 1110 (2017) 20200 1110 1160 14100 45500 51700
2020-01-10 23:00 19.91 49800 51800 (2016) 1290 (2018) 21300 1290 1730 16000 46100 51800
2020-01-10 22:00 19.48 48200 51800 (2016) 1290 (2018) 21300 1290 1730 16000 46100 51800
2020-01-10 21:00 18.77 45500 51800 (2016) 1290 (2018) 21300 1290 1730 16000 46100 51800
2020-01-10 20:00 17.80 42000 51800 (2016) 1290 (2018) 21300 1290 1730 16000 46100 51800
2020-01-10 19:00 16.61 37900 51800 (2016) 1290 (2018) 21300 1290 1730 16000 46100 51800
2020-01-10 18:00 15.73 35100 51800 (2016) 1290 (2018) 21300 1290 1730 16000 46100 51800
2020-01-10 17:00 15.35 33900 51800 (2016) 1290 (2018) 21300 1290 1730 16000 46100 51800
2020-01-10 16:00 15.25 33600 51800 (2016) 1290 (2018) 21300 1290 1730 16000 46100 51800
2020-01-10 15:00 15.12 33200 51800 (2016) 1290 (2018) 21300 1290 1730 16000 46100 51800
2020-01-10 14:00 15.02 32900 51800 (2016) 1290 (2018) 21300 1290 1730 16000 46100 51800
2020-01-10 13:00 14.94 32600 51800 (2016) 1290 (2018) 21300 1290 1730 16000 46100 51800
2020-01-10 12:00 14.83 32300 51800 (2016) 1290 (2018) 21300 1290 1730 16000 46100 51800
2020-01-10 11:00 14.69 31900 51800 (2016) 1290 (2018) 21300 1290 1730 16000 46100 51800
2020-01-10 10:00 14.54 31400 51800 (2016) 1290 (2018) 21300 1290 1730 16000 46100 51800
2020-01-10 09:00 14.42 31100 51800 (2016) 1290 (2018) 21300 1290 1730 16000 46100 51800
2020-01-10 08:00 14.36 30900 51800 (2016) 1290 (2018) 21300 1290 1730 16000 46100 51800
2020-01-10 07:00 14.32 30700 51800 (2016) 1290 (2018) 21300 1290 1730 16000 46100 51800
2020-01-10 06:00 14.25 30500 51800 (2016) 1290 (2018) 21300 1290 1730 16000 46100 51800
2020-01-10 05:00 14.22 30400 51800 (2016) 1290 (2018) 21300 1290 1730 16000 46100 51800
2020-01-10 04:00 14.11 30100 51800 (2016) 1290 (2018) 21300 1290 1730 16000 46100 51800
2020-01-10 03:00 14.02 29800 51800 (2016) 1290 (2018) 21300 1290 1730 16000 46100 51800
2020-01-10 02:00 13.90 29500 51800 (2016) 1290 (2018) 21300 1290 1730 16000 46100 51800
2020-01-10 01:00 13.74 29000 51800 (2016) 1290 (2018) 21300 1290 1730 16000 46100 51800
2020-01-10 00:00 13.60 28600 51800 (2016) 1290 (2018) 21300 1290 1730 16000 46100 51800
2020-01-09 23:00 13.40 28000 51500 (2016) 1310 (2018) 21900 1310 2870 17400 45400 51500
2020-01-09 22:00 13.14 27200 51500 (2016) 1310 (2018) 21900 1310 2870 17400 45400 51500
2020-01-09 21:00 12.84 26400 51500 (2016) 1310 (2018) 21900 1310 2870 17400 45400 51500
2020-01-09 20:00 12.45 25300 51500 (2016) 1310 (2018) 21900 1310 2870 17400 45400 51500
2020-01-09 19:00 11.96 23900 51500 (2016) 1310 (2018) 21900 1310 2870 17400 45400 51500
2020-01-09 18:00 11.36 22200 51500 (2016) 1310 (2018) 21900 1310 2870 17400 45400 51500
2020-01-09 17:00 10.81 20700 51500 (2016) 1310 (2018) 21900 1310 2870 17400 45400 51500
2020-01-09 16:00 10.54 20000 51500 (2016) 1310 (2018) 21900 1310 2870 17400 45400 51500
2020-01-09 15:00 10.67 20300 51500 (2016) 1310 (2018) 21900 1310 2870 17400 45400 51500
2020-01-09 14:00 10.88 20900 51500 (2016) 1310 (2018) 21900 1310 2870 17400 45400 51500
2020-01-09 13:00 11.23 21900 51500 (2016) 1310 (2018) 21900 1310 2870 17400 45400 51500
2020-01-09 12:00 11.46 22500 51500 (2016) 1310 (2018) 21900 1310 2870 17400 45400 51500
2020-01-09 11:00 11.20 21800 51500 (2016) 1310 (2018) 21900 1310 2870 17400 45400 51500
2020-01-09 10:00 10.88 20900 51500 (2016) 1310 (2018) 21900 1310 2870 17400 45400 51500
2020-01-09 09:00 10.69 20400 51500 (2016) 1310 (2018) 21900 1310 2870 17400 45400 51500
2020-01-09 08:00 10.90 21000 51500 (2016) 1310 (2018) 21900 1310 2870 17400 45400 51500
2020-01-09 07:00 11.14 21600 51500 (2016) 1310 (2018) 21900 1310 2870 17400 45400 51500
2020-01-09 06:00 11.55 22700 51500 (2016) 1310 (2018) 21900 1310 2870 17400 45400 51500
2020-01-09 05:00 11.73 23200 51500 (2016) 1310 (2018) 21900 1310 2870 17400 45400 51500
2020-01-09 04:00 11.54 22700 51500 (2016) 1310 (2018) 21900 1310 2870 17400 45400 51500
2020-01-09 03:00 10.83 20800 51500 (2016) 1310 (2018) 21900 1310 2870 17400 45400 51500
2020-01-09 02:00 10.07 18700 51500 (2016) 1310 (2018) 21900 1310 2870 17400 45400 51500
2020-01-09 01:00 9.60 17300 51500 (2016) 1310 (2018) 21900 1310 2870 17400 45400 51500
2020-01-09 00:00 9.75 17700 51500 (2016) 1310 (2018) 21900 1310 2870 17400 45400 51500
2020-01-08 23:00 10.04 18600 50500 (2016) 1540 (2018) 20100 1540 2510 14200 43600 50500
2020-01-08 22:00 9.92 18200 50500 (2016) 1540 (2018) 20100 1540 2510 14200 43600 50500
2020-01-08 21:00 9.75 17700 50500 (2016) 1540 (2018) 20100 1540 2510 14200 43600 50500
2020-01-08 20:00 9.85 18000 50500 (2016) 1540 (2018) 20100 1540 2510 14200 43600 50500
2020-01-08 19:00 10.08 18700 50500 (2016) 1540 (2018) 20100 1540 2510 14200 43600 50500
2020-01-08 18:00 10.56 20000 50500 (2016) 1540 (2018) 20100 1540 2510 14200 43600 50500
2020-01-08 17:00 11.30 22000 50500 (2016) 1540 (2018) 20100 1540 2510 14200 43600 50500
2020-01-08 16:00 11.88 23600 50500 (2016) 1540 (2018) 20100 1540 2510 14200 43600 50500
2020-01-08 15:00 11.95 23800 50500 (2016) 1540 (2018) 20100 1540 2510 14200 43600 50500
2020-01-08 14:00 12.13 24300 50500 (2016) 1540 (2018) 20100 1540 2510 14200 43600 50500
2020-01-08 13:00 12.34 24900 50500 (2016) 1540 (2018) 20100 1540 2510 14200 43600 50500
2020-01-08 12:00 12.82 26300 50500 (2016) 1540 (2018) 20100 1540 2510 14200 43600 50500
2020-01-08 11:00 13.17 27300 50500 (2016) 1540 (2018) 20100 1540 2510 14200 43600 50500
2020-01-08 10:00 13.44 28100 50500 (2016) 1540 (2018) 20100 1540 2510 14200 43600 50500
2020-01-08 09:00 13.51 28300 50500 (2016) 1540 (2018) 20100 1540 2510 14200 43600 50500
2020-01-08 08:00 13.49 28300 50500 (2016) 1540 (2018) 20100 1540 2510 14200 43600 50500
2020-01-08 07:00 13.66 28800 50500 (2016) 1540 (2018) 20100 1540 2510 14200 43600 50500
2020-01-08 06:00 14.01 29800 50500 (2016) 1540 (2018) 20100 1540 2510 14200 43600 50500
2020-01-08 05:00 14.06 30000 50500 (2016) 1540 (2018) 20100 1540 2510 14200 43600 50500
2020-01-08 04:00 14.00 29800 50500 (2016) 1540 (2018) 20100 1540 2510 14200 43600 50500
2020-01-08 03:00 13.90 29500 50500 (2016) 1540 (2018) 20100 1540 2510 14200 43600 50500
2020-01-08 02:00 13.84 29300 50500 (2016) 1540 (2018) 20100 1540 2510 14200 43600 50500
2020-01-08 01:00 13.87 29400 50500 (2016) 1540 (2018) 20100 1540 2510 14200 43600 50500
2020-01-08 00:00 14.25 30500 50500 (2016) 1540 (2018) 20100 1540 2510 14200 43600 50500
2020-01-07 23:00 14.23 30500 50600 (2016) 1350 (2018) 17500 1350 1880 9030 41600 50600
2020-01-07 22:00 14.20 30400 50600 (2016) 1350 (2018) 17500 1350 1880 9030 41600 50600
2020-01-07 21:00 14.13 30200 50600 (2016) 1350 (2018) 17500 1350 1880 9030 41600 50600
2020-01-07 20:00 14.05 29900 50600 (2016) 1350 (2018) 17500 1350 1880 9030 41600 50600
2020-01-07 19:00 13.97 29700 50600 (2016) 1350 (2018) 17500 1350 1880 9030 41600 50600
2020-01-07 18:00 13.87 29400 50600 (2016) 1350 (2018) 17500 1350 1880 9030 41600 50600
2020-01-07 17:00 13.74 29000 50600 (2016) 1350 (2018) 17500 1350 1880 9030 41600 50600
2020-01-07 16:00 13.61 28600 50600 (2016) 1350 (2018) 17500 1350 1880 9030 41600 50600
2020-01-07 15:00 13.47 28200 50600 (2016) 1350 (2018) 17500 1350 1880 9030 41600 50600
2020-01-07 14:00 13.25 27600 50600 (2016) 1350 (2018) 17500 1350 1880 9030 41600 50600
2020-01-07 13:00 12.99 26800 50600 (2016) 1350 (2018) 17500 1350 1880 9030 41600 50600
2020-01-07 12:00 12.65 25800 50600 (2016) 1350 (2018) 17500 1350 1880 9030 41600 50600
2020-01-07 11:00 12.19 24500 50600 (2016) 1350 (2018) 17500 1350 1880 9030 41600 50600
2020-01-07 10:00 11.67 23100 50600 (2016) 1350 (2018) 17500 1350 1880 9030 41600 50600
2020-01-07 09:00 11.01 21300 50600 (2016) 1350 (2018) 17500 1350 1880 9030 41600 50600
2020-01-07 08:00 10.30 19400 50600 (2016) 1350 (2018) 17500 1350 1880 9030 41600 50600
2020-01-07 07:00 9.84 18000 50600 (2016) 1350 (2018) 17500 1350 1880 9030 41600 50600
2020-01-07 06:00 9.89 18100 50600 (2016) 1350 (2018) 17500 1350 1880 9030 41600 50600
2020-01-07 05:00 10.31 19400 50600 (2016) 1350 (2018) 17500 1350 1880 9030 41600 50600
2020-01-07 04:00 10.97 21100 50600 (2016) 1350 (2018) 17500 1350 1880 9030 41600 50600
2020-01-07 03:00 11.95 23800 50600 (2016) 1350 (2018) 17500 1350 1880 9030 41600 50600
2020-01-07 02:00 12.96 26700 50600 (2016) 1350 (2018) 17500 1350 1880 9030 41600 50600
2020-01-07 01:00 13.79 29200 50600 (2016) 1350 (2018) 17500 1350 1880 9030 41600 50600
2020-01-07 00:00 14.06 30000 50600 (2016) 1350 (2018) 17500 1350 1880 9030 41600 50600
2020-01-06 23:00 14.04 29900 50300 (2016) 3350 (2018) 15800 3350 3500 4680 39100 50300
2020-01-06 22:00 14.01 29800 50300 (2016) 3350 (2018) 15800 3350 3500 4680 39100 50300
2020-01-06 21:00 14.00 29800 50300 (2016) 3350 (2018) 15800 3350 3500 4680 39100 50300
2020-01-06 20:00 14.17 30300 50300 (2016) 3350 (2018) 15800 3350 3500 4680 39100 50300
2020-01-06 19:00 14.12 30100 50300 (2016) 3350 (2018) 15800 3350 3500 4680 39100 50300
2020-01-06 18:00 14.02 29800 50300 (2016) 3350 (2018) 15800 3350 3500 4680 39100 50300
2020-01-06 17:00 13.98 29700 50300 (2016) 3350 (2018) 15800 3350 3500 4680 39100 50300
2020-01-06 16:00 13.95 29600 50300 (2016) 3350 (2018) 15800 3350 3500 4680 39100 50300
2020-01-06 15:00 14.11 30100 50300 (2016) 3350 (2018) 15800 3350 3500 4680 39100 50300
2020-01-06 14:00 14.07 30000 50300 (2016) 3350 (2018) 15800 3350 3500 4680 39100 50300
2020-01-06 13:00 14.03 29900 50300 (2016) 3350 (2018) 15800 3350 3500 4680 39100 50300
2020-01-06 12:00 14.10 30100 50300 (2016) 3350 (2018) 15800 3350 3500 4680 39100 50300
2020-01-06 11:00 14.36 30900 50300 (2016) 3350 (2018) 15800 3350 3500 4680 39100 50300
2020-01-06 10:00 14.53 31400 50300 (2016) 3350 (2018) 15800 3350 3500 4680 39100 50300
2020-01-06 09:00 14.52 31400 50300 (2016) 3350 (2018) 15800 3350 3500 4680 39100 50300
2020-01-06 08:00 14.49 31300 50300 (2016) 3350 (2018) 15800 3350 3500 4680 39100 50300
2020-01-06 07:00 14.32 30700 50300 (2016) 3350 (2018) 15800 3350 3500 4680 39100 50300
2020-01-06 06:00 14.43 31100 50300 (2016) 3350 (2018) 15800 3350 3500 4680 39100 50300
2020-01-06 05:00 14.65 31800 50300 (2016) 3350 (2018) 15800 3350 3500 4680 39100 50300
2020-01-06 04:00 14.43 31100 50300 (2016) 3350 (2018) 15800 3350 3500 4680 39100 50300
2020-01-06 03:00 14.12 30100 50300 (2016) 3350 (2018) 15800 3350 3500 4680 39100 50300
2020-01-06 02:00 13.72 29000 50300 (2016) 3350 (2018) 15800 3350 3500 4680 39100 50300
2020-01-06 01:00 13.22 27500 50300 (2016) 3350 (2018) 15800 3350 3500 4680 39100 50300
2020-01-06 00:00 12.62 25700 50300 (2016) 3350 (2018) 15800 3350 3500 4680 39100 50300
2020-01-05 23:00 11.96 23900 43100 (2016) 4730 (2017) 16400 4730 4790 8790 35500 43100
2020-01-05 22:00 11.54 22700 43100 (2016) 4730 (2017) 16400 4730 4790 8790 35500 43100
2020-01-05 21:00 11.55 22700 43100 (2016) 4730 (2017) 16400 4730 4790 8790 35500 43100
2020-01-05 20:00 11.38 22300 43100 (2016) 4730 (2017) 16400 4730 4790 8790 35500 43100
2020-01-05 19:00 11.05 21400 43100 (2016) 4730 (2017) 16400 4730 4790 8790 35500 43100
2020-01-05 18:00 10.82 20700 43100 (2016) 4730 (2017) 16400 4730 4790 8790 35500 43100
2020-01-05 17:00 10.38 19600 43100 (2016) 4730 (2017) 16400 4730 4790 8790 35500 43100
2020-01-05 16:00 10.28 19300 43100 (2016) 4730 (2017) 16400 4730 4790 8790 35500 43100
2020-01-05 15:00 10.41 19600 43100 (2016) 4730 (2017) 16400 4730 4790 8790 35500 43100
2020-01-05 14:00 10.56 20000 43100 (2016) 4730 (2017) 16400 4730 4790 8790 35500 43100
2020-01-05 13:00 10.66 20300 43100 (2016) 4730 (2017) 16400 4730 4790 8790 35500 43100
2020-01-05 12:00 10.89 20900 43100 (2016) 4730 (2017) 16400 4730 4790 8790 35500 43100
2020-01-05 11:00 11.21 21800 43100 (2016) 4730 (2017) 16400 4730 4790 8790 35500 43100
2020-01-05 10:00 11.61 22900 43100 (2016) 4730 (2017) 16400 4730 4790 8790 35500 43100
2020-01-05 09:00 12.01 24000 43100 (2016) 4730 (2017) 16400 4730 4790 8790 35500 43100
2020-01-05 08:00 12.37 25000 43100 (2016) 4730 (2017) 16400 4730 4790 8790 35500 43100
2020-01-05 07:00 12.71 26000 43100 (2016) 4730 (2017) 16400 4730 4790 8790 35500 43100
2020-01-05 06:00 12.91 26600 43100 (2016) 4730 (2017) 16400 4730 4790 8790 35500 43100
2020-01-05 05:00 12.48 25300 43100 (2016) 4730 (2017) 16400 4730 4790 8790 35500 43100
2020-01-05 04:00 12.25 24700 43100 (2016) 4730 (2017) 16400 4730 4790 8790 35500 43100
2020-01-05 03:00 11.97 23900 43100 (2016) 4730 (2017) 16400 4730 4790 8790 35500 43100
2020-01-05 02:00 11.50 22600 43100 (2016) 4730 (2017) 16400 4730 4790 8790 35500 43100
2020-01-05 01:00 10.99 21200 43100 (2016) 4730 (2017) 16400 4730 4790 8790 35500 43100
2020-01-05 00:00 11.03 21300 43100 (2016) 4730 (2017) 16400 4730 4790 8790 35500 43100
2020-01-04 23:00 11.59 22800 40900 (2016) 1070 (2017) 18500 1070 2210 16100 37300 40900
2020-01-04 22:00 11.50 22600 40900 (2016) 1070 (2017) 18500 1070 2210 16100 37300 40900
2020-01-04 21:00 11.54 22700 40900 (2016) 1070 (2017) 18500 1070 2210 16100 37300 40900
2020-01-04 20:00 11.66 23000 40900 (2016) 1070 (2017) 18500 1070 2210 16100 37300 40900
2020-01-04 19:00 11.93 23800 40900 (2016) 1070 (2017) 18500 1070 2210 16100 37300 40900
2020-01-04 18:00 12.26 24700 40900 (2016) 1070 (2017) 18500 1070 2210 16100 37300 40900
2020-01-04 17:00 12.75 26100 40900 (2016) 1070 (2017) 18500 1070 2210 16100 37300 40900
2020-01-04 16:00 13.24 27500 40900 (2016) 1070 (2017) 18500 1070 2210 16100 37300 40900
2020-01-04 15:00 13.70 28900 40900 (2016) 1070 (2017) 18500 1070 2210 16100 37300 40900
2020-01-04 14:00 13.82 29200 40900 (2016) 1070 (2017) 18500 1070 2210 16100 37300 40900
2020-01-04 13:00 13.87 29400 40900 (2016) 1070 (2017) 18500 1070 2210 16100 37300 40900
2020-01-04 12:00 13.94 29600 40900 (2016) 1070 (2017) 18500 1070 2210 16100 37300 40900
2020-01-04 11:00 14.16 30300 40900 (2016) 1070 (2017) 18500 1070 2210 16100 37300 40900
2020-01-04 10:00 14.56 31500 40900 (2016) 1070 (2017) 18500 1070 2210 16100 37300 40900
2020-01-04 09:00 14.86 32400 40900 (2016) 1070 (2017) 18500 1070 2210 16100 37300 40900
2020-01-04 08:00 14.80 32200 40900 (2016) 1070 (2017) 18500 1070 2210 16100 37300 40900
2020-01-04 07:00 14.63 31700 40900 (2016) 1070 (2017) 18500 1070 2210 16100 37300 40900
2020-01-04 06:00 14.68 31800 40900 (2016) 1070 (2017) 18500 1070 2210 16100 37300 40900
2020-01-04 05:00 14.45 31100 40900 (2016) 1070 (2017) 18500 1070 2210 16100 37300 40900
2020-01-04 04:00 14.20 30400 40900 (2016) 1070 (2017) 18500 1070 2210 16100 37300 40900
2020-01-04 03:00 14.03 29900 40900 (2016) 1070 (2017) 18500 1070 2210 16100 37300 40900
2020-01-04 02:00 14.13 30200 40900 (2016) 1070 (2017) 18500 1070 2210 16100 37300 40900
2020-01-04 01:00 13.95 29600 40900 (2016) 1070 (2017) 18500 1070 2210 16100 37300 40900
2020-01-04 00:00 13.97 29700 40900 (2016) 1070 (2017) 18500 1070 2210 16100 37300 40900
2020-01-03 23:00 13.61 28600 37700 (2016) 1070 (2017) 16500 1070 1630 13600 34200 37700
2020-01-03 22:00 13.17 27300 37700 (2016) 1070 (2017) 16500 1070 1630 13600 34200 37700
2020-01-03 21:00 12.91 26600 37700 (2016) 1070 (2017) 16500 1070 1630 13600 34200 37700
2020-01-03 20:00 12.98 26800 37700 (2016) 1070 (2017) 16500 1070 1630 13600 34200 37700
2020-01-03 19:00 13.12 27200 37700 (2016) 1070 (2017) 16500 1070 1630 13600 34200 37700
2020-01-03 18:00 13.39 28000 37700 (2016) 1070 (2017) 16500 1070 1630 13600 34200 37700
2020-01-03 17:00 13.48 28200 37700 (2016) 1070 (2017) 16500 1070 1630 13600 34200 37700
2020-01-03 16:00 13.89 29500 37700 (2016) 1070 (2017) 16500 1070 1630 13600 34200 37700
2020-01-03 15:00 14.29 30700 37700 (2016) 1070 (2017) 16500 1070 1630 13600 34200 37700
2020-01-03 14:00 14.42 31100 37700 (2016) 1070 (2017) 16500 1070 1630 13600 34200 37700
2020-01-03 13:00 14.71 31900 37700 (2016) 1070 (2017) 16500 1070 1630 13600 34200 37700
2020-01-03 12:00 14.84 32300 37700 (2016) 1070 (2017) 16500 1070 1630 13600 34200 37700
2020-01-03 11:00 14.91 32500 37700 (2016) 1070 (2017) 16500 1070 1630 13600 34200 37700
2020-01-03 10:00 14.93 32600 37700 (2016) 1070 (2017) 16500 1070 1630 13600 34200 37700
2020-01-03 09:00 15.03 32900 37700 (2016) 1070 (2017) 16500 1070 1630 13600 34200 37700
2020-01-03 08:00 14.93 32600 37700 (2016) 1070 (2017) 16500 1070 1630 13600 34200 37700
2020-01-03 07:00 14.91 32500 37700 (2016) 1070 (2017) 16500 1070 1630 13600 34200 37700
2020-01-03 06:00 15.39 34000 37700 (2016) 1070 (2017) 16500 1070 1630 13600 34200 37700
2020-01-03 05:00 15.